Darstellungsparameter: Aktuell verwendete Einstellungen:
Skalierung der Graphiken ... ?
xyx+y,   Skalierungsfaktor:      Skalierung: Modus: x, Faktor: 1
Darstellungszeitraum ... ?
Vom - - bis: - -   Zeitraum: 16.02.2004 - 15.08.2004
Min/Max/Avg-Anzeige ... ?
Zeige MMA aktuell
Zeige MMA Monat
Zeige MMA alles
Zeige --A aktuell
Zeige --A Monat
Zeige --A alles
Keine MMA-Anzeige
MMA:
Minimum Maximum Average (ber die Originaldaten)
MMA-Basis: 16.02.2004 - 15.08.2004
Quicknavigation für Darstellung... ?
Tage:      1T, 2T, 3T, 5T -1T -2T -3T -5T +1T +2T +3T +5T
Wochen: 1W, 2W, 3W -1W -2W -3W +1W +2W +3W
Monate: 1M, 3M, 6M -1M -3M -6M +1M +3M +6M
Jahre:    1J, 3J, 5J, 10J -1J -3J -5J -10J +1J +3J +5J +10J
Nutze für die Darstellung ... ?
Originaldaten oder ...
Mittelwerte Minima Maxima auf...
Stundenbasis Tagesbasis Wochenbasis
Monatsbasis Jahresbasis      Datenbasis: Mittelwerte auf Stundenbasis
Darstellen als:
Statistik (Auto) Statistik J:M      Darstellung:
Zur Graphik,    zurück zur Übersicht aller Sensoren.
 
Tabellarische Datenbersicht: ?
 
Sensor: Nr:Datum:Temp:Feuchte:Taupunkt:
Aussen-T/F 1 16-02-2004 00:00:00 5.56 C 78.0000 % 2.04 C
2 16-02-2004 01:00:00 5.5 C 78.8000 % 2.12 C
3 16-02-2004 02:00:00 5 C 78.8000 % 1.63 C
4 16-02-2004 03:00:00 4.94 C 78.4000 % 1.5 C
5 16-02-2004 04:00:00 4.5 C 77.4000 % 0.9 C
6 16-02-2004 05:00:00 4.02 C 76.8000 % 0.33 C
7 16-02-2004 06:00:00 3.38 C 77.0000 % -0.26 C
8 16-02-2004 07:00:00 2.04 C 79.6000 % -1.11 C
9 16-02-2004 08:00:00 1.58 C 81.6000 % -1.22 C
10 16-02-2004 09:00:00 2.14 C 82.6000 % -0.5 C
11 16-02-2004 10:00:00 4.14 C 75.2000 % 0.15 C
12 16-02-2004 11:00:00 5.72 C 66.6000 % 0 C
13 16-02-2004 12:00:00 7.32 C 60.2000 % 0.13 C
14 16-02-2004 13:00:00 9.08 C 52.2000 % -0.19 C
15 16-02-2004 14:00:00 10.14 C 48.6000 % -0.19 C
16 16-02-2004 15:00:00 9.5 C 48.8000 % -0.72 C
17 16-02-2004 16:00:00 8.32 C 51.6000 % -1.05 C
18 16-02-2004 17:00:00 6.58 C 58.0000 % -1.08 C
19 16-02-2004 18:00:00 4.58 C 68.2000 % -0.76 C
20 16-02-2004 19:00:00 4.14 C 71.8000 % -0.48 C
21 16-02-2004 20:00:00 5 C 70.0000 % 0 C
22 16-02-2004 21:00:00 5.14 C 69.2000 % -0.03 C
23 16-02-2004 22:00:00 5.06 C 70.0000 % 0.05 C
24 16-02-2004 23:00:00 4.84 C 70.0000 % -0.16 C
25 17-02-2004 00:00:00 4.42 C 70.8000 % -0.41 C
Sensor: Nr:Datum:Temp:Feuchte:Taupunkt:
Aussen-T/F 26 17-02-2004 01:00:00 4.18 C 71.0000 % -0.6 C
27 17-02-2004 02:00:00 3.98 C 71.2000 % -0.75 C
28 17-02-2004 03:00:00 3.7 C 72.0000 % -0.87 C
29 17-02-2004 04:00:00 3.56 C 71.6000 % -1.08 C
30 17-02-2004 05:00:00 3.34 C 71.0000 % -1.4 C
31 17-02-2004 06:00:00 3.08 C 71.0000 % -1.65 C
32 17-02-2004 07:00:00 2.7 C 71.4000 % -1.94 C
33 17-02-2004 08:00:00 2.46 C 71.8000 % -2.1 C
34 17-02-2004 09:00:00 2.5 C 71.0000 % -2.21 C
35 17-02-2004 10:00:00 3 C 70.4000 % -1.85 C
36 17-02-2004 11:00:00 3 C 68.6000 % -2.2 C
37 17-02-2004 12:00:00 3.14 C 66.6000 % -2.46 C
38 17-02-2004 13:00:00 3.14 C 66.6000 % -2.46 C
39 17-02-2004 14:00:00 3.22 C 63.8000 % -2.96 C
40 17-02-2004 15:00:00 3.54 C 63.2000 % -2.78 C
41 17-02-2004 16:00:00 3.5 C 63.4000 % -2.78 C
42 17-02-2004 17:00:00 3.52 C 64.8000 % -2.47 C
43 17-02-2004 18:00:00 3.42 C 66.0000 % -2.32 C
44 17-02-2004 19:00:00 3.3 C 66.6000 % -2.31 C
45 17-02-2004 20:00:00 3.3 C 68.0000 % -2.03 C
46 17-02-2004 21:00:00 3.3 C 68.0000 % -2.03 C
47 17-02-2004 22:00:00 3.38 C 69.2000 % -1.71 C
48 17-02-2004 23:00:00 3.34 C 70.0000 % -1.6 C
49 18-02-2004 00:00:00 3.32 C 71.6000 % -1.31 C
50 18-02-2004 01:00:00 3.44 C 72.0000 % -1.12 C
Sensor: Nr:Datum:Temp:Feuchte:Taupunkt:
Aussen-T/F 51 18-02-2004 02:00:00 3.5 C 73.2000 % -0.83 C
52 18-02-2004 03:00:00 3.7 C 78.6000 % 0.33 C
53 18-02-2004 04:00:00 3.88 C 76.6000 % 0.15 C
54 18-02-2004 05:00:00 3.76 C 70.2000 % -1.15 C
55 18-02-2004 06:00:00 3.8 C 65.2000 % -2.12 C
56 18-02-2004 07:00:00 3.76 C 66.6000 % -1.87 C
57 18-02-2004 08:00:00 4.02 C 66.4000 % -1.66 C
58 18-02-2004 09:00:00 4.52 C 64.4000 % -1.6 C
59 18-02-2004 10:00:00 4.9 C 60.8000 % -2.02 C
60 18-02-2004 11:00:00 5.34 C 50.0000 % -4.23 C
61 18-02-2004 12:00:00 5.58 C 50.8000 % -3.79 C
62 18-02-2004 13:00:00 5.34 C 59.4000 % -1.92 C
63 18-02-2004 14:00:00 5.44 C 65.8000 % -0.43 C
64 18-02-2004 15:00:00 6.94 C 50.8000 % -2.54 C
65 18-02-2004 16:00:00 6.92 C 47.2000 % -3.54 C
66 18-02-2004 17:00:00 6.5 C 46.8000 % -4.04 C
67 18-02-2004 18:00:00 4.56 C 54.8000 % -3.73 C
68 18-02-2004 19:00:00 3.98 C 59.4000 % -3.2 C
69 18-02-2004 20:00:00 2.44 C 66.2000 % -3.21 C
70 18-02-2004 21:00:00 1.16 C 71.0000 % -3.5 C
71 18-02-2004 22:00:00 0.3 C 74.0000 % -3.78 C
72 18-02-2004 23:00:00 0.14 C 75.4000 % -3.68 C
73 19-02-2004 00:00:00 0.18 C 74.6000 % -3.79 C
74 19-02-2004 01:00:00 -0.08 C 75.4000 % -3.9 C
75 19-02-2004 02:00:00 -0.92 C 76.6000 % -4.5 C
Sensor: Nr:Datum:Temp:Feuchte:Taupunkt:
Aussen-T/F 76 19-02-2004 03:00:00 -1.42 C 78.0000 % -4.75 C
77 19-02-2004 04:00:00 -1.84 C 79.0000 % -4.99 C
78 19-02-2004 05:00:00 -1 C 82.0000 % -3.68 C
79 19-02-2004 06:00:00 -0.34 C 80.0000 % -3.36 C
80 19-02-2004 07:00:00 0.06 C 76.4000 % -3.58 C
81 19-02-2004 08:00:00 0.82 C 73.8000 % -3.31 C
82 19-02-2004 09:00:00 2.18 C 66.8000 % -3.34 C
83 19-02-2004 10:00:00 2.9 C 54.0000 % -5.47 C
84 19-02-2004 11:00:00 3.52 C 44.8000 % -7.33 C
85 19-02-2004 12:00:00 4.46 C 39.0000 % -8.26 C
86 19-02-2004 13:00:00 3.82 C 38.2000 % -9.1 C
87 19-02-2004 14:00:00 3.36 C 43.2000 % -7.94 C
88 19-02-2004 15:00:00 2.8 C 46.2000 % -7.59 C
89 19-02-2004 16:00:00 2.38 C 45.6000 % -8.14 C
90 19-02-2004 17:00:00 1.86 C 45.6000 % -8.62 C
91 19-02-2004 18:00:00 1.36 C 45.8000 % -9.02 C
92 19-02-2004 19:00:00 1.16 C 46.4000 % -9.04 C
93 19-02-2004 20:00:00 1.1 C 47.0000 % -8.93 C
94 19-02-2004 21:00:00 1.08 C 48.0000 % -8.68 C
95 19-02-2004 22:00:00 0.94 C 48.4000 % -8.7 C
96 19-02-2004 23:00:00 0.86 C 49.2000 % -8.57 C
97 20-02-2004 00:00:00 0.76 C 49.0000 % -8.71 C
98 20-02-2004 01:00:00 0.38 C 50.4000 % -8.7 C
99 20-02-2004 02:00:00 0 C 52.6000 % -8.51 C
100 20-02-2004 03:00:00 -0.32 C 55.0000 % -8.25 C
Sensor: Nr:Datum:Temp:Feuchte:Taupunkt:
Aussen-T/F 101 20-02-2004 04:00:00 -0.9 C 56.6000 % -8.43 C
102 20-02-2004 05:00:00 -1.28 C 57.4000 % -8.6 C
103 20-02-2004 06:00:00 -1.48 C 59.2000 % -8.4 C
104 20-02-2004 07:00:00 -1.7 C 60.8000 % -8.26 C
105 20-02-2004 08:00:00 -1.46 C 60.0000 % -8.21 C
106 20-02-2004 09:00:00 -1.02 C 58.0000 % -8.23 C
107 20-02-2004 10:00:00 0.3 C 53.4000 % -8.04 C
108 20-02-2004 11:00:00 2.24 C 45.8000 % -8.22 C
109 20-02-2004 12:00:00 4.24 C 38.8000 % -8.53 C
110 20-02-2004 13:00:00 6.44 C 32.8000 % -8.72 C
111 20-02-2004 14:00:00 8.24 C 27.4000 % -9.44 C
112 20-02-2004 15:00:00 9.12 C 25.0000 % -9.84 C
113 20-02-2004 16:00:00 9.02 C 26.2000 % -9.33 C
114 20-02-2004 17:00:00 6.88 C 34.8000 % -7.57 C
115 20-02-2004 18:00:00 3.42 C 45.4000 % -7.25 C
116 20-02-2004 19:00:00 2.44 C 49.4000 % -7.06 C
117 20-02-2004 20:00:00 1.72 C 52.6000 % -6.91 C
118 20-02-2004 21:00:00 1.02 C 56.0000 % -6.75 C
119 20-02-2004 22:00:00 0.36 C 58.8000 % -6.74 C
120 20-02-2004 23:00:00 -0.08 C 59.6000 % -6.99 C
121 21-02-2004 00:00:00 -0.36 C 60.4000 % -7.08 C
122 21-02-2004 01:00:00 -1.1 C 62.6000 % -7.32 C
123 21-02-2004 02:00:00 -1.44 C 64.0000 % -7.36 C
124 21-02-2004 03:00:00 -2.02 C 65.6000 % -7.59 C
125 21-02-2004 04:00:00 -2.22 C 66.0000 % -7.7 C
Sensor: Nr:Datum:Temp:Feuchte:Taupunkt:
Aussen-T/F 126 21-02-2004 05:00:00 -1.84 C 62.6000 % -8.02 C
127 21-02-2004 06:00:00 -1.94 C 63.2000 % -7.99 C
128 21-02-2004 07:00:00 -1.28 C 59.6000 % -8.12 C
129 21-02-2004 08:00:00 -0.56 C 57.0000 % -8.02 C
130 21-02-2004 09:00:00 0.28 C 55.2000 % -7.63 C
131 21-02-2004 10:00:00 1.22 C 51.6000 % -7.62 C
132 21-02-2004 11:00:00 1.72 C 50.6000 % -7.41 C
133 21-02-2004 12:00:00 3.06 C 46.4000 % -7.3 C
134 21-02-2004 13:00:00 3.56 C 45.4000 % -7.12 C
135 21-02-2004 14:00:00 3.8 C 44.8000 % -7.08 C
136 21-02-2004 15:00:00 5.1 C 42.0000 % -6.73 C
137 21-02-2004 16:00:00 5.38 C 41.4000 % -6.66 C
138 21-02-2004 17:00:00 4.32 C 45.0000 % -6.54 C
139 21-02-2004 18:00:00 3.74 C 48.8000 % -6.02 C
140 21-02-2004 19:00:00 2.82 C 52.8000 % -5.84 C
141 21-02-2004 20:00:00 2.76 C 55.2000 % -5.32 C
142 21-02-2004 21:00:00 2.02 C 57.6000 % -5.45 C
143 21-02-2004 22:00:00 0.96 C 61.6000 % -5.57 C
144 21-02-2004 23:00:00 0.34 C 65.2000 % -5.41 C
145 22-02-2004 00:00:00 0.04 C 65.8000 % -5.58 C
146 22-02-2004 01:00:00 -0.04 C 67.2000 % -5.38 C
147 22-02-2004 02:00:00 0.06 C 67.0000 % -5.32 C
148 22-02-2004 03:00:00 -0.08 C 68.8000 % -5.11 C
149 22-02-2004 04:00:00 0.24 C 68.0000 % -4.95 C
150 22-02-2004 05:00:00 0.4 C 68.4000 % -4.72 C
Sensor: Nr:Datum:Temp:Feuchte:Taupunkt:
Aussen-T/F 151 22-02-2004 06:00:00 0.42 C 69.2000 % -4.55 C
152 22-02-2004 07:00:00 0.8 C 67.8000 % -4.46 C
153 22-02-2004 08:00:00 1.5 C 65.6000 % -4.23 C
154 22-02-2004 09:00:00 1.88 C 65.4000 % -3.9 C
155 22-02-2004 10:00:00 1.66 C 66.0000 % -3.99 C
156 22-02-2004 11:00:00 1.9 C 65.0000 % -3.97 C
157 22-02-2004 12:00:00 1.9 C 63.4000 % -4.3 C
158 22-02-2004 13:00:00 2.74 C 57.2000 % -4.87 C
159 22-02-2004 14:00:00 3.72 C 50.2000 % -5.67 C
160 22-02-2004 15:00:00 5.26 C 39.2000 % -7.48 C
161 22-02-2004 16:00:00 4.52 C 44.2000 % -6.59 C
162 22-02-2004 17:00:00 3.68 C 48.0000 % -6.29 C
163 22-02-2004 18:00:00 3.5 C 50.2000 % -5.87 C
164 22-02-2004 19:00:00 3.08 C 54.4000 % -5.21 C
165 22-02-2004 20:00:00 2.7 C 58.4000 % -4.63 C
166 22-02-2004 21:00:00 3 C 58.4000 % -4.35 C
167 22-02-2004 22:00:00 2.74 C 51.4000 % -6.27 C
168 22-02-2004 23:00:00 1.54 C 49.6000 % -7.84 C
169 23-02-2004 00:00:00 0.58 C 55.6000 % -7.26 C
170 23-02-2004 01:00:00 -0.16 C 60.4000 % -6.89 C
171 23-02-2004 02:00:00 -0.74 C 63.8000 % -6.73 C
172 23-02-2004 03:00:00 -1.46 C 68.0000 % -6.59 C
173 23-02-2004 04:00:00 -1.44 C 70.0000 % -6.19 C
174 23-02-2004 05:00:00 -1.02 C 68.2000 % -6.13 C
175 23-02-2004 06:00:00 -0.7 C 67.8000 % -5.9 C
Sensor: Nr:Datum:Temp:Feuchte:Taupunkt:
Aussen-T/F 176 23-02-2004 07:00:00 -0.5 C 68.0000 % -5.67 C
177 23-02-2004 08:00:00 -0.28 C 68.4000 % -5.38 C
178 23-02-2004 09:00:00 0.66 C 65.4000 % -5.07 C
179 23-02-2004 10:00:00 0.98333 C 63.3333 % -5.18 C
180 23-02-2004 11:00:00 1.84 C 58.6000 % -5.39 C
181 23-02-2004 12:00:00 2.88 C 53.4000 % -5.64 C
182 23-02-2004 13:00:00 4.34 C 42.6000 % -7.24 C
183 23-02-2004 14:00:00 2.74 C 53.6000 % -5.72 C
184 23-02-2004 15:00:00 3.66 C 48.8000 % -6.09 C
185 23-02-2004 16:00:00 3.44 C 39.4000 % -9.05 C
186 23-02-2004 17:00:00 3.14 C 37.8000 % -9.84 C
187 23-02-2004 18:00:00 1.48 C 52.8000 % -7.09 C
188 23-02-2004 19:00:00 -0.16 C 60.2000 % -6.93 C
189 23-02-2004 20:00:00 -1.06 C 64.6000 % -6.87 C
190 23-02-2004 21:00:00 -1.96 C 67.4000 % -7.18 C
191 23-02-2004 22:00:00 -2.46 C 69.4000 % -7.28 C
192 23-02-2004 23:00:00 -2.9 C 71.8000 % -7.27 C
193 24-02-2004 00:00:00 -3.28 C 72.6000 % -7.49 C
194 24-02-2004 01:00:00 -3.74 C 73.8000 % -7.72 C
195 24-02-2004 02:00:00 -4.2 C 74.0000 % -8.13 C
196 24-02-2004 03:00:00 -4.78 C 73.8000 % -8.73 C
197 24-02-2004 04:00:00 -5.14 C 73.0000 % -9.21 C
198 24-02-2004 05:00:00 -5.66 C 73.0000 % -9.72 C
199 24-02-2004 06:00:00 -6.02 C 73.0000 % -10.06 C
200 24-02-2004 07:00:00 -6.04 C 72.0000 % -10.26 C
Sensor: Nr:Datum:Temp:Feuchte:Taupunkt:
Aussen-T/F 201 24-02-2004 08:00:00 -4.88 C 68.4000 % -9.79 C
202 24-02-2004 09:00:00 -3.44 C 66.4000 % -8.79 C
203 24-02-2004 10:00:00 -1.46 C 62.2000 % -7.74 C
204 24-02-2004 11:00:00 0.28 C 55.6000 % -7.54 C
205 24-02-2004 12:00:00 2.06 C 47.2000 % -8 C
206 24-02-2004 13:00:00 3.2 C 40.4000 % -8.95 C
207 24-02-2004 14:00:00 3.4 C 44.0000 % -7.67 C
208 24-02-2004 15:00:00 3.26 C 46.8000 % -7 C
209 24-02-2004 16:00:00 2.96 C 48.8000 % -6.74 C
210 24-02-2004 17:00:00 2.36 C 54.8000 % -5.78 C
211 24-02-2004 18:00:00 1.62 C 60.0000 % -5.29 C
212 24-02-2004 19:00:00 1.56 C 59.0000 % -5.57 C
213 24-02-2004 20:00:00 1.32 C 58.2000 % -5.97 C
214 24-02-2004 21:00:00 1.2 C 58.8000 % -5.95 C
215 24-02-2004 22:00:00 1.28 C 60.4000 % -5.52 C
216 24-02-2004 23:00:00 1.3 C 64.4000 % -4.66 C
217 25-02-2004 00:00:00 1.48 C 64.4000 % -4.49 C
218 25-02-2004 01:00:00 1.56 C 63.6000 % -4.58 C
219 25-02-2004 02:00:00 1.3 C 66.8000 % -4.18 C
220 25-02-2004 03:00:00 1.28 C 67.2000 % -4.12 C
221 25-02-2004 04:00:00 0.76 C 74.8000 % -3.19 C
222 25-02-2004 05:00:00 0.52 C 78.0000 % -2.86 C
223 25-02-2004 06:00:00 0.52 C 79.2000 % -2.66 C
224 25-02-2004 07:00:00 0.42 C 81.8000 % -2.32 C
225 25-02-2004 08:00:00 0.42 C 83.2000 % -2.09 C
Sensor: Nr:Datum:Temp:Feuchte:Taupunkt:
Aussen-T/F 226 25-02-2004 09:00:00 0.66 C 83.0000 % -1.89 C
227 25-02-2004 10:00:00 1.68 C 79.2000 % -1.53 C
228 25-02-2004 11:00:00 3.02 C 70.6000 % -1.79 C
229 25-02-2004 12:00:00 3.7 C 64.0000 % -2.46 C
230 25-02-2004 13:00:00 4.1 C 60.8000 % -2.77 C
231 25-02-2004 14:00:00 4.48 C 54.4000 % -3.9 C
232 25-02-2004 15:00:00 3.68 C 58.0000 % -3.8 C
233 25-02-2004 16:00:00 1.32 C 75.0000 % -2.61 C
234 25-02-2004 17:00:00 0.66 C 80.0000 % -2.38 C
235 25-02-2004 18:00:00 0.56 C 80.4000 % -2.41 C
236 25-02-2004 19:00:00 0.14 C 81.2000 % -2.69 C
237 25-02-2004 20:00:00 0.02 C 81.0000 % -2.84 C
238 25-02-2004 21:00:00 -0.02 C 80.8000 % -2.92 C
239 25-02-2004 22:00:00 0.04 C 79.6000 % -3.06 C
240 25-02-2004 23:00:00 0 C 79.4000 % -3.13 C
241 26-02-2004 00:00:00 -0.1 C 79.6000 % -3.2 C
242 26-02-2004 01:00:00 -0.14 C 79.2000 % -3.3 C
243 26-02-2004 02:00:00 -0.46 C 76.8000 % -4.02 C
244 26-02-2004 03:00:00 -1.38 C 76.4000 % -4.99 C
245 26-02-2004 04:00:00 -1.92 C 76.6000 % -5.47 C
246 26-02-2004 05:00:00 -1.58 C 76.0000 % -5.25 C
247 26-02-2004 06:00:00 -1.72 C 75.8000 % -5.42 C
248 26-02-2004 07:00:00 -2.42 C 74.6000 % -6.31 C
249 26-02-2004 08:00:00 -2 C 71.0000 % -6.54 C
250 26-02-2004 09:00:00 -2.04 C 68.8000 % -6.99 C
Sensor: Nr:Datum:Temp:Feuchte:Taupunkt:
Aussen-T/F 251 26-02-2004 10:00:00 -1.02 C 65.0000 % -6.75 C
252 26-02-2004 11:00:00 -0.12 C 57.2000 % -7.56 C
253 26-02-2004 12:00:00 0.78 C 50.4000 % -8.33 C
254 26-02-2004 13:00:00 2.24 C 44.2000 % -8.67 C
255 26-02-2004 14:00:00 3.26 C 41.2000 % -8.64 C
256 26-02-2004 15:00:00 2.72 C 42.6000 % -8.7 C
257 26-02-2004 16:00:00 1.86 C 49.6000 % -7.54 C
258 26-02-2004 17:00:00 1.14 C 61.2000 % -5.48 C
259 26-02-2004 18:00:00 0.68 C 66.6000 % -4.81 C
260 26-02-2004 19:00:00 0.7 C 60.2000 % -6.11 C
261 26-02-2004 20:00:00 0.34 C 60.2000 % -6.45 C
262 26-02-2004 21:00:00 -0.52 C 63.2000 % -6.64 C
263 26-02-2004 22:00:00 -1.42 C 66.4000 % -6.86 C
264 26-02-2004 23:00:00 -2.02 C 67.8000 % -7.16 C
265 27-02-2004 00:00:00 -2.22 C 65.8000 % -7.74 C
266 27-02-2004 01:00:00 -2.6 C 65.6000 % -8.14 C
267 27-02-2004 02:00:00 -3.52 C 67.8000 % -8.6 C
268 27-02-2004 03:00:00 -3.8 C 69.6000 % -8.53 C
269 27-02-2004 04:00:00 -4.2 C 68.6000 % -9.1 C
270 27-02-2004 05:00:00 -5.08 C 71.0000 % -9.51 C
271 27-02-2004 06:00:00 -5.52 C 71.8000 % -9.79 C
272 27-02-2004 07:00:00 -5.8 C 71.4000 % -10.13 C
273 27-02-2004 08:00:00 -5.48 C 72.2000 % -9.68 C
274 27-02-2004 09:00:00 -4.12 C 67.2000 % -9.29 C
275 27-02-2004 10:00:00 -2.08 C 62.2000 % -8.33 C
Sensor: Nr:Datum:Temp:Feuchte:Taupunkt:
Aussen-T/F 276 27-02-2004 11:00:00 -0.34 C 56.2000 % -7.99 C
277 27-02-2004 12:00:00 0.86 C 46.6000 % -9.26 C
278 27-02-2004 13:00:00 2.46 C 40.0000 % -9.74 C
279 27-02-2004 14:00:00 2.64 C 39.0000 % -9.9 C
280 27-02-2004 15:00:00 2.34 C 40.4000 % -9.72 C
281 27-02-2004 16:00:00 1 C 55.8000 % -6.82 C
282 27-02-2004 17:00:00 0.74 C 58.8000 % -6.38 C
283 27-02-2004 18:00:00 0.46 C 58.0000 % -6.82 C
284 27-02-2004 19:00:00 -0.76 C 61.6000 % -7.2 C
285 27-02-2004 20:00:00 -0.92 C 57.2000 % -8.31 C
286 27-02-2004 21:00:00 -1.04 C 52.0000 % -9.64 C
287 27-02-2004 22:00:00 -1.66 C 57.6000 % -8.92 C
288 27-02-2004 23:00:00 -1.14 C 59.4000 % -8.03 C
289 28-02-2004 00:00:00 -1.42 C 60.2000 % -8.12 C
290 28-02-2004 01:00:00 -1.44 C 57.0000 % -8.84 C
291 28-02-2004 02:00:00 -2.5 C 58.4000 % -9.53 C
292 28-02-2004 03:00:00 -2.68 C 60.4000 % -9.27 C
293 28-02-2004 04:00:00 -2.74 C 61.0000 % -9.2 C
294 28-02-2004 05:00:00 -2.62 C 59.4000 % -9.43 C
295 28-02-2004 06:00:00 -2.12 C 59.4000 % -8.96 C
296 28-02-2004 07:00:00 -1.86 C 61.8000 % -8.2 C
297 28-02-2004 08:00:00 -1.82 C 66.0000 % -7.32 C
298 28-02-2004 09:00:00 -1.02 C 65.2000 % -6.71 C
299 28-02-2004 10:00:00 0.4 C 59.2000 % -6.61 C
300 28-02-2004 11:00:00 0.94 C 59.2000 % -6.11 C
Sensor: Nr:Datum:Temp:Feuchte:Taupunkt:
Aussen-T/F 301 28-02-2004 12:00:00 2.56 C 52.0000 % -6.28 C
302 28-02-2004 13:00:00 4.14 C 44.2000 % -6.94 C
303 28-02-2004 14:00:00 5.5 C 36.8000 % -8.08 C
304 28-02-2004 15:00:00 6.04 C 32.0000 % -9.38 C
305 28-02-2004 16:00:00 6.56 C 30.6000 % -9.49 C
306 28-02-2004 17:00:00 4.4 C 33.8000 % -10.13 C
307 28-02-2004 18:00:00 1.14 C 48.4000 % -8.52 C
308 28-02-2004 19:00:00 -0.125 C 54.5000 % -8.19 C
309 28-02-2004 20:00:00 -0.94 C 56.6000 % -8.46 C
310 28-02-2004 21:00:00 -1.78 C 58.6000 % -8.81 C
311 28-02-2004 22:00:00 -2.48 C 59.4000 % -9.3 C
312 28-02-2004 23:00:00 -3.125 C 61.7500 % -9.41 C
313 29-02-2004 00:00:00 -3.76 C 63.6000 % -9.64 C
314 29-02-2004 01:00:00 -4.06 C 64.6000 % -9.73 C
315 29-02-2004 02:00:00 -4.54 C 65.8000 % -9.95 C
316 29-02-2004 03:00:00 -4.95 C 68.2500 % -9.88 C
317 29-02-2004 04:00:00 -5.44 C 69.4000 % -10.14 C
318 29-02-2004 05:00:00 -5.13333 C 70.1667 % -9.71 C
319 29-02-2004 06:00:00 -4.2 C 67.6000 % -9.29 C
320 29-02-2004 07:00:00 -4.18 C 67.8000 % -9.23 C
321 29-02-2004 08:00:00 -4.72 C 70.0000 % -9.34 C
322 29-02-2004 09:00:00 -3.58 C 69.4000 % -8.36 C
323 29-02-2004 10:00:00 -1.88 C 64.8000 % -7.61 C
324 29-02-2004 11:00:00 0.52 C 56.6000 % -7.08 C
325 29-02-2004 12:00:00 0.86 C 52.4000 % -7.76 C
Sensor: Nr:Datum:Temp:Feuchte:Taupunkt:
Aussen-T/F 326 29-02-2004 13:00:00 2.98 C 45.6000 % -7.6 C
327 29-02-2004 14:00:00 3.62 C 40.0000 % -8.69 C
328 29-02-2004 15:00:00 4.92 C 35.0000 % -9.23 C
329 29-02-2004 16:00:00 4.96 C 34.2000 % -9.49 C
330 29-02-2004 17:00:00 4.4 C 41.0000 % -7.68 C
331 29-02-2004 18:00:00 1.82 C 50.8000 % -7.27 C
332 29-02-2004 19:00:00 0.42 C 58.2000 % -6.82 C
333 29-02-2004 20:00:00 -0.1 C 61.4000 % -6.62 C
334 29-02-2004 21:00:00 -0.88 C 65.8000 % -6.46 C
335 29-02-2004 22:00:00 -1.38 C 66.0000 % -6.9 C
336 29-02-2004 23:00:00 -1.7 C 65.0000 % -7.4 C
337 01-03-2004 00:00:00 -1.8 C 64.0000 % -7.7 C
338 01-03-2004 01:00:00 -2.16 C 62.8000 % -8.28 C
339 01-03-2004 02:00:00 -2.62 C 62.4000 % -8.8 C
340 01-03-2004 03:00:00 -3.28 C 64.6000 % -8.99 C
341 01-03-2004 04:00:00 -2.96 C 65.0000 % -8.6 C
342 01-03-2004 05:00:00 -3.54 C 69.4000 % -8.32 C
343 01-03-2004 06:00:00 -3.98 C 72.4000 % -8.2 C
344 01-03-2004 07:00:00 -4.3 C 72.8000 % -8.44 C
345 01-03-2004 08:00:00 -4.2 C 73.0000 % -8.31 C
346 01-03-2004 09:00:00 -3.44 C 70.6000 % -8 C
347 01-03-2004 10:00:00 -1.34 C 63.0000 % -7.46 C
348 01-03-2004 11:00:00 1.02 C 48.2000 % -8.68 C
349 01-03-2004 12:00:00 2.54 C 40.2000 % -9.6 C
350 01-03-2004 13:00:00 3.12 C 36.8000 % -10.2 C
Sensor: Nr:Datum:Temp:Feuchte:Taupunkt:
Aussen-T/F 351 01-03-2004 14:00:00 4.16 C 33.0000 % -10.65 C
352 01-03-2004 15:00:00 4.44 C 32.6000 % -10.55 C
353 01-03-2004 16:00:00 5.24 C 28.8000 % -11.4 C
354 01-03-2004 17:00:00 3.84 C 35.0000 % -10.19 C
355 01-03-2004 18:00:00 1.6 C 44.6000 % -9.14 C
356 01-03-2004 19:00:00 0.9 C 49.2000 % -8.53 C
357 01-03-2004 20:00:00 0.64 C 52.2000 % -8.01 C
358 01-03-2004 21:00:00 1.06 C 51.2000 % -7.87 C
359 01-03-2004 22:00:00 0.98 C 54.0000 % -7.26 C
360 01-03-2004 23:00:00 0.86 C 60.2000 % -5.96 C
361 02-03-2004 00:00:00 0.44 C 66.4000 % -5.08 C
362 02-03-2004 01:00:00 0.24 C 67.2000 % -5.11 C
363 02-03-2004 02:00:00 0.38 C 66.6000 % -5.09 C
364 02-03-2004 03:00:00 0.7 C 66.0000 % -4.91 C
365 02-03-2004 04:00:00 1.06 C 67.0000 % -4.37 C
366 02-03-2004 05:00:00 1.82 C 73.2000 % -2.46 C
367 02-03-2004 06:00:00 1.74 C 77.8000 % -1.71 C
368 02-03-2004 07:00:00 1.9 C 78.6000 % -1.42 C
369 02-03-2004 08:00:00 2.12 C 79.4000 % -1.06 C
370 02-03-2004 09:00:00 2.46 C 79.4000 % -0.73 C
371 02-03-2004 10:00:00 3.06 C 75.4000 % -0.86 C
372 02-03-2004 11:00:00 3.06 C 74.4000 % -1.04 C
373 02-03-2004 12:00:00 3.5 C 69.2000 % -1.6 C
374 02-03-2004 13:00:00 4.3 C 57.6000 % -3.31 C
375 02-03-2004 14:00:00 4.7 C 53.2000 % -4 C
Sensor: Nr:Datum:Temp:Feuchte:Taupunkt:
Aussen-T/F 376 02-03-2004 15:00:00 5.66 C 48.0000 % -4.47 C
377 02-03-2004 16:00:00 6.32 C 44.2000 % -4.96 C
378 02-03-2004 17:00:00 5.48 C 47.8000 % -4.69 C
379 02-03-2004 18:00:00 4.88 C 49.4000 % -4.81 C
380 02-03-2004 19:00:00 4.34 C 50.8000 % -4.94 C
381 02-03-2004 20:00:00 4.02 C 52.2000 % -4.88 C
382 02-03-2004 21:00:00 3.78 C 55.0000 % -4.41 C
383 02-03-2004 22:00:00 3.74 C 56.2000 % -4.16 C
384 02-03-2004 23:00:00 3.68 C 56.2000 % -4.22 C
385 03-03-2004 00:00:00 3.48 C 57.6000 % -4.08 C
386 03-03-2004 01:00:00 3.3 C 59.2000 % -3.88 C
387 03-03-2004 02:00:00 2.9 C 61.2000 % -3.82 C
388 03-03-2004 03:00:00 2.64 C 61.2000 % -4.07 C
389 03-03-2004 04:00:00 2.14 C 62.0000 % -4.37 C
390 03-03-2004 05:00:00 0.88 C 64.4000 % -5.06 C
391 03-03-2004 06:00:00 0.3 C 65.2000 % -5.45 C
392 03-03-2004 07:00:00 0.38 C 64.8000 % -5.45 C
393 03-03-2004 08:00:00 0.56 C 63.2000 % -5.61 C
394 03-03-2004 09:00:00 0.86 C 61.6000 % -5.66 C
395 03-03-2004 10:00:00 2.22 C 55.6000 % -5.72 C
396 03-03-2004 11:00:00 3.86 C 49.6000 % -5.7 C
397 03-03-2004 12:00:00 6 C 43.2000 % -5.55 C
398 03-03-2004 13:00:00 8.24 C 36.8000 % -5.64 C
399 03-03-2004 14:00:00 9.46 C 32.8000 % -6.06 C
400 03-03-2004 15:00:00 10.46 C 29.4000 % -6.61 C
Sensor: Nr:Datum:Temp:Feuchte:Taupunkt:
Aussen-T/F 401 03-03-2004 16:00:00 10.72 C 27.6000 % -7.21 C
402 03-03-2004 17:00:00 9.28 C 31.6000 % -6.7 C
403 03-03-2004 18:00:00 6.38 C 39.0000 % -6.54 C
404 03-03-2004 19:00:00 4.04 C 49.6000 % -5.53 C
405 03-03-2004 20:00:00 2.56 C 57.6000 % -4.94 C
406 03-03-2004 21:00:00 1.48 C 62.0000 % -4.99 C
407 03-03-2004 22:00:00 0.64 C 64.8000 % -5.21 C
408 03-03-2004 23:00:00 0.02 C 66.4000 % -5.48 C
409 04-03-2004 00:00:00 -0.62 C 67.6000 % -5.86 C
410 04-03-2004 01:00:00 -1.42 C 70.8000 % -6.02 C
411 04-03-2004 02:00:00 -2.02 C 72.8000 % -6.24 C
412 04-03-2004 03:00:00 -2.34 C 73.6000 % -6.4 C
413 04-03-2004 04:00:00 -2.5 C 74.0000 % -6.49 C
414 04-03-2004 05:00:00 -2.54 C 73.6000 % -6.6 C
415 04-03-2004 06:00:00 -2.62 C 74.4000 % -6.53 C
416 04-03-2004 07:00:00 -2.66 C 74.8000 % -6.5 C
417 04-03-2004 08:00:00 -2.38 C 74.6000 % -6.27 C
418 04-03-2004 09:00:00 -1.24 C 73.6000 % -5.34 C
419 04-03-2004 10:00:00 1.78 C 62.6000 % -4.58 C
420 04-03-2004 11:00:00 4.44 C 53.2000 % -4.24 C
421 04-03-2004 12:00:00 6.76 C 46.2000 % -3.97 C
422 04-03-2004 13:00:00 9.22 C 38.2000 % -4.27 C
423 04-03-2004 14:00:00 10.3 C 33.4000 % -5.09 C
424 04-03-2004 15:00:00 10.76 C 31.0000 % -5.66 C
425 04-03-2004 16:00:00 10.08 C 33.4000 % -5.28 C
Sensor: Nr:Datum:Temp:Feuchte:Taupunkt:
Aussen-T/F 426 04-03-2004 17:00:00 8.88 C 38.8000 % -4.37 C
427 04-03-2004 18:00:00 7.46 C 45.6000 % -3.51 C
428 04-03-2004 19:00:00 6.7 C 45.4000 % -4.26 C
429 04-03-2004 20:00:00 6.18 C 44.6000 % -4.97 C
430 04-03-2004 21:00:00 5.2 C 48.8000 % -4.68 C
431 04-03-2004 22:00:00 3.96 C 52.2000 % -4.93 C
432 04-03-2004 23:00:00 2.78 C 55.2000 % -5.3 C
433 05-03-2004 00:00:00 1.92 C 57.2000 % -5.63 C
434 05-03-2004 01:00:00 1.22 C 59.6000 % -5.75 C
435 05-03-2004 02:00:00 0.56 C 62.6000 % -5.74 C
436 05-03-2004 03:00:00 0.24 C 65.0000 % -5.55 C
437 05-03-2004 04:00:00 -0.24 C 65.6000 % -5.89 C
438 05-03-2004 05:00:00 -0.88 C 67.4000 % -6.15 C
439 05-03-2004 06:00:00 -1.18 C 65.8000 % -6.75 C
440 05-03-2004 07:00:00 -1.42 C 63.8000 % -7.38 C
441 05-03-2004 08:00:00 -1.06 C 62.2000 % -7.36 C
442 05-03-2004 09:00:00 -0.18 C 59.8000 % -7.04 C
443 05-03-2004 10:00:00 2.2 C 51.2000 % -6.82 C
444 05-03-2004 11:00:00 4.58 C 41.4000 % -7.39 C
445 05-03-2004 12:00:00 6.62 C 34.4000 % -7.95 C
446 05-03-2004 13:00:00 8.42 C 26.6000 % -9.66 C
447 05-03-2004 14:00:00 9.58 C 20.0000 % -12.24 C
448 05-03-2004 15:00:00 8.66 C 20.0000 % -13.01 C
449 05-03-2004 16:00:00 7.72 C 20.0000 % -13.79 C
450 05-03-2004 17:00:00 6.82 C 23.0000 % -12.83 C
Sensor: Nr:Datum:Temp:Feuchte:Taupunkt:
Aussen-T/F 451 05-03-2004 18:00:00 5.76 C 29.8000 % -10.52 C
452 05-03-2004 19:00:00 5.32 C 33.0000 % -9.62 C
453 05-03-2004 20:00:00 5.04 C 35.6000 % -8.91 C
454 05-03-2004 21:00:00 4.28 C 44.4000 % -6.75 C
455 05-03-2004 22:00:00 3.56 C 48.6000 % -6.24 C
456 05-03-2004 23:00:00 1.84 C 68.2000 % -3.38 C
457 06-03-2004 00:00:00 1.1 C 76.4000 % -2.58 C
458 06-03-2004 01:00:00 0.72 C 79.0000 % -2.49 C
459 06-03-2004 02:00:00 0.3 C 81.0000 % -2.57 C
460 06-03-2004 03:00:00 0.22 C 81.0000 % -2.65 C
461 06-03-2004 04:00:00 0.2 C 80.4000 % -2.77 C
462 06-03-2004 05:00:00 0.28 C 80.0000 % -2.75 C
463 06-03-2004 06:00:00 0.32 C 80.0000 % -2.72 C
464 06-03-2004 07:00:00 0.4 C 79.0000 % -2.81 C
465 06-03-2004 08:00:00 0.46 C 79.4000 % -2.68 C
466 06-03-2004 09:00:00 0.64 C 81.0000 % -2.24 C
467 06-03-2004 10:00:00 0.94 C 80.6000 % -2.01 C
468 06-03-2004 11:00:00 1.3 C 80.6000 % -1.66 C
469 06-03-2004 12:00:00 1.28 C 81.8000 % -1.48 C
470 06-03-2004 13:00:00 1.28 C 82.8000 % -1.31 C
471 06-03-2004 14:00:00 1.82 C 83.6000 % -0.65 C
472 06-03-2004 15:00:00 2.28 C 81.8000 % -0.5 C
473 06-03-2004 16:00:00 3.2 C 75.8000 % -0.65 C
474 06-03-2004 17:00:00 2.86 C 77.4000 % -0.69 C
475 06-03-2004 18:00:00 2.28 C 80.4000 % -0.74 C
Sensor: Nr:Datum:Temp:Feuchte:Taupunkt:
Aussen-T/F 476 06-03-2004 19:00:00 2.34 C 78.6000 % -0.99 C
477 06-03-2004 20:00:00 2.4 C 78.2000 % -1 C
478 06-03-2004 21:00:00 2.6 C 76.4000 % -1.12 C
479 06-03-2004 22:00:00 2.48 C 77.8000 % -0.99 C
480 06-03-2004 23:00:00 2.5 C 70.6000 % -2.29 C
481 07-03-2004 00:00:00 2.14 C 72.0000 % -2.37 C
482 07-03-2004 01:00:00 1.62 C 73.4000 % -2.61 C
483 07-03-2004 02:00:00 1.4 C 72.4000 % -3.01 C
484 07-03-2004 03:00:00 1.76 C 70.0000 % -3.11 C
485 07-03-2004 04:00:00 2.06 C 70.0000 % -2.82 C
486 07-03-2004 05:00:00 2.02 C 73.0000 % -2.3 C
487 07-03-2004 06:00:00 0.92 C 84.0000 % -1.47 C
488 07-03-2004 07:00:00 1.28 C 86.0000 % -0.8 C
489 07-03-2004 08:00:00 2.08 C 84.8000 % -0.2 C
490 07-03-2004 09:00:00 2.7 C 82.8000 % 0.08 C
491 07-03-2004 10:00:00 3.22 C 82.4000 % 0.52 C
492 07-03-2004 11:00:00 4.46 C 78.2000 % 1 C
493 07-03-2004 12:00:00 5.8 C 66.8000 % 0.12 C
494 07-03-2004 13:00:00 6.98 C 58.6000 % -0.56 C
495 07-03-2004 14:00:00 7.5 C 54.4000 % -1.09 C
496 07-03-2004 15:00:00 6.98 C 56.2000 % -1.13 C
497 07-03-2004 16:00:00 6.96 C 57.0000 % -0.96 C
498 07-03-2004 17:00:00 6.02 C 62.4000 % -0.61 C
499 07-03-2004 18:00:00 4.62 C 76.2000 % 0.8 C
500 07-03-2004 19:00:00 4.18 C 80.6000 % 1.15 C
Sensor: Nr:Datum:Temp:Feuchte:Taupunkt:
Aussen-T/F 501 07-03-2004 20:00:00 3.64 C 81.8000 % 0.83 C
502 07-03-2004 21:00:00 3.58 C 81.8000 % 0.77 C
503 07-03-2004 22:00:00 3.12 C 81.8000 % 0.32 C
504 07-03-2004 23:00:00 3.42 C 82.4000 % 0.71 C
505 08-03-2004 00:00:00 3.16 C 81.4000 % 0.29 C
506 08-03-2004 01:00:00 3.1 C 80.8000 % 0.13 C
507 08-03-2004 02:00:00 3.16 C 80.0000 % 0.05 C
508 08-03-2004 03:00:00 3.08 C 80.8000 % 0.11 C
509 08-03-2004 04:00:00 2.92 C 81.8000 % 0.12 C
510 08-03-2004 05:00:00 3.02 C 82.4000 % 0.32 C
511 08-03-2004 06:00:00 2.86 C 82.0000 % 0.1 C
512 08-03-2004 07:00:00 2.52 C 75.8000 % -1.31 C
513 08-03-2004 08:00:00 2.28 C 70.2000 % -2.58 C
514 08-03-2004 09:00:00 2.44 C 65.8000 % -3.29 C
515 08-03-2004 10:00:00 3.44 C 59.8000 % -3.62 C
516 08-03-2004 11:00:00 4 C 52.0000 % -4.95 C
517 08-03-2004 12:00:00 4.9 C 45.2000 % -5.96 C
518 08-03-2004 13:00:00 6.08 C 38.2000 % -7.08 C
519 08-03-2004 14:00:00 7.68 C 31.2000 % -8.27 C
520 08-03-2004 15:00:00 9.12 C 22.4000 % -11.22 C
521 08-03-2004 16:00:00 9.18 C 20.0000 % -12.57 C
522 08-03-2004 17:00:00 7.8 C 22.2000 % -12.44 C
523 08-03-2004 18:00:00 5.14 C 33.4000 % -9.63 C
524 08-03-2004 19:00:00 3.98 C 41.6000 % -7.87 C
525 08-03-2004 20:00:00 2.98 C 49.4000 % -6.56 C
Sensor: Nr:Datum:Temp:Feuchte:Taupunkt:
Aussen-T/F 526 08-03-2004 21:00:00 1.88 C 57.4000 % -5.63 C
527 08-03-2004 22:00:00 1.34 C 60.0000 % -5.55 C
528 08-03-2004 23:00:00 1.42 C 61.0000 % -5.26 C
529 09-03-2004 00:00:00 1.4 C 62.6000 % -4.94 C
530 09-03-2004 01:00:00 0.88 C 75.8000 % -2.89 C
531 09-03-2004 02:00:00 1.16 C 82.0000 % -1.56 C
532 09-03-2004 03:00:00 1.12 C 81.8000 % -1.63 C
533 09-03-2004 04:00:00 0.46 C 82.2000 % -2.21 C
534 09-03-2004 05:00:00 0.38 C 83.4000 % -2.1 C
535 09-03-2004 06:00:00 0.18 C 80.2000 % -2.82 C
536 09-03-2004 07:00:00 0.12 C 80.2000 % -2.88 C
537 09-03-2004 08:00:00 0.34 C 79.6000 % -2.76 C
538 09-03-2004 09:00:00 0.28 C 75.0000 % -3.62 C
539 09-03-2004 10:00:00 1.76 C 60.0000 % -5.16 C
540 09-03-2004 11:00:00 2.38 C 52.8000 % -6.25 C
541 09-03-2004 12:00:00 4.02 C 47.8000 % -6.03 C
542 09-03-2004 13:00:00 4.48 C 44.8000 % -6.46 C
543 09-03-2004 14:00:00 4.86 C 42.6000 % -6.76 C
544 09-03-2004 15:00:00 4.7 C 40.2000 % -7.66 C
545 09-03-2004 16:00:00 4.66 C 38.2000 % -8.35 C
546 09-03-2004 17:00:00 3.84 C 40.6000 % -8.31 C
547 09-03-2004 18:00:00 2.68 C 46.6000 % -7.59 C
548 09-03-2004 19:00:00 1.34 C 53.4000 % -7.07 C
549 09-03-2004 20:00:00 0.2 C 61.8000 % -6.24 C
550 09-03-2004 21:00:00 -0.3 C 65.0000 % -6.07 C
Sensor: Nr:Datum:Temp:Feuchte:Taupunkt:
Aussen-T/F 551 09-03-2004 22:00:00 -0.32 C 65.0000 % -6.09 C
552 09-03-2004 23:00:00 -0.7 C 67.0000 % -6.05 C
553 10-03-2004 00:00:00 -0.62 C 69.2000 % -5.55 C
554 10-03-2004 01:00:00 -0.64 C 69.8000 % -5.46 C
555 10-03-2004 02:00:00 -0.26 C 71.2000 % -4.83 C
556 10-03-2004 03:00:00 -0.26 C 74.4000 % -4.25 C
557 10-03-2004 04:00:00 -0.24 C 77.0000 % -3.78 C
558 10-03-2004 05:00:00 -0.34 C 79.0000 % -3.53 C
559 10-03-2004 06:00:00 -0.36 C 79.0000 % -3.55 C
560 10-03-2004 07:00:00 -0.3 C 78.2000 % -3.63 C
561 10-03-2004 08:00:00 0.14 C 78.8000 % -3.09 C
562 10-03-2004 09:00:00 0.8 C 75.4000 % -3.04 C
563 10-03-2004 10:00:00 1.16 C 73.4000 % -3.06 C
564 10-03-2004 11:00:00 1.82 C 73.8000 % -2.35 C
565 10-03-2004 12:00:00 1.96 C 73.6000 % -2.25 C
566 10-03-2004 13:00:00 2.26 C 72.4000 % -2.18 C
567 10-03-2004 14:00:00 2.74 C 69.4000 % -2.29 C
568 10-03-2004 15:00:00 3.36 C 66.0000 % -2.37 C
569 10-03-2004 16:00:00 3.02 C 66.8000 % -2.53 C
570 10-03-2004 17:00:00 2.14 C 73.8000 % -2.04 C
571 10-03-2004 18:00:00 1.5 C 77.8000 % -1.94 C
572 10-03-2004 19:00:00 1.24 C 79.8000 % -1.85 C
573 10-03-2004 20:00:00 0.84 C 80.8000 % -2.07 C
574 10-03-2004 21:00:00 0.6 C 83.0000 % -1.95 C
575 10-03-2004 22:00:00 0.62 C 84.6000 % -1.67 C
Sensor: Nr:Datum:Temp:Feuchte:Taupunkt:
Aussen-T/F 576 10-03-2004 23:00:00 -0.06 C 84.0000 % -2.43 C
577 11-03-2004 00:00:00 -0.8 C 83.2000 % -3.29 C
578 11-03-2004 01:00:00 -1.26 C 83.2000 % -3.74 C
579 11-03-2004 02:00:00 -1.075 C 84.0000 % -3.43 C
580 11-03-2004 03:00:00 -0.74 C 84.2000 % -3.07 C
581 11-03-2004 04:00:00 -0.68 C 84.0000 % -3.04 C
582 11-03-2004 05:00:00 -0.68 C 83.8000 % -3.07 C
583 11-03-2004 06:00:00 -0.64 C 83.0000 % -3.16 C
584 11-03-2004 07:00:00 -0.66 C 82.2000 % -3.31 C
585 11-03-2004 08:00:00 -0.34 C 81.6000 % -3.1 C
586 11-03-2004 09:00:00 0.28 C 79.8000 % -2.79 C
587 11-03-2004 10:00:00 1.6 C 75.2000 % -2.3 C
588 11-03-2004 11:00:00 2.8 C 69.4000 % -2.23 C
589 11-03-2004 12:00:00 3.1 C 65.0000 % -2.83 C
590 11-03-2004 13:00:00 3.82 C 61.0000 % -2.99 C
591 11-03-2004 14:00:00 4.3 C 57.4000 % -3.36 C
592 11-03-2004 15:00:00 3.98 C 59.2000 % -3.24 C
593 11-03-2004 16:00:00 2.88 C 71.6000 % -1.73 C
594 11-03-2004 17:00:00 2.42 C 76.8000 % -1.23 C
595 11-03-2004 18:00:00 2 C 79.8000 % -1.11 C
596 11-03-2004 19:00:00 1.26 C 82.0000 % -1.46 C
597 11-03-2004 20:00:00 1.22 C 83.2000 % -1.31 C
598 11-03-2004 21:00:00 1.34 C 83.4000 % -1.16 C
599 11-03-2004 22:00:00 1.3 C 82.8000 % -1.29 C
600 11-03-2004 23:00:00 1.22 C 82.8000 % -1.37 C
Sensor: Nr:Datum:Temp:Feuchte:Taupunkt:
Aussen-T/F 601 12-03-2004 00:00:00 1.14 C 82.0000 % -1.58 C
602 12-03-2004 01:00:00 0.94 C 82.0000 % -1.78 C
603 12-03-2004 02:00:00 0.54 C 81.2000 % -2.3 C
604 12-03-2004 03:00:00 -0.84 C 81.0000 % -3.68 C
605 12-03-2004 04:00:00 -1.14 C 82.8000 % -3.68 C
606 12-03-2004 05:00:00 -0.7 C 83.8000 % -3.09 C
607 12-03-2004 06:00:00 -0.4 C 80.6000 % -3.32 C
608 12-03-2004 07:00:00 0 C 77.4000 % -3.47 C
609 12-03-2004 08:00:00 1.2 C 69.8000 % -3.69 C
610 12-03-2004 09:00:00 2.08 C 63.4000 % -4.13 C
611 12-03-2004 10:00:00 3.64 C 56.6000 % -4.16 C
612 12-03-2004 11:00:00 4.68 C 52.4000 % -4.21 C
613 12-03-2004 12:00:00 6.1 C 45.8000 % -4.69 C
614 12-03-2004 13:00:00 6.24 C 43.6000 % -5.21 C
615 12-03-2004 14:00:00 6.46 C 43.0000 % -5.19 C
616 12-03-2004 15:00:00 6.46 C 43.8000 % -4.95 C
617 12-03-2004 16:00:00 6.2 C 41.8000 % -5.8 C
618 12-03-2004 17:00:00 5.84 C 48.4000 % -4.2 C
619 12-03-2004 18:00:00 5.9 C 52.4000 % -3.08 C
620 12-03-2004 19:00:00 5.7 C 61.4000 % -1.13 C
621 12-03-2004 20:00:00 5.64 C 67.8000 % 0.17 C
622 12-03-2004 21:00:00 6.02 C 67.2000 % 0.41 C
623 12-03-2004 22:00:00 6.14 C 67.8000 % 0.65 C
624 12-03-2004 23:00:00 6.1 C 69.4000 % 0.93 C
625 13-03-2004 00:00:00 6.32 C 70.8000 % 1.42 C
Sensor: Nr:Datum:Temp:Feuchte:Taupunkt:
Aussen-T/F 626 13-03-2004 01:00:00 6.34 C 72.2000 % 1.71 C
627 13-03-2004 02:00:00 6.58 C 72.2000 % 1.94 C
628 13-03-2004 03:00:00 6.94 C 71.0000 % 2.05 C
629 13-03-2004 04:00:00 7.28 C 69.6000 % 2.1 C
630 13-03-2004 05:00:00 7.58 C 69.4000 % 2.35 C
631 13-03-2004 06:00:00 7.28 C 72.8000 % 2.73 C
632 13-03-2004 07:00:00 7.5 C 73.4000 % 3.06 C
633 13-03-2004 08:00:00 8.46 C 69.4000 % 3.19 C
634 13-03-2004 09:00:00 9.66 C 65.0000 % 3.41 C
635 13-03-2004 10:00:00 10.18 C 61.4000 % 3.1 C
636 13-03-2004 11:00:00 11.02 C 55.6000 % 2.49 C
637 13-03-2004 12:00:00 11.82 C 48.0000 % 1.18 C
638 13-03-2004 13:00:00 12.68 C 42.6000 % 0.31 C
639 13-03-2004 14:00:00 12.52 C 42.2000 % 0.04 C
640 13-03-2004 15:00:00 12.72 C 46.0000 % 1.41 C
641 13-03-2004 16:00:00 12.8 C 42.8000 % 0.48 C
642 13-03-2004 17:00:00 12.46 C 40.0000 % -0.75 C
643 13-03-2004 18:00:00 11.14 C 44.2000 % -0.58 C
644 13-03-2004 19:00:00 9.58 C 51.4000 % 0.06 C
645 13-03-2004 20:00:00 8.48 C 57.2000 % 0.51 C
646 13-03-2004 21:00:00 7.92 C 59.0000 % 0.41 C
647 13-03-2004 22:00:00 7.6 C 58.2000 % -0.07 C
648 13-03-2004 23:00:00 7.24 C 59.4000 % -0.13 C
649 14-03-2004 00:00:00 7.04 C 60.0000 % -0.18 C
650 14-03-2004 01:00:00 6.6 C 63.8000 % 0.25 C
Sensor: Nr:Datum:Temp:Feuchte:Taupunkt:
Aussen-T/F 651 14-03-2004 02:00:00 6.02 C 66.6000 % 0.29 C
652 14-03-2004 03:00:00 5.08 C 71.2000 % 0.31 C
653 14-03-2004 04:00:00 4.84 C 73.6000 % 0.53 C
654 14-03-2004 05:00:00 5.48 C 72.2000 % 0.88 C
655 14-03-2004 06:00:00 5.7 C 72.4000 % 1.13 C
656 14-03-2004 07:00:00 6.58 C 70.6000 % 1.63 C
657 14-03-2004 08:00:00 7.54 C 67.8000 % 1.98 C
658 14-03-2004 09:00:00 8.4 C 63.0000 % 1.78 C
659 14-03-2004 10:00:00 9.28 C 57.6000 % 1.36 C
660 14-03-2004 11:00:00 10.28 C 51.2000 % 0.66 C
661 14-03-2004 12:00:00 11.88 C 42.4000 % -0.48 C
662 14-03-2004 13:00:00 13.52 C 34.0000 % -2.02 C
663 14-03-2004 14:00:00 14.44 C 32.6000 % -1.78 C
664 14-03-2004 15:00:00 14.62 C 28.0000 % -3.66 C
665 14-03-2004 16:00:00 14.72 C 27.8000 % -3.67 C
666 14-03-2004 17:00:00 13.46 C 30.8000 % -3.4 C
667 14-03-2004 18:00:00 12.46 C 37.8000 % -1.52 C
668 14-03-2004 19:00:00 11.78 C 44.8000 % 0.19 C
669 14-03-2004 20:00:00 11.36 C 47.8000 % 0.7 C
670 14-03-2004 21:00:00 10.64 C 52.4000 % 1.31 C
671 14-03-2004 22:00:00 10.06 C 54.6000 % 1.34 C
672 14-03-2004 23:00:00 10.16 C 54.4000 % 1.39 C
673 15-03-2004 00:00:00 10.78 C 49.0000 % 0.51 C
674 15-03-2004 01:00:00 11.36 C 43.0000 % -0.75 C
675 15-03-2004 02:00:00 11 C 43.6000 % -0.89 C
Sensor: Nr:Datum:Temp:Feuchte:Taupunkt:
Aussen-T/F 676 15-03-2004 03:00:00 10.46 C 46.8000 % -0.41 C
677 15-03-2004 04:00:00 10.44 C 46.4000 % -0.55 C
678 15-03-2004 05:00:00 10.36 C 46.6000 % -0.56 C
679 15-03-2004 06:00:00 10.68 C 46.0000 % -0.45 C
680 15-03-2004 07:00:00 10.82 C 46.4000 % -0.2 C
681 15-03-2004 08:00:00 10.88 C 49.2000 % 0.66 C
682 15-03-2004 09:00:00 11.56 C 48.0000 % 0.94 C
683 15-03-2004 10:00:00 11.92 C 48.0000 % 1.27 C
684 15-03-2004 11:00:00 12.5 C 48.0000 % 1.8 C
685 15-03-2004 12:00:00 13.04 C 48.6000 % 2.47 C
686 15-03-2004 13:00:00 13.64 C 46.6000 % 2.43 C
687 15-03-2004 14:00:00 13.48 C 45.8000 % 2.04 C
688 15-03-2004 15:00:00 13.96 C 45.0000 % 2.23 C
689 15-03-2004 16:00:00 14.3 C 44.0000 % 2.23 C
690 15-03-2004 17:00:00 14.2 C 45.2000 % 2.51 C
691 15-03-2004 18:00:00 13.88 C 47.0000 % 2.77 C
692 15-03-2004 19:00:00 12.4 C 53.6000 % 3.26 C
693 15-03-2004 20:00:00 10.56 C 61.8000 % 3.55 C
694 15-03-2004 21:00:00 9.56 C 66.2000 % 3.57 C
695 15-03-2004 22:00:00 8.8 C 68.8000 % 3.39 C
696 15-03-2004 23:00:00 8.82 C 69.4000 % 3.54 C
697 16-03-2004 00:00:00 8.46 C 71.0000 % 3.51 C
698 16-03-2004 01:00:00 8.68 C 70.4000 % 3.6 C
699 16-03-2004 02:00:00 8.72 C 70.6000 % 3.68 C
700 16-03-2004 03:00:00 9.36 C 70.2000 % 4.22 C
Sensor: Nr:Datum:Temp:Feuchte:Taupunkt:
Aussen-T/F 701 16-03-2004 04:00:00 9.54 C 70.2000 % 4.39 C
702 16-03-2004 05:00:00 8.82 C 73.0000 % 4.25 C
703 16-03-2004 06:00:00 9.36 C 70.2000 % 4.22 C
704 16-03-2004 07:00:00 8.54 C 73.6000 % 4.1 C
705 16-03-2004 08:00:00 8.12 C 74.2000 % 3.81 C
706 16-03-2004 09:00:00 11.9 C 60.0000 % 4.39 C
707 16-03-2004 10:00:00 13.58 C 51.2000 % 3.7 C
708 16-03-2004 11:00:00 14.64 C 48.2000 % 3.82 C
709 16-03-2004 12:00:00 16.02 C 44.2000 % 3.85 C
710 16-03-2004 13:00:00 18.06 C 39.4000 % 4.05 C
711 16-03-2004 14:00:00 18.92 C 37.2000 % 4 C
712 16-03-2004 15:00:00 19.9 C 36.0000 % 4.4 C
713 16-03-2004 16:00:00 20.16 C 37.0000 % 5.02 C
714 16-03-2004 17:00:00 19.64 C 37.8000 % 4.87 C
715 16-03-2004 18:00:00 16.64 C 47.6000 % 5.47 C
716 16-03-2004 19:00:00 14.46 C 55.2000 % 5.59 C
717 16-03-2004 20:00:00 13.22 C 59.8000 % 5.59 C
718 16-03-2004 21:00:00 11.96 C 63.2000 % 5.19 C
719 16-03-2004 22:00:00 10.52 C 66.8000 % 4.62 C
720 16-03-2004 23:00:00 9.32 C 70.4000 % 4.22 C
721 17-03-2004 00:00:00 8.52 C 73.4000 % 4.04 C
722 17-03-2004 01:00:00 7.6 C 75.6000 % 3.57 C
723 17-03-2004 02:00:00 6.62 C 77.6000 % 2.99 C
724 17-03-2004 03:00:00 5.88 C 81.0000 % 2.88 C
725 17-03-2004 04:00:00 5.2 C 81.2000 % 2.25 C
Sensor: Nr:Datum:Temp:Feuchte:Taupunkt:
Aussen-T/F 726 17-03-2004 05:00:00 4.64 C 82.6000 % 1.94 C
727 17-03-2004 06:00:00 4.18 C 83.6000 % 1.66 C
728 17-03-2004 07:00:00 3.88 C 83.6000 % 1.36 C
729 17-03-2004 08:00:00 4.64 C 84.2000 % 2.21 C
730 17-03-2004 09:00:00 5.88 C 82.4000 % 3.12 C
731 17-03-2004 10:00:00 8.8 C 74.0000 % 4.43 C
732 17-03-2004 11:00:00 13.3 C 60.8000 % 5.9 C
733 17-03-2004 12:00:00 17.48 C 46.6000 % 5.93 C
734 17-03-2004 13:00:00 21.28 C 36.8000 % 5.94 C
735 17-03-2004 14:00:00 23.62 C 28.2000 % 4.16 C
736 17-03-2004 15:00:00 24.02 C 25.0000 % 2.8 C
737 17-03-2004 16:00:00 24.1 C 23.8000 % 2.17 C
738 17-03-2004 17:00:00 22.68 C 25.2000 % 1.77 C
739 17-03-2004 18:00:00 19.68 C 38.4000 % 5.13 C
740 17-03-2004 19:00:00 16.84 C 48.6000 % 5.96 C
741 17-03-2004 20:00:00 15.04 C 51.0000 % 4.99 C
742 17-03-2004 21:00:00 14.04 C 51.6000 % 4.24 C
743 17-03-2004 22:00:00 12.6 C 58.6000 % 4.71 C
744 17-03-2004 23:00:00 11.48 C 63.6000 % 4.83 C
745 18-03-2004 00:00:00 10.82 C 66.6000 % 4.86 C
746 18-03-2004 01:00:00 10.02 C 69.8000 % 4.77 C
747 18-03-2004 02:00:00 9.64 C 72.0000 % 4.85 C
748 18-03-2004 03:00:00 9.12 C 73.6000 % 4.66 C
749 18-03-2004 04:00:00 8.42 C 76.2000 % 4.48 C
750 18-03-2004 05:00:00 7.96 C 78.0000 % 4.37 C
Sensor: Nr:Datum:Temp:Feuchte:Taupunkt:
Aussen-T/F 751 18-03-2004 06:00:00 7.42 C 80.0000 % 4.2 C
752 18-03-2004 07:00:00 7.8 C 79.2000 % 4.43 C
753 18-03-2004 08:00:00 8.9 C 74.6000 % 4.64 C
754 18-03-2004 09:00:00 10.46 C 68.6000 % 4.94 C
755 18-03-2004 10:00:00 13.04 C 60.4000 % 5.56 C
756 18-03-2004 11:00:00 15.82 C 53.6000 % 6.43 C
757 18-03-2004 12:00:00 19.2 C 45.6000 % 7.18 C
758 18-03-2004 13:00:00 21.88 C 38.2000 % 7.01 C
759 18-03-2004 14:00:00 22.72 C 32.2000 % 5.28 C
760 18-03-2004 15:00:00 21.98 C 32.4000 % 4.72 C
761 18-03-2004 16:00:00 20.36 C 39.4000 % 6.11 C
762 18-03-2004 17:00:00 19.46 C 40.8000 % 5.81 C
763 18-03-2004 18:00:00 17.96 C 46.6000 % 6.37 C
764 18-03-2004 19:00:00 16.8 C 50.0000 % 6.33 C
765 18-03-2004 20:00:00 15.84 C 54.2000 % 6.61 C
766 18-03-2004 21:00:00 15.36 C 55.6000 % 6.54 C
767 18-03-2004 22:00:00 14.72 C 58.8000 % 6.75 C
768 18-03-2004 23:00:00 14.62 C 59.6000 % 6.85 C
769 19-03-2004 00:00:00 14.24 C 62.8000 % 7.26 C
770 19-03-2004 01:00:00 13.12 C 68.6000 % 7.48 C
771 19-03-2004 02:00:00 12.56 C 70.8000 % 7.41 C
772 19-03-2004 03:00:00 12.52 C 64.2000 % 5.95 C
773 19-03-2004 04:00:00 11.98 C 63.2000 % 5.21 C
774 19-03-2004 05:00:00 11.8 C 65.4000 % 5.53 C
775 19-03-2004 06:00:00 11.86 C 64.8000 % 5.46 C
Sensor: Nr:Datum:Temp:Feuchte:Taupunkt:
Aussen-T/F 776 19-03-2004 07:00:00 11.8 C 64.2000 % 5.27 C
777 19-03-2004 08:00:00 11.88 C 62.6000 % 4.98 C
778 19-03-2004 09:00:00 12.12 C 59.0000 % 4.36 C
779 19-03-2004 10:00:00 12.6 C 57.2000 % 4.37 C
780 19-03-2004 11:00:00 12.24 C 60.8000 % 4.9 C
781 19-03-2004 12:00:00 12.62 C 60.8000 % 5.26 C
782 19-03-2004 13:00:00 12.44 C 63.2000 % 5.65 C
783 19-03-2004 14:00:00 12.26 C 63.0000 % 5.43 C
784 19-03-2004 15:00:00 12.22 C 64.0000 % 5.62 C
785 19-03-2004 16:00:00 12.26 C 63.6000 % 5.57 C
786 19-03-2004 17:00:00 12.66 C 59.6000 % 5.01 C
787 19-03-2004 18:00:00 12.74 C 58.4000 % 4.8 C
788 19-03-2004 19:00:00 12.92 C 57.6000 % 4.77 C
789 19-03-2004 20:00:00 12.36 C 62.4000 % 5.39 C
790 19-03-2004 21:00:00 11.86 C 67.0000 % 5.94 C
791 19-03-2004 22:00:00 11.6 C 71.2000 % 6.57 C
792 19-03-2004 23:00:00 11.34 C 74.8000 % 7.04 C
793 20-03-2004 00:00:00 11.06 C 79.4000 % 7.64 C
794 20-03-2004 01:00:00 11.14 C 79.8000 % 7.79 C
795 20-03-2004 02:00:00 10.5 C 79.4000 % 7.09 C
796 20-03-2004 03:00:00 10.14 C 65.2000 % 3.91 C
797 20-03-2004 04:00:00 9.5 C 64.8000 % 3.22 C
798 20-03-2004 05:00:00 9.3 C 68.0000 % 3.71 C
799 20-03-2004 06:00:00 9.08 C 68.6000 % 3.62 C
800 20-03-2004 07:00:00 9.58 C 67.6000 % 3.89 C
Sensor: Nr:Datum:Temp:Feuchte:Taupunkt:
Aussen-T/F 801 20-03-2004 08:00:00 10.36 C 67.4000 % 4.59 C
802 20-03-2004 09:00:00 11.16 C 71.2000 % 6.15 C
803 20-03-2004 10:00:00 11.86 C 73.0000 % 7.18 C
804 20-03-2004 11:00:00 12.84 C 73.0000 % 8.13 C
805 20-03-2004 12:00:00 13.8 C 71.4000 % 8.72 C
806 20-03-2004 13:00:00 13.96 C 71.4000 % 8.88 C
807 20-03-2004 14:00:00 14.3 C 69.0000 % 8.7 C
808 20-03-2004 15:00:00 14.6 C 66.4000 % 8.42 C
809 20-03-2004 16:00:00 14.2 C 66.4000 % 8.03 C
810 20-03-2004 17:00:00 14.08 C 64.0000 % 7.38 C
811 20-03-2004 18:00:00 13.62 C 68.6000 % 7.96 C
812 20-03-2004 19:00:00 13.72 C 66.6000 % 7.62 C
813 20-03-2004 20:00:00 13.7 C 66.8000 % 7.65 C
814 20-03-2004 21:00:00 13.2 C 71.8000 % 8.23 C
815 20-03-2004 22:00:00 13.48 C 68.6000 % 7.83 C
816 20-03-2004 23:00:00 13.32 C 67.6000 % 7.46 C
817 21-03-2004 00:00:00 12.76 C 71.0000 % 7.64 C
818 21-03-2004 01:00:00 11.82 C 77.8000 % 8.08 C
819 21-03-2004 02:00:00 10.72 C 87.6000 % 8.75 C
820 21-03-2004 03:00:00 9.82 C 89.0000 % 8.1 C
821 21-03-2004 04:00:00 8.28 C 80.8000 % 5.18 C
822 21-03-2004 05:00:00 7.58 C 78.6000 % 4.11 C
823 21-03-2004 06:00:00 7.36 C 75.2000 % 3.27 C
824 21-03-2004 07:00:00 7.46 C 72.8000 % 2.91 C
825 21-03-2004 08:00:00 7.98 C 69.8000 % 2.81 C
Sensor: Nr:Datum:Temp:Feuchte:Taupunkt:
Aussen-T/F 826 21-03-2004 09:00:00 8.42 C 71.6000 % 3.59 C
827 21-03-2004 10:00:00 9.64 C 66.8000 % 3.78 C
828 21-03-2004 11:00:00 11.4 C 45.0000 % -0.09 C
829 21-03-2004 12:00:00 12.18 C 35.8000 % -2.5 C
830 21-03-2004 13:00:00 13.14 C 35.6000 % -1.73 C
831 21-03-2004 14:00:00 13.66 C 31.4000 % -2.96 C
832 21-03-2004 15:00:00 12.44 C 44.0000 % 0.54 C
833 21-03-2004 16:00:00 12.64 C 40.6000 % -0.38 C
834 21-03-2004 17:00:00 10.32 C 56.4000 % 2.04 C
835 21-03-2004 18:00:00 9.48 C 59.4000 % 1.97 C
836 21-03-2004 19:00:00 8.54 C 61.8000 % 1.64 C
837 21-03-2004 20:00:00 8.54 C 60.8000 % 1.41 C
838 21-03-2004 21:00:00 7.72 C 67.6000 % 2.11 C
839 21-03-2004 22:00:00 7.24 C 74.8000 % 3.08 C
840 21-03-2004 23:00:00 7.4 C 72.8000 % 2.85 C
841 22-03-2004 00:00:00 7.82 C 66.8000 % 2.04 C
842 22-03-2004 01:00:00 4.78 C 84.2000 % 2.35 C
843 22-03-2004 02:00:00 4.34 C 87.6000 % 2.47 C
844 22-03-2004 03:00:00 5.6 C 80.6000 % 2.53 C
845 22-03-2004 04:00:00 5.74 C 75.8000 % 1.81 C
846 22-03-2004 05:00:00 5.72 C 75.4000 % 1.72 C
847 22-03-2004 06:00:00 6.08 C 72.8000 % 1.58 C
848 22-03-2004 07:00:00 6.58 C 70.0000 % 1.51 C
849 22-03-2004 08:00:00 7.1 C 67.4000 % 1.48 C
850 22-03-2004 09:00:00 7.12 C 72.4000 % 2.5 C
Sensor: Nr:Datum:Temp:Feuchte:Taupunkt:
Aussen-T/F 851 22-03-2004 10:00:00 7.62 C 68.2000 % 2.14 C
852 22-03-2004 11:00:00 8.7 C 63.6000 % 2.19 C
853 22-03-2004 12:00:00 8.5 C 65.8000 % 2.48 C
854 22-03-2004 13:00:00 7.5 C 77.0000 % 3.74 C
855 22-03-2004 14:00:00 7.92 C 70.4000 % 2.88 C
856 22-03-2004 15:00:00 7.66 C 67.6000 % 2.06 C
857 22-03-2004 16:00:00 8.66 C 58.2000 % 0.92 C
858 22-03-2004 17:00:00 7.74 C 70.4000 % 2.7 C
859 22-03-2004 18:00:00 6.56 C 76.4000 % 2.72 C
860 22-03-2004 19:00:00 5.9 C 72.8000 % 1.4 C
861 22-03-2004 20:00:00 4.74 C 81.6000 % 1.87 C
862 22-03-2004 21:00:00 4.62 C 83.8000 % 2.12 C
863 22-03-2004 22:00:00 4.46 C 83.2000 % 1.86 C
864 22-03-2004 23:00:00 4.04 C 84.8000 % 1.72 C
865 23-03-2004 00:00:00 3.38 C 86.4000 % 1.33 C
866 23-03-2004 01:00:00 2.26 C 89.2000 % 0.67 C
867 23-03-2004 02:00:00 1.7 C 91.0000 % 0.39 C
868 23-03-2004 03:00:00 1.28 C 91.4000 % 0.04 C
869 23-03-2004 04:00:00 1.82 C 93.8000 % 0.93 C
870 23-03-2004 05:00:00 2.28 C 94.0000 % 1.42 C
871 23-03-2004 06:00:00 2.36 C 93.0000 % 1.35 C
872 23-03-2004 07:00:00 2.96 C 92.6000 % 1.88 C
873 23-03-2004 08:00:00 3.94 C 90.4000 % 2.52 C
874 23-03-2004 09:00:00 6.14 C 77.6000 % 2.53 C
875 23-03-2004 10:00:00 7.02 C 73.2000 % 2.56 C
Sensor: Nr:Datum:Temp:Feuchte:Taupunkt:
Aussen-T/F 876 23-03-2004 11:00:00 8.12 C 66.2000 % 2.2 C
877 23-03-2004 12:00:00 8.2 C 62.8000 % 1.54 C
878 23-03-2004 13:00:00 10.38 C 52.4000 % 1.07 C
879 23-03-2004 14:00:00 11.54 C 47.8000 % 0.87 C
880 23-03-2004 15:00:00 8.06 C 69.4000 % 2.81 C
881 23-03-2004 16:00:00 7.36 C 75.4000 % 3.3 C
882 23-03-2004 17:00:00 6.76 C 71.8000 % 2.04 C
883 23-03-2004 18:00:00 6 C 79.2000 % 2.68 C
884 23-03-2004 19:00:00 5.2 C 80.6000 % 2.14 C
885 23-03-2004 20:00:00 4.38 C 83.8000 % 1.89 C
886 23-03-2004 21:00:00 4.08 C 86.0000 % 1.95 C
887 23-03-2004 22:00:00 3.92 C 86.4000 % 1.86 C
888 23-03-2004 23:00:00 4 C 86.4000 % 1.94 C
889 24-03-2004 00:00:00 3.84 C 87.6000 % 1.98 C
890 24-03-2004 01:00:00 3.94 C 88.0000 % 2.14 C
891 24-03-2004 02:00:00 3.94 C 84.4000 % 1.56 C
892 24-03-2004 03:00:00 3.06 C 86.4000 % 1.02 C
893 24-03-2004 04:00:00 2.8 C 87.2000 % 0.89 C
894 24-03-2004 05:00:00 2.82 C 85.0000 % 0.55 C
895 24-03-2004 06:00:00 2.48 C 86.6000 % 0.48 C
896 24-03-2004 07:00:00 2.74 C 87.0000 % 0.8 C
897 24-03-2004 08:00:00 3.86 C 81.8000 % 1.04 C
898 24-03-2004 09:00:00 5.32 C 75.0000 % 1.26 C
899 24-03-2004 10:00:00 6.42 C 69.8000 % 1.32 C
900 24-03-2004 11:00:00 7.88 C 63.6000 % 1.42 C
Sensor: Nr:Datum:Temp:Feuchte:Taupunkt:
Aussen-T/F 901 24-03-2004 12:00:00 8.58 C 57.6000 % 0.7 C
902 24-03-2004 13:00:00 9.9 C 46.2000 % -1.1 C
903 24-03-2004 14:00:00 10.48 C 40.4000 % -2.39 C
904 24-03-2004 15:00:00 9.8 C 41.4000 % -2.68 C
905 24-03-2004 16:00:00 9.62 C 41.4000 % -2.84 C
906 24-03-2004 17:00:00 9.1 C 45.4000 % -2.07 C
907 24-03-2004 18:00:00 6.88 C 49.4000 % -2.97 C
908 24-03-2004 19:00:00 5.34 C 56.2000 % -2.67 C
909 24-03-2004 20:00:00 5.56 C 56.6000 % -2.36 C
910 24-03-2004 21:00:00 5.14 C 59.6000 % -2.06 C
911 24-03-2004 22:00:00 3.88 C 68.2000 % -1.43 C
912 24-03-2004 23:00:00 4.26 C 69.6000 % -0.79 C
913 25-03-2004 00:00:00 4.2 C 70.8000 % -0.62 C
914 25-03-2004 01:00:00 2.9 C 77.0000 % -0.72 C
915 25-03-2004 02:00:00 3.22 C 77.0000 % -0.41 C
916 25-03-2004 03:00:00 2.86 C 76.8000 % -0.8 C
917 25-03-2004 04:00:00 2.22 C 74.2000 % -1.89 C
918 25-03-2004 05:00:00 1.92 C 73.8000 % -2.25 C
919 25-03-2004 06:00:00 1.92 C 73.6000 % -2.29 C
920 25-03-2004 07:00:00 2.22 C 71.8000 % -2.33 C
921 25-03-2004 08:00:00 2.38 C 70.6000 % -2.4 C
922 25-03-2004 09:00:00 3.24 C 68.0000 % -2.08 C
923 25-03-2004 10:00:00 4.66 C 62.0000 % -1.98 C
924 25-03-2004 11:00:00 5.42 C 55.2000 % -2.83 C
925 25-03-2004 12:00:00 5.84 C 53.0000 % -2.99 C
Sensor: Nr:Datum:Temp:Feuchte:Taupunkt:
Aussen-T/F 926 25-03-2004 13:00:00 7.04 C 48.0000 % -3.2 C
927 25-03-2004 14:00:00 7.44 C 47.0000 % -3.12 C
928 25-03-2004 15:00:00 7.4 C 49.6000 % -2.43 C
929 25-03-2004 16:00:00 6.02 C 59.8000 % -1.19 C
930 25-03-2004 17:00:00 6.54 C 56.2000 % -1.54 C
931 25-03-2004 18:00:00 5.88 C 58.2000 % -1.69 C
932 25-03-2004 19:00:00 4.96 C 64.8000 % -1.1 C
933 25-03-2004 20:00:00 4.68 C 68.0000 % -0.71 C
934 25-03-2004 21:00:00 4.5 C 65.0000 % -1.49 C
935 25-03-2004 22:00:00 3.94 C 66.2000 % -1.78 C
936 25-03-2004 23:00:00 3.98 C 64.8000 % -2.03 C
937 26-03-2004 00:00:00 3.54 C 67.8000 % -1.84 C
938 26-03-2004 01:00:00 2.54 C 71.2000 % -2.14 C
939 26-03-2004 02:00:00 1.62 C 75.0000 % -2.32 C
940 26-03-2004 03:00:00 0.42 C 78.8000 % -2.82 C
941 26-03-2004 04:00:00 -0.28 C 81.0000 % -3.14 C
942 26-03-2004 05:00:00 -0.92 C 82.4000 % -3.53 C
943 26-03-2004 06:00:00 -1.16 C 84.8000 % -3.39 C
944 26-03-2004 07:00:00 -0.94 C 84.8000 % -3.17 C
945 26-03-2004 08:00:00 -0.32 C 83.6000 % -2.75 C
946 26-03-2004 09:00:00 1.94 C 71.0000 % -2.75 C
947 26-03-2004 10:00:00 4.22 C 54.0000 % -4.24 C
948 26-03-2004 11:00:00 6.56 C 40.2000 % -5.98 C
949 26-03-2004 12:00:00 7.04 C 38.0000 % -6.29 C
950 26-03-2004 13:00:00 6.76 C 42.2000 % -5.17 C
Sensor: Nr:Datum:Temp:Feuchte:Taupunkt:
Aussen-T/F 951 26-03-2004 14:00:00 7.56 C 44.2000 % -3.83 C
952 26-03-2004 15:00:00 5.8 C 56.0000 % -2.28 C
953 26-03-2004 16:00:00 5.46 C 67.6000 % -0.04 C
954 26-03-2004 17:00:00 5.8 C 52.0000 % -3.28 C
955 26-03-2004 18:00:00 5.1 C 43.6000 % -6.25 C
956 26-03-2004 19:00:00 3.64 C 51.2000 % -5.48 C
957 26-03-2004 20:00:00 2.14 C 61.6000 % -4.45 C
958 26-03-2004 21:00:00 1.56 C 65.4000 % -4.21 C
959 26-03-2004 22:00:00 0.38 C 69.4000 % -4.55 C
960 26-03-2004 23:00:00 0.12 C 71.6000 % -4.39 C
961 27-03-2004 00:00:00 -0.54 C 72.0000 % -4.96 C
962 27-03-2004 01:00:00 -1.3 C 74.4000 % -5.26 C
963 27-03-2004 02:00:00 -2.1 C 77.0000 % -5.58 C
964 27-03-2004 03:00:00 -2.56 C 79.6000 % -5.59 C
965 27-03-2004 04:00:00 -3.04 C 81.4000 % -5.77 C
966 27-03-2004 05:00:00 -3.06 C 83.6000 % -5.44 C
967 27-03-2004 06:00:00 -3.28 C 85.2000 % -5.4 C
968 27-03-2004 07:00:00 -3.08 C 86.8000 % -4.96 C
969 27-03-2004 08:00:00 -2.2 C 87.0000 % -4.07 C
970 27-03-2004 09:00:00 0.3 C 78.8000 % -2.94 C
971 27-03-2004 10:00:00 3.28 C 63.4000 % -2.99 C
972 27-03-2004 11:00:00 4.3 C 45.6000 % -6.39 C
973 27-03-2004 12:00:00 6 C 44.2000 % -5.25 C
974 27-03-2004 13:00:00 7.92 C 35.4000 % -6.43 C
975 27-03-2004 14:00:00 10.06 C 26.8000 % -8.15 C
Sensor: Nr:Datum:Temp:Feuchte:Taupunkt:
Aussen-T/F 976 27-03-2004 15:00:00 10.86 C 25.4000 % -8.16 C
977 27-03-2004 16:00:00 11.68 C 22.8000 % -8.84 C
978 27-03-2004 17:00:00 9.84 C 26.4000 % -8.53 C
979 27-03-2004 18:00:00 8.88 C 34.4000 % -5.95 C
980 27-03-2004 19:00:00 5.56 C 41.6000 % -6.44 C
981 27-03-2004 20:00:00 3.84 C 48.8000 % -5.93 C
982 27-03-2004 21:00:00 2.56 C 56.8000 % -5.13 C
983 27-03-2004 22:00:00 1.56 C 59.6000 % -5.43 C
984 27-03-2004 23:00:00 0.8 C 64.0000 % -5.22 C
985 28-03-2004 00:00:00 0.08 C 68.2000 % -5.07 C
986 28-03-2004 01:00:00 -0.42 C 70.4000 % -5.14 C
987 28-03-2004 02:00:00 -1.02 C 72.4000 % -5.35 C
988 28-03-2004 04:00:00 -1.56 C 75.0000 % -5.4 C
989 28-03-2004 05:00:00 -2.14 C 77.2000 % -5.59 C
990 28-03-2004 06:00:00 -2.68 C 78.8000 % -5.84 C
991 28-03-2004 07:00:00 -2.92 C 80.6000 % -5.78 C
992 28-03-2004 08:00:00 -2.68 C 81.4000 % -5.42 C
993 28-03-2004 09:00:00 -1.64 C 79.6000 % -4.7 C
994 28-03-2004 10:00:00 0.98 C 71.0000 % -3.67 C
995 28-03-2004 11:00:00 4.22 C 58.2000 % -3.25 C
996 28-03-2004 12:00:00 6.88 C 44.6000 % -4.33 C
997 28-03-2004 13:00:00 9.04 C 39.6000 % -3.95 C
998 28-03-2004 14:00:00 11.2 C 30.0000 % -5.71 C
999 28-03-2004 15:00:00 12.4 C 21.0000 % -9.28 C
1000 28-03-2004 16:00:00 15.08 C 20.0000 % -7.68 C
Sensor: Nr:Datum:Temp:Feuchte:Taupunkt:
Aussen-T/F 1001 28-03-2004 17:00:00 16.08 C 20.0000 % -6.85 C
1002 28-03-2004 18:00:00 15.7 C 20.0000 % -7.17 C
1003 28-03-2004 19:00:00 13.16 C 24.6000 % -6.61 C
1004 28-03-2004 20:00:00 8.32 C 39.8000 % -4.53 C
1005 28-03-2004 21:00:00 6.66 C 46.4000 % -4 C
1006 28-03-2004 22:00:00 5.46 C 52.8000 % -3.39 C
1007 28-03-2004 23:00:00 4.38 C 57.2000 % -3.33 C
1008 29-03-2004 00:00:00 3.28 C 61.0000 % -3.5 C
1009 29-03-2004 01:00:00 2.36 C 64.2000 % -3.69 C
1010 29-03-2004 02:00:00 1.58 C 67.4000 % -3.79 C
1011 29-03-2004 03:00:00 0.82 C 70.8000 % -3.86 C
1012 29-03-2004 04:00:00 0.16 C 72.6000 % -4.17 C
1013 29-03-2004 05:00:00 -0.32 C 74.6000 % -4.27 C
1014 29-03-2004 06:00:00 -0.78 C 76.8000 % -4.33 C
1015 29-03-2004 07:00:00 -1.04 C 78.8000 % -4.25 C
1016 29-03-2004 08:00:00 -0.84 C 78.8000 % -4.05 C
1017 29-03-2004 09:00:00 0.32 C 76.0000 % -3.4 C
1018 29-03-2004 10:00:00 3.06 C 68.8000 % -2.1 C
1019 29-03-2004 11:00:00 6.42 C 56.2000 % -1.66 C
1020 29-03-2004 12:00:00 9.86 C 43.4000 % -1.99 C
1021 29-03-2004 13:00:00 12.48 C 33.6000 % -3.09 C
1022 29-03-2004 14:00:00 14.6 C 31.8000 % -1.97 C
1023 29-03-2004 15:00:00 16.6 C 27.8000 % -2.06 C
1024 29-03-2004 16:00:00 17.7 C 21.4000 % -4.62 C
1025 29-03-2004 17:00:00 18 C 20.0000 % -5.27 C
Sensor: Nr:Datum:Temp:Feuchte:Taupunkt:
Aussen-T/F 1026 29-03-2004 18:00:00 17.68 C 21.8000 % -4.39 C
1027 29-03-2004 19:00:00 15.2 C 30.2000 % -2.15 C
1028 29-03-2004 20:00:00 11.22 C 40.2000 % -1.8 C
1029 29-03-2004 21:00:00 9.38 C 45.0000 % -1.93 C
1030 29-03-2004 22:00:00 8.6 C 47.2000 % -2 C
1031 29-03-2004 23:00:00 8.14 C 48.0000 % -2.19 C
1032 30-03-2004 00:00:00 7.48 C 51.6000 % -1.83 C
1033 30-03-2004 01:00:00 6.62 C 55.6000 % -1.61 C
1034 30-03-2004 02:00:00 5.82 C 58.8000 % -1.61 C
1035 30-03-2004 03:00:00 5.5 C 59.8000 % -1.68 C
1036 30-03-2004 04:00:00 5.1 C 60.2000 % -1.96 C
1037 30-03-2004 05:00:00 4.54 C 63.0000 % -1.88 C
1038 30-03-2004 06:00:00 3.88 C 67.0000 % -1.67 C
1039 30-03-2004 07:00:00 3.16 C 71.0000 % -1.58 C
1040 30-03-2004 08:00:00 2.96 C 73.0000 % -1.39 C
1041 30-03-2004 09:00:00 4.4 C 69.6000 % -0.66 C
1042 30-03-2004 10:00:00 7.9 C 53.6000 % -0.92 C
1043 30-03-2004 11:00:00 10.94 C 41.6000 % -1.58 C
1044 30-03-2004 12:00:00 13.58 C 33.4000 % -2.2 C
1045 30-03-2004 13:00:00 15.56 C 24.8000 % -4.47 C
1046 30-03-2004 14:00:00 17.88 C 20.0000 % -5.36 C
1047 30-03-2004 15:00:00 19.82 C 20.0000 % -3.76 C
1048 30-03-2004 16:00:00 21.2 C 20.0000 % -2.62 C
1049 30-03-2004 17:00:00 22.12 C 20.0000 % -1.87 C
1050 30-03-2004 18:00:00 21.36 C 20.0000 % -2.49 C
Sensor: Nr:Datum:Temp:Feuchte:Taupunkt:
Aussen-T/F 1051 30-03-2004 19:00:00 18.6 C 21.8000 % -3.63 C
1052 30-03-2004 20:00:00 13.84 C 33.2000 % -2.06 C
1053 30-03-2004 21:00:00 12.24 C 37.6000 % -1.79 C
1054 30-03-2004 22:00:00 11.08 C 41.6000 % -1.46 C
1055 30-03-2004 23:00:00 11 C 42.0000 % -1.4 C
1056 31-03-2004 00:00:00 9.54 C 45.6000 % -1.61 C
1057 31-03-2004 01:00:00 8.82 C 47.6000 % -1.68 C
1058 31-03-2004 02:00:00 7.7 C 53.4000 % -1.16 C
1059 31-03-2004 03:00:00 6.02 C 61.2000 % -0.87 C
1060 31-03-2004 04:00:00 4.82 C 66.0000 % -0.98 C
1061 31-03-2004 05:00:00 3.94 C 69.8000 % -1.06 C
1062 31-03-2004 06:00:00 3.38 C 71.6000 % -1.25 C
1063 31-03-2004 07:00:00 3.02 C 73.0000 % -1.33 C
1064 31-03-2004 08:00:00 3.28 C 73.6000 % -0.97 C
1065 31-03-2004 09:00:00 4.7 C 70.4000 % -0.21 C
1066 31-03-2004 10:00:00 8.02 C 57.8000 % 0.23 C
1067 31-03-2004 11:00:00 10.86 C 45.8000 % -0.34 C
1068 31-03-2004 12:00:00 13.82 C 39.0000 % 0.12 C
1069 31-03-2004 13:00:00 16.34 C 34.8000 % 0.79 C
1070 31-03-2004 14:00:00 19.04 C 28.4000 % 0.33 C
1071 31-03-2004 15:00:00 21.96 C 23.2000 % 0.02 C
1072 31-03-2004 16:00:00 22.68 C 21.2000 % -0.61 C
1073 31-03-2004 17:00:00 22.92 C 21.4000 % -0.28 C
1074 31-03-2004 18:00:00 22.44 C 22.4000 % -0.06 C
1075 31-03-2004 19:00:00 19.24 C 30.6000 % 1.54 C
Sensor: Nr:Datum:Temp:Feuchte:Taupunkt:
Aussen-T/F 1076 31-03-2004 20:00:00 15.3 C 40.2000 % 1.87 C
1077 31-03-2004 21:00:00 13.14 C 45.6000 % 1.67 C
1078 31-03-2004 22:00:00 11.94 C 48.0000 % 1.29 C
1079 31-03-2004 23:00:00 11 C 51.8000 % 1.48 C
1080 01-04-2004 00:00:00 11.06 C 51.8000 % 1.54 C
1081 01-04-2004 01:00:00 10.92 C 52.8000 % 1.68 C
1082 01-04-2004 02:00:00 9.52 C 57.4000 % 1.53 C
1083 01-04-2004 03:00:00 8.5 C 60.8000 % 1.38 C
1084 01-04-2004 04:00:00 7.48 C 66.4000 % 1.64 C
1085 01-04-2004 05:00:00 7.22 C 69.4000 % 2 C
1086 01-04-2004 06:00:00 6.7 C 71.8000 % 1.98 C
1087 01-04-2004 07:00:00 6.62 C 72.2000 % 1.98 C
1088 01-04-2004 08:00:00 6.4 C 73.6000 % 2.04 C
1089 01-04-2004 09:00:00 7.18 C 69.8000 % 2.05 C
1090 01-04-2004 10:00:00 9.22 C 62.6000 % 2.46 C
1091 01-04-2004 11:00:00 13.76 C 45.4000 % 2.17 C
1092 01-04-2004 12:00:00 17.12 C 34.0000 % 1.15 C
1093 01-04-2004 13:00:00 19.26 C 30.2000 % 1.37 C
1094 01-04-2004 14:00:00 21.44 C 23.6000 % -0.18 C
1095 01-04-2004 15:00:00 23.42 C 20.0000 % -0.8 C
1096 01-04-2004 16:00:00 24.2 C 20.0000 % -0.15 C
1097 01-04-2004 17:00:00 24.48 C 20.0000 % 0.08 C
1098 01-04-2004 18:00:00 23.28 C 20.6000 % -0.51 C
1099 01-04-2004 19:00:00 20.48 C 29.2000 % 1.95 C
1100 01-04-2004 20:00:00 17.12 C 37.2000 % 2.4 C
Sensor: Nr:Datum:Temp:Feuchte:Taupunkt:
Aussen-T/F 1101 01-04-2004 21:00:00 15.36 C 40.8000 % 2.13 C
1102 01-04-2004 22:00:00 14.44 C 43.8000 % 2.29 C
1103 01-04-2004 23:00:00 13.48 C 46.8000 % 2.34 C
1104 02-04-2004 00:00:00 12.76 C 48.8000 % 2.27 C
1105 02-04-2004 01:00:00 11.72 C 51.8000 % 2.15 C
1106 02-04-2004 02:00:00 10.3 C 58.4000 % 2.51 C
1107 02-04-2004 03:00:00 9.24 C 62.0000 % 2.35 C
1108 02-04-2004 04:00:00 8.66 C 65.2000 % 2.5 C
1109 02-04-2004 05:00:00 7.96 C 67.6000 % 2.34 C
1110 02-04-2004 06:00:00 6.94 C 71.8000 % 2.21 C
1111 02-04-2004 07:00:00 6.3 C 75.0000 % 2.2 C
1112 02-04-2004 08:00:00 6.94 C 74.8000 % 2.79 C
1113 02-04-2004 09:00:00 9.66 C 64.2000 % 3.24 C
1114 02-04-2004 10:00:00 12.16 C 57.4000 % 4.01 C
1115 02-04-2004 11:00:00 15.12 C 47.6000 % 4.08 C
1116 02-04-2004 12:00:00 17.48 C 43.8000 % 5.04 C
1117 02-04-2004 13:00:00 19.82 C 38.4000 % 5.25 C
1118 02-04-2004 14:00:00 20.8 C 29.6000 % 2.42 C
1119 02-04-2004 15:00:00 21.92 C 26.8000 % 1.99 C
1120 02-04-2004 16:00:00 21.52 C 26.6000 % 1.54 C
1121 02-04-2004 17:00:00 20.14 C 30.2000 % 2.13 C
1122 02-04-2004 18:00:00 18.5 C 33.8000 % 2.28 C
1123 02-04-2004 19:00:00 17.14 C 39.6000 % 3.3 C
1124 02-04-2004 20:00:00 14.96 C 44.6000 % 3.02 C
1125 02-04-2004 21:00:00 13.7 C 48.8000 % 3.13 C
Sensor: Nr:Datum:Temp:Feuchte:Taupunkt:
Aussen-T/F 1126 02-04-2004 22:00:00 12.6 C 54.4000 % 3.65 C
1127 02-04-2004 23:00:00 12.72 C 56.0000 % 4.18 C
1128 03-04-2004 00:00:00 12.88 C 56.6000 % 4.48 C
1129 03-04-2004 01:00:00 12.98 C 60.2000 % 5.46 C
1130 03-04-2004 02:00:00 12.6 C 65.8000 % 6.38 C
1131 03-04-2004 03:00:00 10.92 C 86.4000 % 8.74 C
1132 03-04-2004 04:00:00 10.66 C 90.8000 % 9.22 C
1133 03-04-2004 05:00:00 10.54 C 91.2000 % 9.17 C
1134 03-04-2004 06:00:00 10.58 C 89.6000 % 8.94 C
1135 03-04-2004 07:00:00 10.62 C 81.6000 % 7.61 C
1136 03-04-2004 08:00:00 11.04 C 73.4000 % 6.47 C
1137 03-04-2004 09:00:00 11.72 C 67.8000 % 5.98 C
1138 03-04-2004 10:00:00 12.12 C 62.6000 % 5.21 C
1139 03-04-2004 11:00:00 13.28 C 54.4000 % 4.29 C
1140 03-04-2004 12:00:00 14.32 C 45.6000 % 2.75 C
1141 03-04-2004 13:00:00 15.28 C 40.0000 % 1.78 C
1142 03-04-2004 14:00:00 15.16 C 42.4000 % 2.49 C
1143 03-04-2004 15:00:00 14.52 C 47.8000 % 3.59 C
1144 03-04-2004 16:00:00 14.44 C 50.4000 % 4.27 C
1145 03-04-2004 17:00:00 14.32 C 50.8000 % 4.27 C
1146 03-04-2004 18:00:00 13.78 C 54.2000 % 4.7 C
1147 03-04-2004 19:00:00 13.36 C 56.2000 % 4.83 C
1148 03-04-2004 20:00:00 12.14 C 62.6000 % 5.23 C
1149 03-04-2004 21:00:00 11.18 C 65.8000 % 5.03 C
1150 03-04-2004 22:00:00 10.84 C 67.6000 % 5.09 C
Sensor: Nr:Datum:Temp:Feuchte:Taupunkt:
Aussen-T/F 1151 03-04-2004 23:00:00 11.38 C 63.8000 % 4.78 C
1152 04-04-2004 00:00:00 11.62 C 61.0000 % 4.36 C
1153 04-04-2004 01:00:00 10.88 C 63.0000 % 4.12 C
1154 04-04-2004 02:00:00 10.44 C 65.4000 % 4.24 C
1155 04-04-2004 03:00:00 10.84 C 65.6000 % 4.66 C
1156 04-04-2004 04:00:00 11.1 C 65.4000 % 4.87 C
1157 04-04-2004 05:00:00 11.2 C 65.4000 % 4.96 C
1158 04-04-2004 06:00:00 10.7 C 67.4000 % 4.92 C
1159 04-04-2004 07:00:00 10.64 C 68.2000 % 5.03 C
1160 04-04-2004 08:00:00 11.56 C 63.0000 % 4.77 C
1161 04-04-2004 09:00:00 12.26 C 60.6000 % 4.87 C
1162 04-04-2004 10:00:00 12.18 C 64.6000 % 5.72 C
1163 04-04-2004 11:00:00 11.36 C 74.4000 % 6.98 C
1164 04-04-2004 12:00:00 12.08 C 69.8000 % 6.74 C
1165 04-04-2004 13:00:00 13.54 C 49.4000 % 3.16 C
1166 04-04-2004 14:00:00 14.8 C 41.6000 % 1.89 C
1167 04-04-2004 15:00:00 15.92 C 36.2000 % 0.96 C
1168 04-04-2004 16:00:00 15.92 C 31.6000 % -0.91 C
1169 04-04-2004 17:00:00 15.2 C 31.2000 % -1.71 C
1170 04-04-2004 18:00:00 14.28 C 33.8000 % -1.43 C
1171 04-04-2004 19:00:00 13.22 C 38.6000 % -0.56 C
1172 04-04-2004 20:00:00 11.98 C 45.4000 % 0.55 C
1173 04-04-2004 21:00:00 10.66 C 51.0000 % 0.95 C
1174 04-04-2004 22:00:00 9.84 C 54.6000 % 1.14 C
1175 04-04-2004 23:00:00 9.22 C 57.8000 % 1.35 C
Sensor: Nr:Datum:Temp:Feuchte:Taupunkt:
Aussen-T/F 1176 05-04-2004 00:00:00 8.86 C 60.2000 % 1.58 C
1177 05-04-2004 01:00:00 8.46 C 62.2000 % 1.66 C
1178 05-04-2004 02:00:00 8.3 C 63.0000 % 1.68 C
1179 05-04-2004 03:00:00 8.18 C 64.4000 % 1.88 C
1180 05-04-2004 04:00:00 7.96 C 66.2000 % 2.05 C
1181 05-04-2004 05:00:00 6.96 C 81.4000 % 4 C
1182 05-04-2004 06:00:00 6.82 C 77.0000 % 3.08 C
1183 05-04-2004 07:00:00 7 C 75.2000 % 2.92 C
1184 05-04-2004 08:00:00 6.96 C 80.0000 % 3.75 C
1185 05-04-2004 09:00:00 7.28 C 73.6000 % 2.89 C
1186 05-04-2004 10:00:00 8.18 C 67.4000 % 2.51 C
1187 05-04-2004 11:00:00 9.42 C 60.0000 % 2.06 C
1188 05-04-2004 12:00:00 10.42 C 49.4000 % 0.29 C
1189 05-04-2004 13:00:00 10.1 C 53.0000 % 0.97 C
1190 05-04-2004 14:00:00 10.4 C 60.2000 % 3.03 C
1191 05-04-2004 15:00:00 8.86 C 74.4000 % 4.56 C
1192 05-04-2004 16:00:00 10.52 C 57.8000 % 2.57 C
1193 05-04-2004 17:00:00 9.1 C 69.2000 % 3.76 C
1194 05-04-2004 18:00:00 7.98 C 75.6000 % 3.94 C
1195 05-04-2004 19:00:00 8.22 C 74.0000 % 3.87 C
1196 05-04-2004 20:00:00 7.5 C 77.4000 % 3.81 C
1197 05-04-2004 21:00:00 7.06 C 82.4000 % 4.27 C
1198 05-04-2004 22:00:00 7.52 C 75.4000 % 3.46 C
1199 05-04-2004 23:00:00 7.42 C 75.0000 % 3.29 C
1200 06-04-2004 00:00:00 6.86 C 82.6000 % 4.11 C
Sensor: Nr:Datum:Temp:Feuchte:Taupunkt:
Aussen-T/F 1201 06-04-2004 01:00:00 7.02 C 78.2000 % 3.49 C
1202 06-04-2004 02:00:00 7.04 C 77.8000 % 3.44 C
1203 06-04-2004 03:00:00 5.72 C 83.8000 % 3.2 C
1204 06-04-2004 04:00:00 4.66 C 86.6000 % 2.62 C
1205 06-04-2004 05:00:00 4.88 C 82.0000 % 2.07 C
1206 06-04-2004 06:00:00 4.58 C 82.0000 % 1.78 C
1207 06-04-2004 07:00:00 4.78 C 80.8000 % 1.77 C
1208 06-04-2004 08:00:00 4.28 C 87.6000 % 2.41 C
1209 06-04-2004 09:00:00 4.98 C 83.6000 % 2.44 C
1210 06-04-2004 10:00:00 6.8 C 67.2000 % 1.15 C
1211 06-04-2004 11:00:00 7.56 C 58.0000 % -0.16 C
1212 06-04-2004 12:00:00 8.72 C 50.8000 % -0.89 C
1213 06-04-2004 13:00:00 9.26 C 46.2000 % -1.69 C
1214 06-04-2004 14:00:00 9 C 48.4000 % -1.29 C
1215 06-04-2004 15:00:00 7.9 C 66.8000 % 2.12 C
1216 06-04-2004 16:00:00 7.36 C 69.4000 % 2.14 C
1217 06-04-2004 17:00:00 7.32 C 64.8000 % 1.14 C
1218 06-04-2004 18:00:00 7.04 C 75.8000 % 3.07 C
1219 06-04-2004 19:00:00 7.7 C 73.2000 % 3.21 C
1220 06-04-2004 20:00:00 5.34 C 79.2000 % 2.04 C
1221 06-04-2004 21:00:00 4.76 C 83.0000 % 2.12 C
1222 06-04-2004 22:00:00 4.58 C 81.4000 % 1.68 C
1223 06-04-2004 23:00:00 3.86 C 82.4000 % 1.14 C
1224 07-04-2004 00:00:00 3.84 C 84.2000 % 1.42 C
1225 07-04-2004 01:00:00 4 C 82.4000 % 1.28 C
Sensor: Nr:Datum:Temp:Feuchte:Taupunkt:
Aussen-T/F 1226 07-04-2004 02:00:00 4.06 C 82.6000 % 1.37 C
1227 07-04-2004 03:00:00 4 C 82.6000 % 1.31 C
1228 07-04-2004 04:00:00 3.84 C 83.6000 % 1.32 C
1229 07-04-2004 05:00:00 3.52 C 83.6000 % 1.01 C
1230 07-04-2004 06:00:00 3.36 C 84.0000 % 0.92 C
1231 07-04-2004 07:00:00 4.26 C 77.4000 % 0.67 C
1232 07-04-2004 08:00:00 4.56 C 77.4000 % 0.96 C
1233 07-04-2004 09:00:00 5 C 77.6000 % 1.42 C
1234 07-04-2004 10:00:00 6.28 C 70.8000 % 1.38 C
1235 07-04-2004 11:00:00 7.14 C 66.0000 % 1.23 C
1236 07-04-2004 12:00:00 8.28 C 60.8000 % 1.17 C
1237 07-04-2004 13:00:00 7.54 C 59.4000 % 0.15 C
1238 07-04-2004 14:00:00 6.42 C 76.4000 % 2.58 C
1239 07-04-2004 15:00:00 6.58 C 79.8000 % 3.35 C
1240 07-04-2004 16:00:00 7.38 C 76.6000 % 3.55 C
1241 07-04-2004 17:00:00 7.72 C 68.2000 % 2.24 C
1242 07-04-2004 18:00:00 6.4 C 75.6000 % 2.41 C
1243 07-04-2004 19:00:00 5.22 C 81.4000 % 2.3 C
1244 07-04-2004 20:00:00 4.9 C 82.2000 % 2.13 C
1245 07-04-2004 21:00:00 4.34 C 83.2000 % 1.75 C
1246 07-04-2004 22:00:00 4.62 C 82.6000 % 1.92 C
1247 07-04-2004 23:00:00 4.76 C 80.4000 % 1.68 C
1248 08-04-2004 00:00:00 4.82 C 79.6000 % 1.6 C
1249 08-04-2004 01:00:00 4.78 C 79.0000 % 1.46 C
1250 08-04-2004 02:00:00 4.82 C 79.4000 % 1.56 C
Sensor: Nr:Datum:Temp:Feuchte:Taupunkt:
Aussen-T/F 1251 08-04-2004 03:00:00 4.6 C 81.4000 % 1.7 C
1252 08-04-2004 04:00:00 4.34 C 83.8000 % 1.85 C
1253 08-04-2004 05:00:00 4.32 C 85.0000 % 2.03 C
1254 08-04-2004 06:00:00 4.4 C 83.0000 % 1.77 C
1255 08-04-2004 07:00:00 4.38 C 81.6000 % 1.52 C
1256 08-04-2004 08:00:00 4.9 C 77.8000 % 1.36 C
1257 08-04-2004 09:00:00 5.64 C 73.2000 % 1.23 C
1258 08-04-2004 10:00:00 6.74 C 65.0000 % 0.64 C
1259 08-04-2004 11:00:00 6.4 C 70.6000 % 1.46 C
1260 08-04-2004 12:00:00 8.22 C 57.2000 % 0.27 C
1261 08-04-2004 13:00:00 8.34 C 58.4000 % 0.67 C
1262 08-04-2004 14:00:00 10.12 C 51.0000 % 0.45 C
1263 08-04-2004 15:00:00 10.68 C 54.0000 % 1.77 C
1264 08-04-2004 16:00:00 10.6 C 55.2000 % 2 C
1265 08-04-2004 17:00:00 9.04 C 62.4000 % 2.25 C
1266 08-04-2004 18:00:00 7.38 C 78.4000 % 3.88 C
1267 08-04-2004 19:00:00 8.6 C 68.0000 % 3.04 C
1268 08-04-2004 20:00:00 6.62 C 74.4000 % 2.4 C
1269 08-04-2004 21:00:00 6.02 C 77.2000 % 2.34 C
1270 08-04-2004 22:00:00 5.9 C 79.4000 % 2.62 C
1271 08-04-2004 23:00:00 5.9 C 76.8000 % 2.15 C
1272 09-04-2004 00:00:00 5.42 C 77.0000 % 1.72 C
1273 09-04-2004 01:00:00 5.2 C 80.2000 % 2.07 C
1274 09-04-2004 02:00:00 5.38 C 80.2000 % 2.25 C
1275 09-04-2004 03:00:00 5.18 C 80.2000 % 2.06 C
Sensor: Nr:Datum:Temp:Feuchte:Taupunkt:
Aussen-T/F 1276 09-04-2004 04:00:00 4.88 C 81.6000 % 2 C
1277 09-04-2004 05:00:00 4.72 C 82.4000 % 1.98 C
1278 09-04-2004 06:00:00 4.54 C 83.0000 % 1.91 C
1279 09-04-2004 07:00:00 4.6 C 82.2000 % 1.83 C
1280 09-04-2004 08:00:00 5.02 C 78.0000 % 1.51 C
1281 09-04-2004 09:00:00 5.7 C 76.2000 % 1.85 C
1282 09-04-2004 10:00:00 6.8 C 69.0000 % 1.52 C
1283 09-04-2004 11:00:00 7.34 C 65.8000 % 1.38 C
1284 09-04-2004 12:00:00 8.92 C 55.6000 % 0.53 C
1285 09-04-2004 13:00:00 8.24 C 54.8000 % -0.3 C
1286 09-04-2004 14:00:00 10.24 C 47.8000 % -0.33 C
1287 09-04-2004 15:00:00 9.76 C 47.8000 % -0.77 C
1288 09-04-2004 16:00:00 10.68 C 50.0000 % 0.7 C
1289 09-04-2004 17:00:00 9.44 C 53.2000 % 0.41 C
1290 09-04-2004 18:00:00 9.92 C 51.8000 % 0.48 C
1291 09-04-2004 19:00:00 8.66 C 58.4000 % 0.97 C
1292 09-04-2004 20:00:00 8.08 C 63.0000 % 1.47 C
1293 09-04-2004 21:00:00 7.84 C 66.2000 % 1.94 C
1294 09-04-2004 22:00:00 7.7 C 67.8000 % 2.14 C
1295 09-04-2004 23:00:00 7.24 C 69.8000 % 2.1 C
1296 10-04-2004 00:00:00 6.8 C 73.0000 % 2.31 C
1297 10-04-2004 01:00:00 6.6 C 74.2000 % 2.34 C
1298 10-04-2004 02:00:00 6.48 C 75.0000 % 2.38 C
1299 10-04-2004 03:00:00 6.66 C 75.8000 % 2.7 C
1300 10-04-2004 04:00:00 6.4 C 77.8000 % 2.82 C
Sensor: Nr:Datum:Temp:Feuchte:Taupunkt:
Aussen-T/F 1301 10-04-2004 05:00:00 5.72 C 81.4000 % 2.79 C
1302 10-04-2004 06:00:00 5.36 C 84.0000 % 2.88 C
1303 10-04-2004 07:00:00 4.92 C 84.6000 % 2.55 C
1304 10-04-2004 08:00:00 5.6 C 80.6000 % 2.53 C
1305 10-04-2004 09:00:00 7.34 C 70.2000 % 2.28 C
1306 10-04-2004 10:00:00 8.44 C 63.4000 % 1.9 C
1307 10-04-2004 11:00:00 9.36 C 58.4000 % 1.63 C
1308 10-04-2004 12:00:00 11.04 C 51.2000 % 1.36 C
1309 10-04-2004 13:00:00 10.98 C 48.8000 % 0.64 C
1310 10-04-2004 14:00:00 12.5 C 37.8000 % -1.48 C
1311 10-04-2004 15:00:00 11.96 C 38.4000 % -1.75 C
1312 10-04-2004 16:00:00 9.76 C 54.6000 % 1.06 C
1313 10-04-2004 17:00:00 8.68 C 63.6000 % 2.17 C
1314 10-04-2004 18:00:00 8.04 C 67.0000 % 2.3 C
1315 10-04-2004 19:00:00 7.56 C 76.0000 % 3.61 C
1316 10-04-2004 20:00:00 7.56 C 80.2000 % 4.37 C
1317 10-04-2004 21:00:00 7.8 C 80.0000 % 4.57 C
1318 10-04-2004 22:00:00 7.04 C 86.8000 % 4.99 C
1319 10-04-2004 23:00:00 6.4 C 88.6000 % 4.66 C
1320 11-04-2004 00:00:00 6.2 C 84.2000 % 3.74 C
1321 11-04-2004 01:00:00 5.82 C 82.2000 % 3.03 C
1322 11-04-2004 02:00:00 5.3 C 83.2000 % 2.69 C
1323 11-04-2004 03:00:00 4.18 C 85.8000 % 2.02 C
1324 11-04-2004 04:00:00 2.92 C 86.8000 % 0.94 C
1325 11-04-2004 05:00:00 2.84 C 85.6000 % 0.67 C
Sensor: Nr:Datum:Temp:Feuchte:Taupunkt:
Aussen-T/F 1326 11-04-2004 06:00:00 2.98 C 84.0000 % 0.55 C
1327 11-04-2004 07:00:00 3.24 C 82.4000 % 0.54 C
1328 11-04-2004 08:00:00 3.72 C 79.8000 % 0.56 C
1329 11-04-2004 09:00:00 4.6 C 74.8000 % 0.52 C
1330 11-04-2004 10:00:00 5.52 C 68.0000 % 0.1 C
1331 11-04-2004 11:00:00 6.7 C 61.6000 % -0.14 C
1332 11-04-2004 12:00:00 8.48 C 55.4000 % 0.07 C
1333 11-04-2004 13:00:00 10 C 50.6000 % 0.24 C
1334 11-04-2004 14:00:00 12.38 C 41.4000 % -0.35 C
1335 11-04-2004 15:00:00 13.12 C 38.0000 % -0.86 C
1336 11-04-2004 16:00:00 12.8 C 38.6000 % -0.93 C
1337 11-04-2004 17:00:00 13.08 C 37.0000 % -1.26 C
1338 11-04-2004 18:00:00 12.48 C 38.6000 % -1.22 C
1339 11-04-2004 19:00:00 10.54 C 44.4000 % -1.06 C
1340 11-04-2004 20:00:00 8.52 C 50.8000 % -1.08 C
1341 11-04-2004 21:00:00 7.66 C 54.8000 % -0.84 C
1342 11-04-2004 22:00:00 7.52 C 57.4000 % -0.34 C
1343 11-04-2004 23:00:00 7.16 C 60.6000 % 0.07 C
1344 12-04-2004 00:00:00 5.16 C 68.2000 % -0.21 C
1345 12-04-2004 01:00:00 4.12 C 74.2000 % -0.05 C
1346 12-04-2004 02:00:00 3.16 C 77.8000 % -0.33 C
1347 12-04-2004 03:00:00 2.22 C 81.4000 % -0.63 C
1348 12-04-2004 04:00:00 1.52 C 83.8000 % -0.91 C
1349 12-04-2004 05:00:00 0.96 C 86.2000 % -1.08 C
1350 12-04-2004 06:00:00 0.46 C 87.0000 % -1.45 C
Sensor: Nr:Datum:Temp:Feuchte:Taupunkt:
Aussen-T/F 1351 12-04-2004 07:00:00 0.3 C 87.6000 % -1.51 C
1352 12-04-2004 08:00:00 1.06 C 87.8000 % -0.73 C
1353 12-04-2004 09:00:00 3.1 C 79.2000 % -0.14 C
1354 12-04-2004 10:00:00 6.04 C 64.0000 % -0.24 C
1355 12-04-2004 11:00:00 8.94 C 50.8000 % -0.69 C
1356 12-04-2004 12:00:00 11.18 C 40.4000 % -1.76 C
1357 12-04-2004 13:00:00 13.34 C 37.0000 % -1.03 C
1358 12-04-2004 14:00:00 15.74 C 33.2000 % -0.39 C
1359 12-04-2004 15:00:00 17.46 C 29.4000 % -0.56 C
1360 12-04-2004 16:00:00 17.56 C 25.8000 % -2.24 C
1361 12-04-2004 17:00:00 17.3 C 26.4000 % -2.16 C
1362 12-04-2004 18:00:00 15.82 C 29.8000 % -1.79 C
1363 12-04-2004 19:00:00 14.46 C 36.4000 % -0.26 C
1364 12-04-2004 20:00:00 13.22 C 44.0000 % 1.25 C
1365 12-04-2004 21:00:00 12.48 C 46.4000 % 1.31 C
1366 12-04-2004 22:00:00 10.9 C 52.0000 % 1.44 C
1367 12-04-2004 23:00:00 9.6 C 59.8000 % 2.18 C
1368 13-04-2004 00:00:00 8.94 C 63.6000 % 2.42 C
1369 13-04-2004 01:00:00 8.12 C 67.4000 % 2.46 C
1370 13-04-2004 02:00:00 8.02 C 69.2000 % 2.73 C
1371 13-04-2004 03:00:00 7.56 C 72.2000 % 2.89 C
1372 13-04-2004 04:00:00 7.68 C 73.0000 % 3.16 C
1373 13-04-2004 05:00:00 7.48 C 74.0000 % 3.16 C
1374 13-04-2004 06:00:00 7.34 C 75.4000 % 3.28 C
1375 13-04-2004 07:00:00 7.6 C 74.0000 % 3.27 C
Sensor: Nr:Datum:Temp:Feuchte:Taupunkt:
Aussen-T/F 1376 13-04-2004 08:00:00 8.7 C 69.2000 % 3.38 C
1377 13-04-2004 09:00:00 9.36 C 70.8000 % 4.34 C
1378 13-04-2004 10:00:00 10.76 C 64.4000 % 4.32 C
1379 13-04-2004 11:00:00 10.5 C 67.8000 % 4.81 C
1380 13-04-2004 12:00:00 10.28 C 69.4000 % 4.93 C
1381 13-04-2004 13:00:00 12.04 C 57.4000 % 3.89 C
1382 13-04-2004 14:00:00 12.32 C 55.8000 % 3.75 C
1383 13-04-2004 15:00:00 12.8 C 53.2000 % 3.52 C
1384 13-04-2004 16:00:00 13.74 C 46.4000 % 2.46 C
1385 13-04-2004 17:00:00 13.2 C 48.0000 % 2.44 C
1386 13-04-2004 18:00:00 13.22 C 44.2000 % 1.31 C
1387 13-04-2004 19:00:00 12.52 C 46.4000 % 1.35 C
1388 13-04-2004 20:00:00 11.22 C 55.0000 % 2.53 C
1389 13-04-2004 21:00:00 10.32 C 59.6000 % 2.81 C
1390 13-04-2004 22:00:00 9.92 C 60.0000 % 2.53 C
1391 13-04-2004 23:00:00 9.7 C 61.8000 % 2.74 C
1392 14-04-2004 00:00:00 9.54 C 64.4000 % 3.17 C
1393 14-04-2004 01:00:00 9.22 C 66.0000 % 3.21 C
1394 14-04-2004 02:00:00 8.88 C 67.6000 % 3.22 C
1395 14-04-2004 03:00:00 8.52 C 69.6000 % 3.29 C
1396 14-04-2004 04:00:00 8.08 C 71.0000 % 3.15 C
1397 14-04-2004 05:00:00 6.66 C 73.8000 % 2.33 C
1398 14-04-2004 06:00:00 5.52 C 77.6000 % 1.93 C
1399 14-04-2004 07:00:00 5.16 C 79.8000 % 1.97 C
1400 14-04-2004 08:00:00 6.18 C 78.6000 % 2.75 C
Sensor: Nr:Datum:Temp:Feuchte:Taupunkt:
Aussen-T/F 1401 14-04-2004 09:00:00 8.36 C 68.8000 % 2.97 C
1402 14-04-2004 10:00:00 11.14 C 57.4000 % 3.05 C
1403 14-04-2004 11:00:00 13.4 C 42.8000 % 1.03 C
1404 14-04-2004 12:00:00 14.3 C 37.6000 % 0.05 C
1405 14-04-2004 13:00:00 15.5 C 34.0000 % -0.27 C
1406 14-04-2004 14:00:00 16.84 C 30.4000 % -0.64 C
1407 14-04-2004 15:00:00 19.04 C 24.4000 % -1.74 C
1408 14-04-2004 16:00:00 19.2 C 23.0000 % -2.41 C
1409 14-04-2004 17:00:00 20.34 C 21.2000 % -2.55 C
1410 14-04-2004 18:00:00 19.96 C 22.6000 % -2.01 C
1411 14-04-2004 19:00:00 17.76 C 27.2000 % -1.36 C
1412 14-04-2004 20:00:00 13.86 C 38.2000 % -0.13 C
1413 14-04-2004 21:00:00 11.58 C 46.2000 % 0.43 C
1414 14-04-2004 22:00:00 10.14 C 51.4000 % 0.58 C
1415 14-04-2004 23:00:00 8.5 C 57.4000 % 0.58 C
1416 15-04-2004 00:00:00 7.58 C 60.6000 % 0.46 C
1417 15-04-2004 01:00:00 6.34 C 65.4000 % 0.34 C
1418 15-04-2004 02:00:00 5.44 C 68.8000 % 0.18 C
1419 15-04-2004 03:00:00 4.46 C 73.6000 % 0.17 C
1420 15-04-2004 04:00:00 3.72 C 77.0000 % 0.07 C
1421 15-04-2004 05:00:00 3.06 C 78.8000 % -0.25 C
1422 15-04-2004 06:00:00 2.48 C 81.2000 % -0.41 C
1423 15-04-2004 07:00:00 2.5 C 82.2000 % -0.22 C
1424 15-04-2004 08:00:00 3.28 C 81.6000 % 0.44 C
1425 15-04-2004 09:00:00 5.34 C 73.0000 % 0.9 C
Sensor: Nr:Datum:Temp:Feuchte:Taupunkt:
Aussen-T/F 1426 15-04-2004 10:00:00 9.28 C 59.0000 % 1.69 C
1427 15-04-2004 11:00:00 12.74 C 49.0000 % 2.31 C
1428 15-04-2004 12:00:00 15.42 C 34.8000 % -0.03 C
1429 15-04-2004 13:00:00 17.9 C 28.2000 % -0.75 C
1430 15-04-2004 14:00:00 18.76 C 25.2000 % -1.54 C
1431 15-04-2004 15:00:00 21.18 C 21.0000 % -1.98 C
1432 15-04-2004 16:00:00 22.8 C 20.0000 % -1.31 C
1433 15-04-2004 17:00:00 22.16 C 20.0000 % -1.83 C
1434 15-04-2004 18:00:00 20.76 C 20.8000 % -2.46 C
1435 15-04-2004 19:00:00 18.92 C 28.6000 % 0.32 C
1436 15-04-2004 20:00:00 15.98 C 35.8000 % 0.86 C
1437 15-04-2004 21:00:00 13.88 C 42.8000 % 1.46 C
1438 15-04-2004 22:00:00 12.46 C 47.8000 % 1.71 C
1439 15-04-2004 23:00:00 10.96 C 55.6000 % 2.44 C
1440 16-04-2004 00:00:00 9.84 C 58.8000 % 2.17 C
1441 16-04-2004 01:00:00 8.86 C 62.2000 % 2.03 C
1442 16-04-2004 02:00:00 7.9 C 66.8000 % 2.12 C
1443 16-04-2004 03:00:00 7.02 C 71.0000 % 2.13 C
1444 16-04-2004 04:00:00 6.18 C 75.2000 % 2.13 C
1445 16-04-2004 05:00:00 5.5 C 77.4000 % 1.87 C
1446 16-04-2004 06:00:00 4.86 C 80.4000 % 1.78 C
1447 16-04-2004 07:00:00 4.92 C 80.8000 % 1.91 C
1448 16-04-2004 08:00:00 5.86 C 78.2000 % 2.36 C
1449 16-04-2004 09:00:00 7.82 C 70.6000 % 2.82 C
1450 16-04-2004 10:00:00 11 C 61.8000 % 3.96 C
Sensor: Nr:Datum:Temp:Feuchte:Taupunkt:
Aussen-T/F 1451 16-04-2004 11:00:00 15.14 C 49.2000 % 4.57 C
1452 16-04-2004 12:00:00 18.6 C 34.8000 % 2.78 C
1453 16-04-2004 13:00:00 20.58 C 30.0000 % 2.42 C
1454 16-04-2004 14:00:00 23.76 C 22.4000 % 1.04 C
1455 16-04-2004 15:00:00 23.92 C 20.0000 % -0.39 C
1456 16-04-2004 16:00:00 24.68 C 20.0000 % 0.24 C
1457 16-04-2004 17:00:00 25.6 C 20.0000 % 1 C
1458 16-04-2004 18:00:00 24.9 C 20.0000 % 0.42 C
1459 16-04-2004 19:00:00 22.58 C 22.6000 % 0.18 C
1460 16-04-2004 20:00:00 18.4 C 32.6000 % 1.69 C
1461 16-04-2004 21:00:00 15.94 C 39.2000 % 2.09 C
1462 16-04-2004 22:00:00 14.18 C 44.2000 % 2.18 C
1463 16-04-2004 23:00:00 12.78 C 49.4000 % 2.46 C
1464 17-04-2004 00:00:00 11.46 C 53.4000 % 2.33 C
1465 17-04-2004 01:00:00 10.18 C 58.0000 % 2.3 C
1466 17-04-2004 02:00:00 9.05 C 62.7500 % 2.34 C
1467 17-04-2004 03:00:00 8.36 C 65.6000 % 2.3 C
1468 17-04-2004 04:00:00 7.4 C 70.0000 % 2.3 C
1469 17-04-2004 05:00:00 6.84 C 72.2000 % 2.19 C
1470 17-04-2004 06:00:00 6.1 C 75.4000 % 2.09 C
1471 17-04-2004 07:00:00 6.04 C 76.6000 % 2.25 C
1472 17-04-2004 08:00:00 6.96 C 73.6000 % 2.58 C
1473 17-04-2004 09:00:00 9 C 67.0000 % 3.21 C
1474 17-04-2004 10:00:00 12.32 C 57.2000 % 4.11 C
1475 17-04-2004 11:00:00 15.92 C 44.4000 % 3.82 C
Sensor: Nr:Datum:Temp:Feuchte:Taupunkt:
Aussen-T/F 1476 17-04-2004 12:00:00 19.12 C 31.0000 % 1.61 C
1477 17-04-2004 13:00:00 20.32 C 29.2000 % 1.82 C
1478 17-04-2004 14:00:00 21.56 C 23.0000 % -0.43 C
1479 17-04-2004 15:00:00 24.06 C 20.0000 % -0.27 C
1480 17-04-2004 16:00:00 24.34 C 20.0000 % -0.04 C
1481 17-04-2004 17:00:00 24.36 C 20.0000 % -0.02 C
1482 17-04-2004 18:00:00 22.54 C 22.2000 % -0.1 C
1483 17-04-2004 19:00:00 20.06 C 33.0000 % 3.31 C
1484 17-04-2004 20:00:00 18.52 C 38.4000 % 4.1 C
1485 17-04-2004 21:00:00 17.04 C 45.2000 % 5.09 C
1486 17-04-2004 22:00:00 15.78 C 51.0000 % 5.68 C
1487 17-04-2004 23:00:00 14.94 C 55.2000 % 6.04 C
1488 18-04-2004 00:00:00 14.06 C 59.0000 % 6.18 C
1489 18-04-2004 01:00:00 13.58 C 63.0000 % 6.68 C
1490 18-04-2004 02:00:00 12.74 C 66.4000 % 6.65 C
1491 18-04-2004 03:00:00 11.26 C 76.2000 % 7.23 C
1492 18-04-2004 04:00:00 10.7 C 74.2000 % 6.3 C
1493 18-04-2004 05:00:00 10.9 C 65.8000 % 4.76 C
1494 18-04-2004 06:00:00 10.56 C 65.6000 % 4.4 C
1495 18-04-2004 07:00:00 10.64 C 62.2000 % 3.72 C
1496 18-04-2004 08:00:00 11.3 C 60.6000 % 3.97 C
1497 18-04-2004 09:00:00 12.58 C 53.4000 % 3.37 C
1498 18-04-2004 10:00:00 13.38 C 43.6000 % 1.27 C
1499 18-04-2004 11:00:00 14.86 C 38.8000 % 0.98 C
1500 18-04-2004 12:00:00 15.62 C 34.2000 % -0.09 C
Sensor: Nr:Datum:Temp:Feuchte:Taupunkt:
Aussen-T/F 1501 18-04-2004 13:00:00 16.02 C 34.2000 % 0.26 C
1502 18-04-2004 14:00:00 15.84 C 34.2000 % 0.11 C
1503 18-04-2004 15:00:00 16.04 C 35.4000 % 0.76 C
1504 18-04-2004 16:00:00 15.94 C 36.8000 % 1.21 C
1505 18-04-2004 17:00:00 15.56 C 37.0000 % 0.94 C
1506 18-04-2004 18:00:00 13.64 C 50.6000 % 3.59 C
1507 18-04-2004 19:00:00 11.76 C 64.6000 % 5.32 C
1508 18-04-2004 20:00:00 11.22 C 70.0000 % 5.96 C
1509 18-04-2004 21:00:00 11.16 C 69.0000 % 5.69 C
1510 18-04-2004 22:00:00 11.18 C 68.6000 % 5.63 C
1511 18-04-2004 23:00:00 10.88 C 65.2000 % 4.61 C
1512 19-04-2004 00:00:00 9.74 C 58.2000 % 1.93 C
1513 19-04-2004 01:00:00 8.8 C 61.2000 % 1.75 C
1514 19-04-2004 02:00:00 7.76 C 65.6000 % 1.73 C
1515 19-04-2004 03:00:00 7.18 C 69.2000 % 1.93 C
1516 19-04-2004 04:00:00 7.06 C 69.2000 % 1.81 C
1517 19-04-2004 05:00:00 7.44 C 63.6000 % 1 C
1518 19-04-2004 06:00:00 7.02 C 63.8000 % 0.64 C
1519 19-04-2004 07:00:00 7.52 C 59.8000 % 0.22 C
1520 19-04-2004 08:00:00 8.26 C 54.8000 % -0.28 C
1521 19-04-2004 09:00:00 8.88 C 49.6000 % -1.07 C
1522 19-04-2004 10:00:00 9.94 C 44.6000 % -1.54 C
1523 19-04-2004 11:00:00 10.46 C 42.8000 % -1.63 C
1524 19-04-2004 12:00:00 10.64 C 42.4000 % -1.6 C
1525 19-04-2004 13:00:00 11.56 C 37.8000 % -2.32 C
Sensor: Nr:Datum:Temp:Feuchte:Taupunkt:
Aussen-T/F 1526 19-04-2004 14:00:00 13.08 C 32.0000 % -3.22 C
1527 19-04-2004 15:00:00 13.66 C 30.6000 % -3.31 C
1528 19-04-2004 16:00:00 14.4 C 27.6000 % -4.04 C
1529 19-04-2004 17:00:00 14.64 C 26.2000 % -4.53 C
1530 19-04-2004 18:00:00 14.2 C 26.4000 % -4.8 C
1531 19-04-2004 19:00:00 13.4 C 30.2000 % -3.71 C
1532 19-04-2004 20:00:00 10.76 C 47.2000 % -0.02 C
1533 19-04-2004 21:00:00 9.12 C 57.0000 % 1.06 C
1534 19-04-2004 22:00:00 9.36 C 57.8000 % 1.48 C
1535 19-04-2004 23:00:00 8.7 C 66.6000 % 2.84 C
1536 20-04-2004 00:00:00 7.72 C 82.4000 % 4.92 C
1537 20-04-2004 01:00:00 6.74 C 82.0000 % 3.89 C
1538 20-04-2004 02:00:00 7.32 C 78.2000 % 3.78 C
1539 20-04-2004 03:00:00 7.58 C 74.6000 % 3.37 C
1540 20-04-2004 04:00:00 6.86 C 76.0000 % 2.93 C
1541 20-04-2004 05:00:00 5.14 C 82.6000 % 2.43 C
1542 20-04-2004 06:00:00 5.08 C 84.2000 % 2.64 C
1543 20-04-2004 07:00:00 6 C 82.8000 % 3.3 C
1544 20-04-2004 08:00:00 7.66 C 76.4000 % 3.78 C
1545 20-04-2004 09:00:00 9.56 C 68.4000 % 4.04 C
1546 20-04-2004 10:00:00 11.16 C 61.4000 % 4.02 C
1547 20-04-2004 11:00:00 11.68 C 58.0000 % 3.7 C
1548 20-04-2004 12:00:00 12.86 C 52.8000 % 3.47 C
1549 20-04-2004 13:00:00 12.52 C 58.4000 % 4.59 C
1550 20-04-2004 14:00:00 13.08 C 58.6000 % 5.16 C
Sensor: Nr:Datum:Temp:Feuchte:Taupunkt:
Aussen-T/F 1551 20-04-2004 15:00:00 13.08 C 53.0000 % 3.73 C
1552 20-04-2004 16:00:00 12.66 C 57.0000 % 4.37 C
1553 20-04-2004 17:00:00 13.38 C 53.6000 % 4.17 C
1554 20-04-2004 18:00:00 13.14 C 54.6000 % 4.21 C
1555 20-04-2004 19:00:00 13.06 C 57.0000 % 4.75 C
1556 20-04-2004 20:00:00 12.18 C 62.2000 % 5.17 C
1557 20-04-2004 21:00:00 11 C 68.8000 % 5.5 C
1558 20-04-2004 22:00:00 10.4 C 77.6000 % 6.66 C
1559 20-04-2004 23:00:00 10.4 C 77.0000 % 6.55 C
1560 21-04-2004 00:00:00 10.22 C 76.6000 % 6.3 C
1561 21-04-2004 01:00:00 10.22 C 77.2000 % 6.41 C
1562 21-04-2004 02:00:00 9.52 C 80.0000 % 6.25 C
1563 21-04-2004 03:00:00 8.52 C 85.2000 % 6.18 C
1564 21-04-2004 04:00:00 7.76 C 88.8000 % 6.03 C
1565 21-04-2004 05:00:00 7.36 C 90.0000 % 5.83 C
1566 21-04-2004 06:00:00 6.98 C 91.0000 % 5.61 C
1567 21-04-2004 07:00:00 7.4 C 92.0000 % 6.19 C
1568 21-04-2004 08:00:00 9.18 C 87.2000 % 7.17 C
1569 21-04-2004 09:00:00 11.48 C 75.4000 % 7.29 C
1570 21-04-2004 10:00:00 14.76 C 62.4000 % 7.65 C
1571 21-04-2004 11:00:00 17.12 C 52.2000 % 7.25 C
1572 21-04-2004 12:00:00 18.24 C 46.8000 % 6.69 C
1573 21-04-2004 13:00:00 18.5 C 47.4000 % 7.11 C
1574 21-04-2004 14:00:00 19.26 C 44.6000 % 6.91 C
1575 21-04-2004 15:00:00 19.66 C 40.8000 % 5.98 C
Sensor: Nr:Datum:Temp:Feuchte:Taupunkt:
Aussen-T/F 1576 21-04-2004 16:00:00 20.82 C 38.2000 % 6.07 C
1577 21-04-2004 17:00:00 21.18 C 39.2000 % 6.76 C
1578 21-04-2004 18:00:00 20.52 C 42.2000 % 7.25 C
1579 21-04-2004 19:00:00 20.38 C 45.4000 % 8.19 C
1580 21-04-2004 20:00:00 17.92 C 57.4000 % 9.39 C
1581 21-04-2004 21:00:00 15.36 C 63.6000 % 8.5 C
1582 21-04-2004 22:00:00 14.34 C 67.8000 % 8.48 C
1583 21-04-2004 23:00:00 13.06 C 71.6000 % 8.05 C
1584 22-04-2004 00:00:00 11.9 C 76.6000 % 7.92 C
1585 22-04-2004 01:00:00 11.1 C 79.0000 % 7.6 C
1586 22-04-2004 02:00:00 10.32 C 81.6000 % 7.31 C
1587 22-04-2004 03:00:00 9.42 C 84.4000 % 6.93 C
1588 22-04-2004 04:00:00 8.86 C 86.0000 % 6.65 C
1589 22-04-2004 05:00:00 8.32 C 87.0000 % 6.29 C
1590 22-04-2004 06:00:00 8.08 C 87.6000 % 6.15 C
1591 22-04-2004 07:00:00 8.34 C 87.2000 % 6.34 C
1592 22-04-2004 08:00:00 10.1 C 81.4000 % 7.06 C
1593 22-04-2004 09:00:00 12.46 C 74.6000 % 8.08 C
1594 22-04-2004 10:00:00 15.1 C 67.6000 % 9.16 C
1595 22-04-2004 11:00:00 18.54 C 54.0000 % 9.06 C
1596 22-04-2004 12:00:00 21.44 C 45.2000 % 9.09 C
1597 22-04-2004 13:00:00 24.4 C 33.6000 % 7.36 C
1598 22-04-2004 14:00:00 25.16 C 30.6000 % 6.66 C
1599 22-04-2004 15:00:00 26.28 C 28.2000 % 6.44 C
1600 22-04-2004 16:00:00 27.14 C 22.8000 % 4.11 C
Sensor: Nr:Datum:Temp:Feuchte:Taupunkt:
Aussen-T/F 1601 22-04-2004 17:00:00 24.62 C 34.8000 % 8.07 C
1602 22-04-2004 18:00:00 21.7 C 46.6000 % 9.78 C
1603 22-04-2004 19:00:00 19.9 C 56.4000 % 10.98 C
1604 22-04-2004 20:00:00 18.18 C 63.0000 % 11.03 C
1605 22-04-2004 21:00:00 17.16 C 66.2000 % 10.81 C
1606 22-04-2004 22:00:00 16.6 C 69.6000 % 11.02 C
1607 22-04-2004 23:00:00 16.06 C 73.6000 % 11.35 C
1608 23-04-2004 00:00:00 15.62 C 77.0000 % 11.6 C
1609 23-04-2004 01:00:00 15.08 C 79.4000 % 11.54 C
1610 23-04-2004 02:00:00 14.54 C 79.6000 % 11.06 C
1611 23-04-2004 03:00:00 13.68 C 79.4000 % 10.18 C
1612 23-04-2004 04:00:00 12.08 C 85.4000 % 9.71 C
1613 23-04-2004 05:00:00 11.28 C 92.8000 % 10.16 C
1614 23-04-2004 06:00:00 10.8 C 94.0000 % 9.87 C
1615 23-04-2004 07:00:00 10.38 C 93.0000 % 9.3 C
1616 23-04-2004 08:00:00 10.42 C 93.6000 % 9.43 C
1617 23-04-2004 09:00:00 9.62 C 91.2000 % 8.26 C
1618 23-04-2004 10:00:00 9.52 C 90.4000 % 8.03 C
1619 23-04-2004 11:00:00 9.98 C 87.2000 % 7.95 C
1620 23-04-2004 12:00:00 11.4 C 80.0000 % 8.08 C
1621 23-04-2004 13:00:00 13.54 C 70.8000 % 8.35 C
1622 23-04-2004 14:00:00 16.28 C 51.6000 % 6.31 C
1623 23-04-2004 15:00:00 16.7 C 45.2000 % 4.79 C
1624 23-04-2004 16:00:00 16.78 C 43.4000 % 4.28 C
1625 23-04-2004 17:00:00 17.2 C 42.8000 % 4.46 C
Sensor: Nr:Datum:Temp:Feuchte:Taupunkt:
Aussen-T/F 1626 23-04-2004 18:00:00 16.48 C 41.6000 % 3.41 C
1627 23-04-2004 19:00:00 16.72 C 39.0000 % 2.71 C
1628 23-04-2004 20:00:00 14.04 C 50.4000 % 3.9 C
1629 23-04-2004 21:00:00 11.6 C 60.8000 % 4.3 C
1630 23-04-2004 22:00:00 10.78 C 65.0000 % 4.47 C
1631 23-04-2004 23:00:00 9.98 C 68.8000 % 4.52 C
1632 24-04-2004 00:00:00 8.92 C 73.0000 % 4.35 C
1633 24-04-2004 01:00:00 7.96 C 77.4000 % 4.26 C
1634 24-04-2004 02:00:00 7.46 C 80.8000 % 4.38 C
1635 24-04-2004 03:00:00 7.18 C 82.4000 % 4.39 C
1636 24-04-2004 04:00:00 6.68 C 84.8000 % 4.31 C
1637 24-04-2004 05:00:00 5.92 C 88.6000 % 4.19 C
1638 24-04-2004 06:00:00 5.64 C 89.6000 % 4.07 C
1639 24-04-2004 07:00:00 5.74 C 90.0000 % 4.23 C
1640 24-04-2004 08:00:00 6.78 C 88.4000 % 5 C
1641 24-04-2004 09:00:00 9.04 C 72.8000 % 4.43 C
1642 24-04-2004 10:00:00 11.52 C 57.4000 % 3.41 C
1643 24-04-2004 11:00:00 13.54 C 44.8000 % 1.79 C
1644 24-04-2004 12:00:00 15.62 C 39.2000 % 1.8 C
1645 24-04-2004 13:00:00 17.34 C 35.2000 % 1.83 C
1646 24-04-2004 14:00:00 18.08 C 31.2000 % 0.8 C
1647 24-04-2004 15:00:00 19.96 C 26.4000 % 0.11 C
1648 24-04-2004 16:00:00 20.52 C 24.8000 % -0.27 C
1649 24-04-2004 17:00:00 21.1 C 23.8000 % -0.35 C
1650 24-04-2004 18:00:00 20.88 C 25.8000 % 0.58 C
Sensor: Nr:Datum:Temp:Feuchte:Taupunkt:
Aussen-T/F 1651 24-04-2004 19:00:00 19.08 C 29.2000 % 0.75 C
1652 24-04-2004 20:00:00 16.3 C 38.8000 % 2.26 C
1653 24-04-2004 21:00:00 12.94 C 49.2000 % 2.55 C
1654 24-04-2004 22:00:00 11.36 C 57.2000 % 3.21 C
1655 24-04-2004 23:00:00 10.74 C 61.0000 % 3.53 C
1656 25-04-2004 00:00:00 9.62 C 66.2000 % 3.63 C
1657 25-04-2004 01:00:00 8.44 C 71.8000 % 3.65 C
1658 25-04-2004 02:00:00 7.78 C 76.6000 % 3.93 C
1659 25-04-2004 03:00:00 7.28 C 77.8000 % 3.67 C
1660 25-04-2004 04:00:00 6.3 C 81.8000 % 3.43 C
1661 25-04-2004 05:00:00 5.58 C 84.4000 % 3.16 C
1662 25-04-2004 06:00:00 4.98 C 86.8000 % 2.97 C
1663 25-04-2004 07:00:00 5.16 C 87.2000 % 3.21 C
1664 25-04-2004 08:00:00 6.18 C 84.4000 % 3.75 C
1665 25-04-2004 09:00:00 8.46 C 77.8000 % 4.82 C
1666 25-04-2004 10:00:00 11.94 C 65.2000 % 5.62 C
1667 25-04-2004 11:00:00 14.24 C 53.2000 % 4.86 C
1668 25-04-2004 12:00:00 16.38 C 41.8000 % 3.38 C
1669 25-04-2004 13:00:00 18.32 C 35.4000 % 2.77 C
1670 25-04-2004 14:00:00 19.44 C 33.6000 % 3.02 C
1671 25-04-2004 15:00:00 20.3 C 32.4000 % 3.26 C
1672 25-04-2004 16:00:00 20.52 C 34.0000 % 4.13 C
1673 25-04-2004 17:00:00 21.38 C 30.8000 % 3.48 C
1674 25-04-2004 18:00:00 20.26 C 33.8000 % 3.82 C
1675 25-04-2004 19:00:00 17.86 C 39.4000 % 3.87 C
Sensor: Nr:Datum:Temp:Feuchte:Taupunkt:
Aussen-T/F 1676 25-04-2004 20:00:00 14.88 C 45.4000 % 3.19 C
1677 25-04-2004 21:00:00 13.32 C 51.0000 % 3.41 C
1678 25-04-2004 22:00:00 12.14 C 56.8000 % 3.84 C
1679 25-04-2004 23:00:00 11.18 C 61.4000 % 4.04 C
1680 26-04-2004 00:00:00 10.26 C 65.8000 % 4.15 C
1681 26-04-2004 01:00:00 9.32 C 69.6000 % 4.06 C
1682 26-04-2004 02:00:00 8.26 C 72.8000 % 3.68 C
1683 26-04-2004 03:00:00 7.64 C 76.0000 % 3.69 C
1684 26-04-2004 04:00:00 7.12 C 78.2000 % 3.59 C
1685 26-04-2004 05:00:00 6.7 C 79.2000 % 3.36 C
1686 26-04-2004 06:00:00 6.44 C 80.2000 % 3.28 C
1687 26-04-2004 07:00:00 7.16 C 79.2000 % 3.81 C
1688 26-04-2004 08:00:00 8.32 C 74.8000 % 4.12 C
1689 26-04-2004 09:00:00 10.88 C 66.2000 % 4.83 C
1690 26-04-2004 10:00:00 14.36 C 52.2000 % 4.7 C
1691 26-04-2004 11:00:00 16.76 C 38.6000 % 2.6 C
1692 26-04-2004 12:00:00 18.68 C 34.0000 % 2.52 C
1693 26-04-2004 13:00:00 19.36 C 35.4000 % 3.69 C
1694 26-04-2004 14:00:00 20.4 C 33.6000 % 3.86 C
1695 26-04-2004 15:00:00 22.9 C 26.8000 % 2.82 C
1696 26-04-2004 16:00:00 24.28 C 23.0000 % 1.85 C
1697 26-04-2004 17:00:00 25.06 C 21.4000 % 1.49 C
1698 26-04-2004 18:00:00 24.66 C 23.0000 % 2.16 C
1699 26-04-2004 19:00:00 22.36 C 29.2000 % 3.57 C
1700 26-04-2004 20:00:00 19.36 C 36.8000 % 4.24 C
Sensor: Nr:Datum:Temp:Feuchte:Taupunkt:
Aussen-T/F 1701 26-04-2004 21:00:00 16.48 C 43.6000 % 4.07 C
1702 26-04-2004 22:00:00 15.2 C 51.2000 % 5.2 C
1703 26-04-2004 23:00:00 13.84 C 57.2000 % 5.53 C
1704 27-04-2004 00:00:00 12.68 C 62.2000 % 5.64 C
1705 27-04-2004 01:00:00 11.46 C 66.8000 % 5.51 C
1706 27-04-2004 02:00:00 10.4 C 71.0000 % 5.38 C
1707 27-04-2004 03:00:00 9.34 C 75.0000 % 5.14 C
1708 27-04-2004 04:00:00 8.6 C 78.8000 % 5.13 C
1709 27-04-2004 05:00:00 8 C 80.6000 % 4.87 C
1710 27-04-2004 06:00:00 8.18 C 80.0000 % 4.94 C
1711 27-04-2004 07:00:00 8.38 C 80.2000 % 5.17 C
1712 27-04-2004 08:00:00 9.34 C 77.2000 % 5.56 C
1713 27-04-2004 09:00:00 11.92 C 68.0000 % 6.21 C
1714 27-04-2004 10:00:00 15.72 C 53.6000 % 6.34 C
1715 27-04-2004 11:00:00 18 C 45.2000 % 5.97 C
1716 27-04-2004 12:00:00 20.44 C 38.6000 % 5.88 C
1717 27-04-2004 13:00:00 21.84 C 30.8000 % 3.88 C
1718 27-04-2004 14:00:00 23.38 C 28.6000 % 4.15 C
1719 27-04-2004 15:00:00 25.6 C 24.6000 % 3.9 C
1720 27-04-2004 16:00:00 26.1 C 23.0000 % 3.37 C
1721 27-04-2004 17:00:00 24.16 C 26.8000 % 3.9 C
1722 27-04-2004 18:00:00 25.06 C 25.0000 % 3.67 C
1723 27-04-2004 19:00:00 22.62 C 31.6000 % 4.92 C
1724 27-04-2004 20:00:00 18.82 C 42.2000 % 5.72 C
1725 27-04-2004 21:00:00 17.12 C 47.0000 % 5.73 C
Sensor: Nr:Datum:Temp:Feuchte:Taupunkt:
Aussen-T/F 1726 27-04-2004 22:00:00 15.78 C 50.8000 % 5.62 C
1727 27-04-2004 23:00:00 14.88 C 53.8000 % 5.61 C
1728 28-04-2004 00:00:00 14.4 C 56.6000 % 5.9 C
1729 28-04-2004 01:00:00 13.8 C 58.6000 % 5.84 C
1730 28-04-2004 02:00:00 13.12 C 61.4000 % 5.87 C
1731 28-04-2004 03:00:00 12.12 C 66.6000 % 6.1 C
1732 28-04-2004 04:00:00 12.1 C 68.8000 % 6.55 C
1733 28-04-2004 05:00:00 11.8 C 75.4000 % 7.6 C
1734 28-04-2004 06:00:00 11.64 C 76.4000 % 7.63 C
1735 28-04-2004 07:00:00 11.98 C 76.6000 % 8 C
1736 28-04-2004 08:00:00 13.84 C 66.4000 % 7.69 C
1737 28-04-2004 09:00:00 15.72 C 57.0000 % 7.23 C
1738 28-04-2004 10:00:00 17.34 C 52.8000 % 7.62 C
1739 28-04-2004 11:00:00 19.44 C 49.4000 % 8.58 C
1740 28-04-2004 12:00:00 21.82 C 39.6000 % 7.48 C
1741 28-04-2004 13:00:00 23.98 C 34.4000 % 7.34 C
1742 28-04-2004 14:00:00 25.04 C 30.8000 % 6.65 C
1743 28-04-2004 15:00:00 25.18 C 27.6000 % 5.19 C
1744 28-04-2004 16:00:00 22.16 C 35.0000 % 5.99 C
1745 28-04-2004 17:00:00 17.5 C 62.0000 % 10.15 C
1746 28-04-2004 18:00:00 14.9 C 87.8000 % 12.9 C
1747 28-04-2004 19:00:00 13.9 C 87.2000 % 11.81 C
1748 28-04-2004 20:00:00 13.6 C 91.4000 % 12.23 C
1749 28-04-2004 21:00:00 13.28 C 92.0000 % 12.01 C
1750 28-04-2004 22:00:00 12.86 C 92.0000 % 11.59 C
Sensor: Nr:Datum:Temp:Feuchte:Taupunkt:
Aussen-T/F 1751 28-04-2004 23:00:00 12.78 C 91.6000 % 11.45 C
1752 29-04-2004 00:00:00 12.76 C 92.0000 % 11.49 C
1753 29-04-2004 01:00:00 12.1 C 92.6000 % 10.94 C
1754 29-04-2004 02:00:00 11.65 C 94.0000 % 10.72 C
1755 29-04-2004 03:00:00 11.52 C 94.8000 % 10.72 C
1756 29-04-2004 04:00:00 11.12 C 95.0000 % 10.35 C
1757 29-04-2004 05:00:00 10.88 C 95.0000 % 10.11 C
1758 29-04-2004 06:00:00 10.84 C 95.0000 % 10.07 C
1759 29-04-2004 07:00:00 11.38 C 95.0000 % 10.61 C
1760 29-04-2004 08:00:00 12.56 C 90.8000 % 11.1 C
1761 29-04-2004 09:00:00 13.96 C 82.0000 % 10.94 C
1762 29-04-2004 10:00:00 15.92 C 76.0000 % 11.7 C
1763 29-04-2004 11:00:00 17.725 C 66.0000 % 11.3 C
1764 29-04-2004 12:00:00 20.18333 C 52.0000 % 10.02 C
1765 29-04-2004 13:00:00 21.48 C 42.4000 % 8.18 C
1766 29-04-2004 14:00:00 22.24 C 38.4000 % 7.41 C
1767 29-04-2004 15:00:00 22.78 C 39.6000 % 8.34 C
1768 29-04-2004 16:00:00 24.56 C 38.2000 % 9.39 C
1769 29-04-2004 17:00:00 24.06 C 39.0000 % 9.25 C
1770 29-04-2004 18:00:00 22.56 C 46.8000 % 10.62 C
1771 29-04-2004 19:00:00 19.68 C 59.6000 % 11.6 C
1772 29-04-2004 20:00:00 17.76 C 65.6000 % 11.24 C
1773 29-04-2004 21:00:00 16.3 C 71.0000 % 11.04 C
1774 29-04-2004 22:00:00 15.575 C 75.2500 % 11.21 C
1775 29-04-2004 23:00:00 14.96667 C 78.6667 % 11.29 C
Sensor: Nr:Datum:Temp:Feuchte:Taupunkt:
Aussen-T/F 1776 30-04-2004 00:00:00 14.7 C 79.8000 % 11.25 C
1777 30-04-2004 01:00:00 13.92 C 82.8000 % 11.05 C
1778 30-04-2004 02:00:00 13.14 C 85.0000 % 10.68 C
1779 30-04-2004 03:00:00 12.96 C 86.4000 % 10.75 C
1780 30-04-2004 04:00:00 13.04 C 84.8000 % 10.54 C
1781 30-04-2004 05:00:00 12.5 C 85.8000 % 10.19 C
1782 30-04-2004 06:00:00 11.88 C 88.6000 % 10.06 C
1783 30-04-2004 07:00:00 12.64 C 87.4000 % 10.6 C
1784 30-04-2004 08:00:00 14.26 C 76.4000 % 10.17 C
1785 30-04-2004 09:00:00 15.64 C 66.0000 % 9.32 C
1786 30-04-2004 10:00:00 17.78 C 58.0000 % 9.41 C
1787 30-04-2004 11:00:00 19.92 C 49.4000 % 9.02 C
1788 30-04-2004 12:00:00 21.58 C 44.4000 % 8.95 C
1789 30-04-2004 13:00:00 24.26 C 36.6000 % 8.49 C
1790 30-04-2004 14:00:00 26 C 32.0000 % 8.04 C
1791 30-04-2004 15:00:00 28.2 C 26.4000 % 7.11 C
1792 30-04-2004 16:00:00 29.08 C 21.8000 % 5.08 C
1793 30-04-2004 17:00:00 29.02 C 20.4000 % 4.08 C
1794 30-04-2004 18:00:00 26.22 C 29.0000 % 6.79 C
1795 30-04-2004 19:00:00 20.38 C 45.4000 % 8.19 C
1796 30-04-2004 20:00:00 19.2 C 51.2000 % 8.88 C
1797 30-04-2004 21:00:00 18.3 C 56.2000 % 9.43 C
1798 30-04-2004 22:00:00 14.98 C 86.6000 % 12.77 C
1799 30-04-2004 23:00:00 14.44 C 90.4000 % 12.89 C
1800 01-05-2004 00:00:00 14.82 C 87.0000 % 12.68 C
Sensor: Nr:Datum:Temp:Feuchte:Taupunkt:
Aussen-T/F 1801 01-05-2004 01:00:00 14.54 C 84.8000 % 12.01 C
1802 01-05-2004 02:00:00 14.36 C 83.6000 % 11.62 C
1803 01-05-2004 03:00:00 14.12 C 84.4000 % 11.53 C
1804 01-05-2004 04:00:00 13.82 C 86.4000 % 11.59 C
1805 01-05-2004 05:00:00 13.72 C 86.6000 % 11.53 C
1806 01-05-2004 06:00:00 13.66 C 86.4000 % 11.43 C
1807 01-05-2004 07:00:00 13.9 C 84.2000 % 11.28 C
1808 01-05-2004 08:00:00 14.28 C 82.4000 % 11.33 C
1809 01-05-2004 09:00:00 15.725 C 74.7500 % 11.26 C
1810 01-05-2004 10:00:00 16.3 C 71.0000 % 11.04 C
1811 01-05-2004 11:00:00 15.74 C 71.2000 % 10.54 C
1812 01-05-2004 12:00:00 16.7 C 67.8000 % 10.73 C
1813 01-05-2004 13:00:00 15.98 C 68.6000 % 10.21 C
1814 01-05-2004 14:00:00 16.5 C 67.4000 % 10.45 C
1815 01-05-2004 15:00:00 16.28 C 67.6000 % 10.28 C
1816 01-05-2004 16:00:00 14.88 C 83.6000 % 12.13 C
1817 01-05-2004 17:00:00 14.54 C 89.6000 % 12.85 C
1818 01-05-2004 18:00:00 14.08 C 90.2000 % 12.5 C
1819 01-05-2004 19:00:00 14.04 C 87.8000 % 12.05 C
1820 01-05-2004 20:00:00 13.22 C 81.2000 % 10.07 C
1821 01-05-2004 21:00:00 12.88 C 78.8000 % 9.29 C
1822 01-05-2004 22:00:00 12.92 C 77.0000 % 8.99 C
1823 01-05-2004 23:00:00 12.82 C 77.6000 % 9.01 C
1824 02-05-2004 00:00:00 12.38 C 81.0000 % 9.22 C
1825 02-05-2004 01:00:00 12.12 C 83.6000 % 9.43 C
Sensor: Nr:Datum:Temp:Feuchte:Taupunkt:
Aussen-T/F 1826 02-05-2004 02:00:00 11.94 C 84.4000 % 9.4 C
1827 02-05-2004 03:00:00 11.62 C 82.8000 % 8.8 C
1828 02-05-2004 04:00:00 11.14 C 83.8000 % 8.51 C
1829 02-05-2004 05:00:00 10.98 C 84.8000 % 8.52 C
1830 02-05-2004 06:00:00 10.86 C 84.8000 % 8.41 C
1831 02-05-2004 07:00:00 10.96 C 83.0000 % 8.19 C
1832 02-05-2004 08:00:00 11.24 C 81.8000 % 8.25 C
1833 02-05-2004 09:00:00 12.82 C 73.0000 % 8.11 C
1834 02-05-2004 10:00:00 15.2 C 60.2000 % 7.54 C
1835 02-05-2004 11:00:00 17.3 C 53.6000 % 7.8 C
1836 02-05-2004 12:00:00 18.52 C 46.4000 % 6.82 C
1837 02-05-2004 13:00:00 21.62 C 36.4000 % 6.08 C
1838 02-05-2004 14:00:00 21.92 C 35.2000 % 5.86 C
1839 02-05-2004 15:00:00 20.96 C 36.6000 % 5.58 C
1840 02-05-2004 16:00:00 20.9 C 39.6000 % 6.66 C
1841 02-05-2004 17:00:00 21.4 C 38.2000 % 6.58 C
1842 02-05-2004 18:00:00 23.3 C 32.4000 % 5.87 C
1843 02-05-2004 19:00:00 20.96 C 40.2000 % 6.93 C
1844 02-05-2004 20:00:00 17.32 C 53.4000 % 7.77 C
1845 02-05-2004 21:00:00 14.88 C 63.4000 % 8 C
1846 02-05-2004 22:00:00 13.72 C 67.6000 % 7.84 C
1847 02-05-2004 23:00:00 12.76 C 71.8000 % 7.81 C
1848 03-05-2004 00:00:00 11.66 C 76.0000 % 7.58 C
1849 03-05-2004 01:00:00 10.76 C 78.6000 % 7.2 C
1850 03-05-2004 02:00:00 9.94 C 82.0000 % 7.01 C
Sensor: Nr:Datum:Temp:Feuchte:Taupunkt:
Aussen-T/F 1851 03-05-2004 03:00:00 9.56 C 83.2000 % 6.85 C
1852 03-05-2004 04:00:00 8.94 C 84.4000 % 6.46 C
1853 03-05-2004 05:00:00 8.24 C 86.2000 % 6.07 C
1854 03-05-2004 06:00:00 7.9 C 88.6000 % 6.14 C
1855 03-05-2004 07:00:00 7.88 C 90.0000 % 6.34 C
1856 03-05-2004 08:00:00 8.44 C 88.6000 % 6.67 C
1857 03-05-2004 09:00:00 10.06 C 85.4000 % 7.73 C
1858 03-05-2004 10:00:00 14.18 C 71.4000 % 9.09 C
1859 03-05-2004 11:00:00 17.48 C 49.0000 % 6.66 C
1860 03-05-2004 12:00:00 18.62 C 38.6000 % 4.26 C
1861 03-05-2004 13:00:00 19.28 C 33.6000 % 2.88 C
1862 03-05-2004 14:00:00 18 C 44.6000 % 5.77 C
1863 03-05-2004 15:00:00 20.48 C 35.0000 % 4.51 C
1864 03-05-2004 16:00:00 20.98 C 34.4000 % 4.7 C
1865 03-05-2004 17:00:00 21.84 C 30.4000 % 3.69 C
1866 03-05-2004 18:00:00 21.4 C 31.0000 % 3.59 C
1867 03-05-2004 19:00:00 19.82 C 35.6000 % 4.17 C
1868 03-05-2004 20:00:00 18.84 C 43.8000 % 6.27 C
1869 03-05-2004 21:00:00 15.88 C 57.4000 % 7.48 C
1870 03-05-2004 22:00:00 14.54 C 64.0000 % 7.82 C
1871 03-05-2004 23:00:00 13.44 C 68.2000 % 7.7 C
1872 04-05-2004 00:00:00 12.62 C 72.2000 % 7.75 C
1873 04-05-2004 01:00:00 11.62 C 75.8000 % 7.5 C
1874 04-05-2004 02:00:00 11.1 C 77.8000 % 7.38 C
1875 04-05-2004 03:00:00 10.38 C 83.8000 % 7.76 C
Sensor: Nr:Datum:Temp:Feuchte:Taupunkt:
Aussen-T/F 1876 04-05-2004 04:00:00 10.12 C 83.6000 % 7.47 C
1877 04-05-2004 05:00:00 9.38 C 83.8000 % 6.78 C
1878 04-05-2004 06:00:00 9.06 C 86.0000 % 6.85 C
1879 04-05-2004 07:00:00 9.44 C 84.4000 % 6.95 C
1880 04-05-2004 08:00:00 10.58 C 80.2000 % 7.32 C
1881 04-05-2004 09:00:00 12.4 C 71.8000 % 7.46 C
1882 04-05-2004 10:00:00 13.22 C 65.4000 % 6.88 C
1883 04-05-2004 11:00:00 14.54 C 57.0000 % 6.13 C
1884 04-05-2004 12:00:00 16.38 C 48.0000 % 5.35 C
1885 04-05-2004 13:00:00 18.42 C 41.2000 % 5.01 C
1886 04-05-2004 14:00:00 18.88 C 38.0000 % 4.27 C
1887 04-05-2004 15:00:00 19.52 C 35.0000 % 3.67 C
1888 04-05-2004 16:00:00 19.36 C 36.2000 % 4 C
1889 04-05-2004 17:00:00 18.98 C 37.2000 % 4.05 C
1890 04-05-2004 18:00:00 19 C 36.2000 % 3.69 C
1891 04-05-2004 19:00:00 18.04 C 37.8000 % 3.45 C
1892 04-05-2004 20:00:00 15.46 C 47.2000 % 4.27 C
1893 04-05-2004 21:00:00 13.22 C 56.8000 % 4.85 C
1894 04-05-2004 22:00:00 12.78 C 58.4000 % 4.83 C
1895 04-05-2004 23:00:00 12.02 C 63.0000 % 5.2 C
1896 05-05-2004 00:00:00 10.76 C 68.0000 % 5.1 C
1897 05-05-2004 01:00:00 10.72 C 66.8000 % 4.81 C
1898 05-05-2004 02:00:00 10.82 C 64.0000 % 4.29 C
1899 05-05-2004 03:00:00 10.26 C 65.4000 % 4.07 C
1900 05-05-2004 04:00:00 10.56 C 66.2000 % 4.53 C
Sensor: Nr:Datum:Temp:Feuchte:Taupunkt:
Aussen-T/F 1901 05-05-2004 05:00:00 10.4 C 67.6000 % 4.67 C
1902 05-05-2004 06:00:00 10.62 C 67.2000 % 4.8 C
1903 05-05-2004 07:00:00 10.88 C 66.0000 % 4.79 C
1904 05-05-2004 08:00:00 10.82 C 66.0000 % 4.73 C
1905 05-05-2004 09:00:00 11.54 C 59.2000 % 3.86 C
1906 05-05-2004 10:00:00 11.78 C 57.0000 % 3.55 C
1907 05-05-2004 11:00:00 12.34 C 53.0000 % 3.04 C
1908 05-05-2004 12:00:00 12.58 C 52.4000 % 3.11 C
1909 05-05-2004 13:00:00 13.5 C 46.6000 % 2.3 C
1910 05-05-2004 14:00:00 14.44 C 43.4000 % 2.16 C
1911 05-05-2004 15:00:00 15.12 C 36.2000 % 0.25 C
1912 05-05-2004 16:00:00 15.86 C 35.0000 % 0.44 C
1913 05-05-2004 17:00:00 16.5 C 30.8000 % -0.75 C
1914 05-05-2004 18:00:00 15.82 C 32.8000 % -0.49 C
1915 05-05-2004 19:00:00 16.3 C 29.6000 % -1.47 C
1916 05-05-2004 20:00:00 14.14 C 39.6000 % 0.62 C
1917 05-05-2004 21:00:00 11.54 C 49.8000 % 1.43 C
1918 05-05-2004 22:00:00 10.64 C 53.8000 % 1.68 C
1919 05-05-2004 23:00:00 9.92 C 59.8000 % 2.48 C
1920 06-05-2004 00:00:00 9.28 C 65.0000 % 3.05 C
1921 06-05-2004 01:00:00 8.62 C 70.0000 % 3.47 C
1922 06-05-2004 02:00:00 7.86 C 73.0000 % 3.33 C
1923 06-05-2004 03:00:00 6.74 C 78.0000 % 3.18 C
1924 06-05-2004 04:00:00 6.04 C 80.8000 % 3 C
1925 06-05-2004 05:00:00 5.42 C 83.8000 % 2.91 C
Sensor: Nr:Datum:Temp:Feuchte:Taupunkt:
Aussen-T/F 1926 06-05-2004 06:00:00 4.9 C 86.8000 % 2.89 C
1927 06-05-2004 07:00:00 5.28 C 86.6000 % 3.23 C
1928 06-05-2004 08:00:00 7.04 C 78.6000 % 3.58 C
1929 06-05-2004 09:00:00 9.72 C 69.2000 % 4.36 C
1930 06-05-2004 10:00:00 12.04 C 58.0000 % 4.04 C
1931 06-05-2004 11:00:00 13.9 C 51.8000 % 4.16 C
1932 06-05-2004 12:00:00 15.3 C 47.0000 % 4.07 C
1933 06-05-2004 13:00:00 16.34 C 41.6000 % 3.28 C
1934 06-05-2004 14:00:00 15.68 C 42.8000 % 3.09 C
1935 06-05-2004 15:00:00 13.66 C 58.6000 % 5.71 C
1936 06-05-2004 16:00:00 12.1 C 76.4000 % 8.08 C
1937 06-05-2004 17:00:00 11.36 C 81.0000 % 8.22 C
1938 06-05-2004 18:00:00 11.16 C 84.6000 % 8.67 C
1939 06-05-2004 19:00:00 10.82 C 86.0000 % 8.57 C
1940 06-05-2004 20:00:00 9.92 C 89.8000 % 8.33 C
1941 06-05-2004 21:00:00 9.58 C 91.2000 % 8.22 C
1942 06-05-2004 22:00:00 9.24 C 92.0000 % 8.01 C
1943 06-05-2004 23:00:00 9 C 92.8000 % 7.9 C
1944 07-05-2004 00:00:00 8.96 C 93.8000 % 8.02 C
1945 07-05-2004 01:00:00 8.86 C 94.4000 % 8.01 C
1946 07-05-2004 02:00:00 8.54 C 92.6000 % 7.41 C
1947 07-05-2004 03:00:00 8.4 C 92.8000 % 7.3 C
1948 07-05-2004 04:00:00 8.26 C 92.4000 % 7.1 C
1949 07-05-2004 05:00:00 8.34 C 91.8000 % 7.09 C
1950 07-05-2004 06:00:00 8.22 C 92.8000 % 7.13 C
Sensor: Nr:Datum:Temp:Feuchte:Taupunkt:
Aussen-T/F 1951 07-05-2004 07:00:00 8.12 C 92.4000 % 6.96 C
1952 07-05-2004 08:00:00 8.28 C 91.8000 % 7.03 C
1953 07-05-2004 09:00:00 8.26 C 88.6000 % 6.49 C
1954 07-05-2004 10:00:00 8.24 C 88.0000 % 6.37 C
1955 07-05-2004 11:00:00 8.82 C 86.6000 % 6.71 C
1956 07-05-2004 12:00:00 9.14 C 85.8000 % 6.89 C
1957 07-05-2004 13:00:00 8.6 C 90.0000 % 7.06 C
1958 07-05-2004 14:00:00 8.86 C 89.0000 % 7.15 C
1959 07-05-2004 15:00:00 9.1 C 84.8000 % 6.68 C
1960 07-05-2004 16:00:00 9.24 C 75.2000 % 5.08 C
1961 07-05-2004 17:00:00 8.76 C 83.0000 % 6.04 C
1962 07-05-2004 18:00:00 8.6 C 88.2000 % 6.76 C
1963 07-05-2004 19:00:00 8.32 C 89.8000 % 6.75 C
1964 07-05-2004 20:00:00 7.88 C 91.4000 % 6.57 C
1965 07-05-2004 21:00:00 7.46 C 91.0000 % 6.09 C
1966 07-05-2004 22:00:00 7.42 C 93.2000 % 6.4 C
1967 07-05-2004 23:00:00 7.28 C 93.0000 % 6.23 C
1968 08-05-2004 00:00:00 6.9 C 93.2000 % 5.88 C
1969 08-05-2004 01:00:00 6.56 C 92.2000 % 5.39 C
1970 08-05-2004 02:00:00 6.54 C 92.6000 % 5.43 C
1971 08-05-2004 03:00:00 6.4 C 92.0000 % 5.2 C
1972 08-05-2004 04:00:00 6.3 C 93.0000 % 5.25 C
1973 08-05-2004 05:00:00 6.28 C 92.2000 % 5.11 C
1974 08-05-2004 06:00:00 6.16 C 92.6000 % 5.05 C
1975 08-05-2004 07:00:00 6.08 C 93.2000 % 5.07 C
Sensor: Nr:Datum:Temp:Feuchte:Taupunkt:
Aussen-T/F 1976 08-05-2004 08:00:00 6.24 C 93.0000 % 5.19 C
1977 08-05-2004 09:00:00 6.38 C 91.0000 % 5.02 C
1978 08-05-2004 10:00:00 6.96 C 89.0000 % 5.28 C
1979 08-05-2004 11:00:00 7.76 C 86.8000 % 5.7 C
1980 08-05-2004 12:00:00 8.16 C 82.4000 % 5.35 C
1981 08-05-2004 13:00:00 9.34 C 74.8000 % 5.1 C
1982 08-05-2004 14:00:00 8.72 C 77.2000 % 4.96 C
1983 08-05-2004 15:00:00 8.84 C 79.6000 % 5.51 C
1984 08-05-2004 16:00:00 8.7 C 86.0000 % 6.49 C
1985 08-05-2004 17:00:00 9.54 C 79.0000 % 6.08 C
1986 08-05-2004 18:00:00 9.28 C 76.0000 % 5.27 C
1987 08-05-2004 19:00:00 8.8 C 78.6000 % 5.29 C
1988 08-05-2004 20:00:00 8.4 C 81.2000 % 5.37 C
1989 08-05-2004 21:00:00 8.06 C 83.8000 % 5.49 C
1990 08-05-2004 22:00:00 7.84 C 87.8000 % 5.95 C
1991 08-05-2004 23:00:00 7.7 C 88.2000 % 5.87 C
1992 09-05-2004 00:00:00 7.7 C 89.0000 % 6 C
1993 09-05-2004 01:00:00 7.66 C 88.6000 % 5.9 C
1994 09-05-2004 02:00:00 7.54 C 89.0000 % 5.85 C
1995 09-05-2004 03:00:00 7.42 C 90.0000 % 5.89 C
1996 09-05-2004 04:00:00 7.42 C 90.0000 % 5.89 C
1997 09-05-2004 05:00:00 7.42 C 90.2000 % 5.92 C
1998 09-05-2004 06:00:00 7.5 C 91.0000 % 6.13 C
1999 09-05-2004 07:00:00 8 C 89.6000 % 6.4 C
2000 09-05-2004 08:00:00 8.76 C 83.8000 % 6.18 C
Sensor: Nr:Datum:Temp:Feuchte:Taupunkt:
Aussen-T/F 2001 09-05-2004 09:00:00 9.24 C 79.2000 % 5.83 C
2002 09-05-2004 10:00:00 10.18 C 74.0000 % 5.76 C
2003 09-05-2004 11:00:00 11.34 C 70.0000 % 6.07 C
2004 09-05-2004 12:00:00 11.1 C 71.6000 % 6.17 C
2005 09-05-2004 13:00:00 12.76 C 64.0000 % 6.13 C
2006 09-05-2004 14:00:00 14 C 57.4000 % 5.73 C
2007 09-05-2004 15:00:00 12.9 C 58.8000 % 5.04 C
2008 09-05-2004 16:00:00 12.66 C 61.6000 % 5.49 C
2009 09-05-2004 17:00:00 14.04 C 57.2000 % 5.71 C
2010 09-05-2004 18:00:00 13.94 C 57.0000 % 5.57 C
2011 09-05-2004 19:00:00 13.04 C 64.8000 % 6.58 C
2012 09-05-2004 20:00:00 11.68 C 73.6000 % 7.13 C
2013 09-05-2004 21:00:00 10.58 C 77.4000 % 6.8 C
2014 09-05-2004 22:00:00 10.4 C 79.8000 % 7.07 C
2015 09-05-2004 23:00:00 9.98 C 85.2000 % 7.61 C
2016 10-05-2004 00:00:00 9.8 C 88.6000 % 8.01 C
2017 10-05-2004 01:00:00 9.6 C 90.2000 % 8.08 C
2018 10-05-2004 02:00:00 9.6 C 92.6000 % 8.46 C
2019 10-05-2004 03:00:00 9.52 C 94.0000 % 8.6 C
2020 10-05-2004 04:00:00 9.56 C 94.0000 % 8.64 C
2021 10-05-2004 05:00:00 9.6 C 94.0000 % 8.68 C
2022 10-05-2004 06:00:00 9.72 C 94.0000 % 8.8 C
2023 10-05-2004 07:00:00 9.86 C 94.8000 % 9.07 C
2024 10-05-2004 08:00:00 10.26 C 93.8000 % 9.31 C
2025 10-05-2004 09:00:00 10.88 C 91.4000 % 9.54 C
Sensor: Nr:Datum:Temp:Feuchte:Taupunkt:
Aussen-T/F 2026 10-05-2004 10:00:00 11.68 C 88.6000 % 9.86 C
2027 10-05-2004 11:00:00 12.66 C 84.4000 % 10.1 C
2028 10-05-2004 12:00:00 15.16 C 69.0000 % 9.52 C
2029 10-05-2004 13:00:00 16.62 C 59.2000 % 8.63 C
2030 10-05-2004 14:00:00 16.58 C 59.0000 % 8.54 C
2031 10-05-2004 15:00:00 17.32 C 58.8000 % 9.19 C
2032 10-05-2004 16:00:00 18 C 57.0000 % 9.36 C
2033 10-05-2004 17:00:00 17.24 C 56.8000 % 8.6 C
2034 10-05-2004 18:00:00 16.9 C 59.6000 % 8.99 C
2035 10-05-2004 19:00:00 16.64 C 64.0000 % 9.81 C
2036 10-05-2004 20:00:00 14.78 C 70.2000 % 9.41 C
2037 10-05-2004 21:00:00 13.58 C 74.8000 % 9.2 C
2038 10-05-2004 22:00:00 12.04 C 78.4000 % 8.4 C
2039 10-05-2004 23:00:00 11.04 C 83.6000 % 8.37 C
2040 11-05-2004 00:00:00 10.64 C 85.6000 % 8.33 C
2041 11-05-2004 01:00:00 9.86 C 88.0000 % 7.97 C
2042 11-05-2004 02:00:00 9.45 C 89.5000 % 7.81 C
2043 11-05-2004 03:00:00 9.54 C 89.2000 % 7.85 C
2044 11-05-2004 04:00:00 9.86 C 87.8000 % 7.94 C
2045 11-05-2004 05:00:00 9.24 C 88.2000 % 7.39 C
2046 11-05-2004 06:00:00 9.66 C 88.8000 % 7.9 C
2047 11-05-2004 07:00:00 10.12 C 85.4000 % 7.78 C
2048 11-05-2004 08:00:00 10.58 C 84.2000 % 8.03 C
2049 11-05-2004 09:00:00 12.38 C 79.6000 % 8.96 C
2050 11-05-2004 10:00:00 14.82 C 71.0000 % 9.62 C
Sensor: Nr:Datum:Temp:Feuchte:Taupunkt:
Aussen-T/F 2051 11-05-2004 11:00:00 17.88 C 59.2000 % 9.81 C
2052 11-05-2004 12:00:00 19.06 C 56.0000 % 10.09 C
2053 11-05-2004 13:00:00 20.56 C 47.4000 % 8.99 C
2054 11-05-2004 14:00:00 18.26 C 57.0000 % 9.6 C
2055 11-05-2004 15:00:00 18.48 C 50.4000 % 7.99 C
2056 11-05-2004 16:00:00 20.1 C 49.6000 % 9.24 C
2057 11-05-2004 17:00:00 19.7 C 49.0000 % 8.7 C
2058 11-05-2004 18:00:00 19.4 C 48.6000 % 8.3 C
2059 11-05-2004 19:00:00 17.66 C 53.2000 % 8.03 C
2060 11-05-2004 20:00:00 15.92 C 61.0000 % 8.42 C
2061 11-05-2004 21:00:00 14.8 C 68.6000 % 9.09 C
2062 11-05-2004 22:00:00 14.08 C 69.4000 % 8.57 C
2063 11-05-2004 23:00:00 13.48 C 70.0000 % 8.12 C
2064 12-05-2004 00:00:00 12.44 C 69.4000 % 7 C
2065 12-05-2004 01:00:00 11.42 C 73.2000 % 6.8 C
2066 12-05-2004 02:00:00 11.1 C 74.8000 % 6.8 C
2067 12-05-2004 03:00:00 10.74 C 76.4000 % 6.76 C
2068 12-05-2004 04:00:00 10.38 C 77.4000 % 6.6 C
2069 12-05-2004 05:00:00 10.14 C 76.8000 % 6.26 C
2070 12-05-2004 06:00:00 9.72 C 76.0000 % 5.7 C
2071 12-05-2004 07:00:00 9.74 C 74.6000 % 5.45 C
2072 12-05-2004 08:00:00 9.8 C 69.6000 % 4.52 C
2073 12-05-2004 09:00:00 10.7 C 56.8000 % 2.49 C
2074 12-05-2004 10:00:00 10.82 C 58.2000 % 2.95 C
2075 12-05-2004 11:00:00 10.76 C 62.4000 % 3.88 C
Sensor: Nr:Datum:Temp:Feuchte:Taupunkt:
Aussen-T/F 2076 12-05-2004 12:00:00 11.1 C 59.6000 % 3.54 C
2077 12-05-2004 13:00:00 12.36 C 52.0000 % 2.79 C
2078 12-05-2004 14:00:00 12.96 C 48.2000 % 2.28 C
2079 12-05-2004 15:00:00 14.42 C 43.8000 % 2.27 C
2080 12-05-2004 16:00:00 15.7 C 41.8000 % 2.77 C
2081 12-05-2004 17:00:00 15.78 C 40.0000 % 2.23 C
2082 12-05-2004 18:00:00 16.82 C 40.4000 % 3.3 C
2083 12-05-2004 19:00:00 15.48 C 45.6000 % 3.8 C
2084 12-05-2004 20:00:00 13.74 C 54.8000 % 4.82 C
2085 12-05-2004 21:00:00 12.66 C 59.6000 % 5.01 C
2086 12-05-2004 22:00:00 12.38 C 61.2000 % 5.13 C
2087 12-05-2004 23:00:00 12.26 C 61.8000 % 5.15 C
2088 13-05-2004 00:00:00 11.92 C 64.0000 % 5.33 C
2089 13-05-2004 01:00:00 11.5 C 67.0000 % 5.59 C
2090 13-05-2004 02:00:00 10.62 C 70.0000 % 5.38 C
2091 13-05-2004 03:00:00 10.34 C 68.8000 % 4.87 C
2092 13-05-2004 04:00:00 9.96 C 69.4000 % 4.63 C
2093 13-05-2004 05:00:00 9.66 C 68.2000 % 4.09 C
2094 13-05-2004 06:00:00 9.46 C 66.4000 % 3.52 C
2095 13-05-2004 07:00:00 9.62 C 64.4000 % 3.24 C
2096 13-05-2004 08:00:00 10.6 C 59.6000 % 3.07 C
2097 13-05-2004 09:00:00 11.14 C 53.8000 % 2.14 C
2098 13-05-2004 10:00:00 11.24 C 53.6000 % 2.18 C
2099 13-05-2004 11:00:00 10.86 C 59.2000 % 3.22 C
2100 13-05-2004 12:00:00 11.74 C 60.4000 % 4.34 C
Sensor: Nr:Datum:Temp:Feuchte:Taupunkt:
Aussen-T/F 2101 13-05-2004 13:00:00 13.94 C 52.8000 % 4.47 C
2102 13-05-2004 14:00:00 14.32 C 51.8000 % 4.55 C
2103 13-05-2004 15:00:00 13 C 59.6000 % 5.33 C
2104 13-05-2004 16:00:00 13.74 C 59.0000 % 5.88 C
2105 13-05-2004 17:00:00 13.86 C 61.0000 % 6.47 C
2106 13-05-2004 18:00:00 15.98 C 53.2000 % 6.47 C
2107 13-05-2004 19:00:00 13.96 C 61.8000 % 6.76 C
2108 13-05-2004 20:00:00 12.82 C 70.2000 % 7.53 C
2109 13-05-2004 21:00:00 12.28 C 73.6000 % 7.71 C
2110 13-05-2004 22:00:00 11.86 C 77.2000 % 8 C
2111 13-05-2004 23:00:00 11.72 C 78.0000 % 8.02 C
2112 14-05-2004 00:00:00 11.72 C 79.4000 % 8.28 C
2113 14-05-2004 01:00:00 11.54 C 79.8000 % 8.18 C
2114 14-05-2004 02:00:00 11.16 C 82.2000 % 8.24 C
2115 14-05-2004 03:00:00 11.28 C 81.2000 % 8.18 C
2116 14-05-2004 04:00:00 11.1 C 82.2000 % 8.18 C
2117 14-05-2004 05:00:00 10.92 C 83.6000 % 8.26 C
2118 14-05-2004 06:00:00 10.98 C 83.2000 % 8.24 C
2119 14-05-2004 07:00:00 11.44 C 80.2000 % 8.15 C
2120 14-05-2004 08:00:00 12.3 C 75.8000 % 8.16 C
2121 14-05-2004 09:00:00 13.14 C 69.8000 % 7.76 C
2122 14-05-2004 10:00:00 14.28 C 64.8000 % 7.75 C
2123 14-05-2004 11:00:00 16.82 C 50.8000 % 6.58 C
2124 14-05-2004 12:00:00 18.76 C 42.4000 % 5.73 C
2125 14-05-2004 13:00:00 19.4 C 37.4000 % 4.5 C
Sensor: Nr:Datum:Temp:Feuchte:Taupunkt:
Aussen-T/F 2126 14-05-2004 14:00:00 20.74 C 33.6000 % 4.16 C
2127 14-05-2004 15:00:00 21.24 C 32.4000 % 4.08 C
2128 14-05-2004 16:00:00 21.54 C 32.6000 % 4.43 C
2129 14-05-2004 17:00:00 21.74 C 31.2000 % 3.98 C
2130 14-05-2004 18:00:00 21.78 C 31.2000 % 4.01 C
2131 14-05-2004 19:00:00 19.82 C 37.2000 % 4.8 C
2132 14-05-2004 20:00:00 17 C 43.6000 % 4.54 C
2133 14-05-2004 21:00:00 15.24 C 51.4000 % 5.29 C
2134 14-05-2004 22:00:00 13.42 C 58.4000 % 5.43 C
2135 14-05-2004 23:00:00 11.94 C 64.4000 % 5.44 C
2136 15-05-2004 00:00:00 10.86 C 68.8000 % 5.36 C
2137 15-05-2004 01:00:00 9.7 C 73.6000 % 5.22 C
2138 15-05-2004 02:00:00 8.78 C 77.6000 % 5.09 C
2139 15-05-2004 03:00:00 7.74 C 82.6000 % 4.97 C
2140 15-05-2004 04:00:00 7.14 C 85.0000 % 4.79 C
2141 15-05-2004 05:00:00 6.8 C 85.8000 % 4.59 C
2142 15-05-2004 06:00:00 6.3 C 86.0000 % 4.14 C
2143 15-05-2004 07:00:00 5.94 C 89.6000 % 4.36 C
2144 15-05-2004 08:00:00 6.98 C 89.2000 % 5.33 C
2145 15-05-2004 09:00:00 9.68 C 76.8000 % 5.81 C
2146 15-05-2004 10:00:00 13.72 C 63.8000 % 6.99 C
2147 15-05-2004 11:00:00 16.02 C 51.0000 % 5.9 C
2148 15-05-2004 12:00:00 17.78 C 44.2000 % 5.44 C
2149 15-05-2004 13:00:00 18.86 C 43.8000 % 6.29 C
2150 15-05-2004 14:00:00 20.28 C 42.4000 % 7.1 C
Sensor: Nr:Datum:Temp:Feuchte:Taupunkt:
Aussen-T/F 2151 15-05-2004 15:00:00 21.66 C 39.2000 % 7.19 C
2152 15-05-2004 16:00:00 22.38 C 37.8000 % 7.3 C
2153 15-05-2004 17:00:00 21.58 C 40.0000 % 7.41 C
2154 15-05-2004 18:00:00 22.6 C 37.8000 % 7.5 C
2155 15-05-2004 19:00:00 20.76 C 44.8000 % 8.34 C
2156 15-05-2004 20:00:00 18.58 C 54.4000 % 9.21 C
2157 15-05-2004 21:00:00 17.02 C 61.2000 % 9.5 C
2158 15-05-2004 22:00:00 16.36 C 64.0000 % 9.54 C
2159 15-05-2004 23:00:00 16.72 C 62.4000 % 9.51 C
2160 16-05-2004 00:00:00 15.68 C 64.8000 % 9.08 C
2161 16-05-2004 01:00:00 15.36 C 62.8000 % 8.32 C
2162 16-05-2004 02:00:00 13.9 C 68.6000 % 8.23 C
2163 16-05-2004 03:00:00 13.08 C 73.2000 % 8.4 C
2164 16-05-2004 04:00:00 12.7 C 75.8000 % 8.54 C
2165 16-05-2004 05:00:00 12.1 C 78.4000 % 8.46 C
2166 16-05-2004 06:00:00 12 C 80.6000 % 8.77 C
2167 16-05-2004 07:00:00 12.4 C 78.6000 % 8.79 C
2168 16-05-2004 08:00:00 13.46 C 70.2000 % 8.15 C
2169 16-05-2004 09:00:00 14.64 C 64.0000 % 7.91 C
2170 16-05-2004 10:00:00 15.4 C 59.8000 % 7.63 C
2171 16-05-2004 11:00:00 16.8 C 53.0000 % 7.18 C
2172 16-05-2004 12:00:00 17.5 C 50.4000 % 7.09 C
2173 16-05-2004 13:00:00 18.82 C 45.0000 % 6.65 C
2174 16-05-2004 14:00:00 19.8 C 42.2000 % 6.6 C
2175 16-05-2004 15:00:00 21.3 C 37.4000 % 6.19 C
Sensor: Nr:Datum:Temp:Feuchte:Taupunkt:
Aussen-T/F 2176 16-05-2004 16:00:00 22.32 C 34.8000 % 6.05 C
2177 16-05-2004 17:00:00 22.8 C 34.6000 % 6.39 C
2178 16-05-2004 18:00:00 22.42 C 37.0000 % 7.02 C
2179 16-05-2004 19:00:00 21.66 C 40.4000 % 7.63 C
2180 16-05-2004 20:00:00 20.34 C 45.4000 % 8.15 C
2181 16-05-2004 21:00:00 17.58 C 55.6000 % 8.6 C
2182 16-05-2004 22:00:00 15.92 C 61.6000 % 8.56 C
2183 16-05-2004 23:00:00 14.78 C 66.2000 % 8.54 C
2184 17-05-2004 00:00:00 13.44 C 72.6000 % 8.62 C
2185 17-05-2004 01:00:00 12.26 C 77.8000 % 8.5 C
2186 17-05-2004 02:00:00 11.44 C 80.0000 % 8.12 C
2187 17-05-2004 03:00:00 10.74 C 82.0000 % 7.8 C
2188 17-05-2004 04:00:00 10.3 C 82.0000 % 7.37 C
2189 17-05-2004 05:00:00 9.48 C 84.0000 % 6.92 C
2190 17-05-2004 06:00:00 8.88 C 87.6000 % 6.94 C
2191 17-05-2004 07:00:00 8.92 C 88.6000 % 7.14 C
2192 17-05-2004 08:00:00 9.58 C 88.8000 % 7.83 C
2193 17-05-2004 09:00:00 12.68 C 80.0000 % 9.32 C
2194 17-05-2004 10:00:00 16.62 C 61.6000 % 9.22 C
2195 17-05-2004 11:00:00 19.54 C 44.0000 % 6.97 C
2196 17-05-2004 12:00:00 21.64 C 37.4000 % 6.49 C
2197 17-05-2004 13:00:00 24.44 C 31.0000 % 6.22 C
2198 17-05-2004 14:00:00 24.38 C 31.8000 % 6.54 C
2199 17-05-2004 15:00:00 25.24 C 30.2000 % 6.54 C
2200 17-05-2004 16:00:00 27.44 C 26.4000 % 6.47 C
Sensor: Nr:Datum:Temp:Feuchte:Taupunkt:
Aussen-T/F 2201 17-05-2004 17:00:00 28.06 C 25.8000 % 6.66 C
2202 17-05-2004 18:00:00 27.68 C 26.0000 % 6.45 C
2203 17-05-2004 19:00:00 27.36 C 28.6000 % 7.56 C
2204 17-05-2004 20:00:00 24.34 C 39.4000 % 9.65 C
2205 17-05-2004 21:00:00 19.74 C 50.2000 % 9.09 C
2206 17-05-2004 22:00:00 18.34 C 54.4000 % 8.99 C
2207 17-05-2004 23:00:00 16.76 C 60.8000 % 9.16 C
2208 18-05-2004 00:00:00 15.22 C 67.8000 % 9.31 C
2209 18-05-2004 01:00:00 14.2 C 72.6000 % 9.35 C
2210 18-05-2004 02:00:00 13.24 C 76.2000 % 9.14 C
2211 18-05-2004 03:00:00 12.68 C 78.0000 % 8.95 C
2212 18-05-2004 04:00:00 12.18 C 79.4000 % 8.73 C
2213 18-05-2004 05:00:00 11.66 C 80.8000 % 8.48 C
2214 18-05-2004 06:00:00 11.2 C 82.4000 % 8.32 C
2215 18-05-2004 07:00:00 11.54 C 81.8000 % 8.54 C
2216 18-05-2004 08:00:00 12.74 C 77.8000 % 8.97 C
2217 18-05-2004 09:00:00 15.02 C 70.0000 % 9.6 C
2218 18-05-2004 10:00:00 18.52 C 58.2000 % 10.16 C
2219 18-05-2004 11:00:00 21.42 C 48.4000 % 10.09 C
2220 18-05-2004 12:00:00 23.32 C 36.4000 % 7.58 C
2221 18-05-2004 13:00:00 24.96 C 29.4000 % 5.91 C
2222 18-05-2004 14:00:00 24.64 C 30.6000 % 6.21 C
2223 18-05-2004 15:00:00 25.82 C 28.8000 % 6.35 C
2224 18-05-2004 16:00:00 25.86 C 29.0000 % 6.48 C
2225 18-05-2004 17:00:00 26.2 C 30.2000 % 7.36 C
Sensor: Nr:Datum:Temp:Feuchte:Taupunkt:
Aussen-T/F 2226 18-05-2004 18:00:00 25.82 C 30.0000 % 6.94 C
2227 18-05-2004 19:00:00 25.04 C 30.8000 % 6.65 C
2228 18-05-2004 20:00:00 22.98 C 38.0000 % 7.91 C
2229 18-05-2004 21:00:00 20.46 C 47.0000 % 8.77 C
2230 18-05-2004 22:00:00 18.62 C 55.0000 % 9.41 C
2231 18-05-2004 23:00:00 16.88 C 62.6000 % 9.7 C
2232 19-05-2004 00:00:00 15.42 C 69.2000 % 9.81 C
2233 19-05-2004 01:00:00 14.22 C 74.0000 % 9.66 C
2234 19-05-2004 02:00:00 13.28 C 77.6000 % 9.45 C
2235 19-05-2004 03:00:00 12.16 C 81.6000 % 9.11 C
2236 19-05-2004 04:00:00 11.5 C 83.8000 % 8.86 C
2237 19-05-2004 05:00:00 11 C 85.2000 % 8.61 C
2238 19-05-2004 06:00:00 10.92 C 85.4000 % 8.57 C
2239 19-05-2004 07:00:00 11.5 C 83.6000 % 8.82 C
2240 19-05-2004 08:00:00 12.6 C 80.8000 % 9.39 C
2241 19-05-2004 09:00:00 15.4 C 70.0000 % 9.96 C
2242 19-05-2004 10:00:00 18.46 C 58.2000 % 10.1 C
2243 19-05-2004 11:00:00 20.8 C 45.4000 % 8.57 C
2244 19-05-2004 12:00:00 23.12 C 34.6000 % 6.67 C
2245 19-05-2004 13:00:00 25.6 C 27.6000 % 5.54 C
2246 19-05-2004 14:00:00 26.74 C 29.4000 % 7.44 C
2247 19-05-2004 15:00:00 28.74 C 27.2000 % 8.01 C
2248 19-05-2004 16:00:00 30 C 25.2000 % 7.95 C
2249 19-05-2004 17:00:00 28.74 C 26.8000 % 7.79 C
2250 19-05-2004 18:00:00 28.36 C 27.2000 % 7.68 C
Sensor: Nr:Datum:Temp:Feuchte:Taupunkt:
Aussen-T/F 2251 19-05-2004 19:00:00 26.74 C 30.8000 % 8.12 C
2252 19-05-2004 20:00:00 24.6 C 36.0000 % 8.55 C
2253 19-05-2004 21:00:00 21.82 C 44.6000 % 9.23 C
2254 19-05-2004 22:00:00 19.94 C 52.2000 % 9.85 C
2255 19-05-2004 23:00:00 17.78 C 60.8000 % 10.12 C
2256 20-05-2004 00:00:00 16.8 C 64.8000 % 10.14 C
2257 20-05-2004 01:00:00 15.08 C 71.8000 % 10.03 C
2258 20-05-2004 02:00:00 14.08 C 75.6000 % 9.84 C
2259 20-05-2004 03:00:00 13.18 C 77.4000 % 9.32 C
2260 20-05-2004 04:00:00 12.78 C 77.2000 % 8.89 C
2261 20-05-2004 05:00:00 12.02 C 79.0000 % 8.5 C
2262 20-05-2004 06:00:00 11.6 C 81.6000 % 8.56 C
2263 20-05-2004 07:00:00 12.06 C 80.4000 % 8.79 C
2264 20-05-2004 08:00:00 13.44 C 74.4000 % 8.98 C
2265 20-05-2004 09:00:00 16.64 C 59.0000 % 8.6 C
2266 20-05-2004 10:00:00 19.82 C 47.4000 % 8.32 C
2267 20-05-2004 11:00:00 21.86 C 41.8000 % 8.31 C
2268 20-05-2004 12:00:00 23.84 C 35.0000 % 7.47 C
2269 20-05-2004 13:00:00 25.6 C 28.2000 % 5.85 C
2270 20-05-2004 14:00:00 25.88 C 26.4000 % 5.14 C
2271 20-05-2004 15:00:00 26.84 C 26.2000 % 5.85 C
2272 20-05-2004 16:00:00 27.74 C 24.4000 % 5.58 C
2273 20-05-2004 17:00:00 27.54 C 22.6000 % 4.32 C
2274 20-05-2004 18:00:00 26.86 C 25.2000 % 5.31 C
2275 20-05-2004 19:00:00 25.52 C 27.0000 % 5.16 C
Sensor: Nr:Datum:Temp:Feuchte:Taupunkt:
Aussen-T/F 2276 20-05-2004 20:00:00 23.4 C 34.8000 % 7 C
2277 20-05-2004 21:00:00 19.84 C 45.8000 % 7.83 C
2278 20-05-2004 22:00:00 18.68 C 49.4000 % 7.88 C
2279 20-05-2004 23:00:00 17.62 C 53.4000 % 8.05 C
2280 21-05-2004 00:00:00 16.74 C 55.8000 % 7.87 C
2281 21-05-2004 01:00:00 16.16 C 64.0000 % 9.35 C
2282 21-05-2004 02:00:00 14.62 C 77.4000 % 10.71 C
2283 21-05-2004 03:00:00 14.12 C 76.6000 % 10.07 C
2284 21-05-2004 04:00:00 13.64 C 76.8000 % 9.65 C
2285 21-05-2004 05:00:00 13.32 C 78.6000 % 9.68 C
2286 21-05-2004 06:00:00 12.26 C 89.4000 % 10.57 C
2287 21-05-2004 07:00:00 13.04 C 86.8000 % 10.89 C
2288 21-05-2004 08:00:00 12.96 C 83.4000 % 10.22 C
2289 21-05-2004 09:00:00 11.64 C 86.6000 % 9.48 C
2290 21-05-2004 10:00:00 11.54 C 81.0000 % 8.4 C
2291 21-05-2004 11:00:00 12.96 C 71.0000 % 7.83 C
2292 21-05-2004 12:00:00 13.32 C 65.8000 % 7.06 C
2293 21-05-2004 13:00:00 12.74 C 65.2000 % 6.38 C
2294 21-05-2004 14:00:00 13.34 C 61.0000 % 5.99 C
2295 21-05-2004 15:00:00 13.7 C 57.8000 % 5.55 C
2296 21-05-2004 16:00:00 14.14 C 58.8000 % 6.21 C
2297 21-05-2004 17:00:00 14.26 C 57.4000 % 5.97 C
2298 21-05-2004 18:00:00 14.06 C 55.2000 % 5.22 C
2299 21-05-2004 19:00:00 13.3 C 56.8000 % 4.92 C
2300 21-05-2004 20:00:00 12.66 C 59.4000 % 4.96 C
Sensor: Nr:Datum:Temp:Feuchte:Taupunkt:
Aussen-T/F 2301 21-05-2004 21:00:00 12 C 63.4000 % 5.28 C
2302 21-05-2004 22:00:00 11.06 C 69.2000 % 5.64 C
2303 21-05-2004 23:00:00 9.18 C 74.6000 % 4.91 C
2304 22-05-2004 00:00:00 8.7 C 73.2000 % 4.18 C
2305 22-05-2004 01:00:00 8.44 C 69.2000 % 3.13 C
2306 22-05-2004 02:00:00 7.98 C 66.2000 % 2.07 C
2307 22-05-2004 03:00:00 6.86 C 68.4000 % 1.46 C
2308 22-05-2004 04:00:00 6.08 C 72.4000 % 1.5 C
2309 22-05-2004 05:00:00 5.04 C 78.4000 % 1.6 C
2310 22-05-2004 06:00:00 4.86 C 80.6000 % 1.81 C
2311 22-05-2004 07:00:00 5.74 C 76.4000 % 1.92 C
2312 22-05-2004 08:00:00 7.16 C 67.2000 % 1.5 C
2313 22-05-2004 09:00:00 9.22 C 55.4000 % 0.76 C
2314 22-05-2004 10:00:00 9.96 C 49.4000 % -0.13 C
2315 22-05-2004 11:00:00 10.8 C 47.2000 % 0.01 C
2316 22-05-2004 12:00:00 12.42 C 38.8000 % -1.2 C
2317 22-05-2004 13:00:00 13.62 C 34.0000 % -1.93 C
2318 22-05-2004 14:00:00 13.3 C 34.4000 % -2.05 C
2319 22-05-2004 15:00:00 14.96 C 29.2000 % -2.81 C
2320 22-05-2004 16:00:00 15.78 C 27.8000 % -2.76 C
2321 22-05-2004 17:00:00 17.34 C 25.4000 % -2.64 C
2322 22-05-2004 18:00:00 17.82 C 23.8000 % -3.11 C
2323 22-05-2004 19:00:00 15.28 C 29.4000 % -2.44 C
2324 22-05-2004 20:00:00 13.3 C 37.4000 % -0.92 C
2325 22-05-2004 21:00:00 11.68 C 43.8000 % -0.21 C
Sensor: Nr:Datum:Temp:Feuchte:Taupunkt:
Aussen-T/F 2326 22-05-2004 22:00:00 10.74 C 52.0000 % 1.3 C
2327 22-05-2004 23:00:00 10.46 C 57.2000 % 2.37 C
2328 23-05-2004 00:00:00 9.6 C 59.5000 % 2.11 C
2329 23-05-2004 01:00:00 8.84 C 57.6000 % 0.95 C
2330 23-05-2004 02:00:00 8.18 C 61.2000 % 1.17 C
2331 23-05-2004 03:00:00 7.48 C 61.4000 % 0.55 C
2332 23-05-2004 04:00:00 7.52 C 64.4000 % 1.25 C
2333 23-05-2004 05:00:00 7.1 C 69.8000 % 1.97 C
2334 23-05-2004 06:00:00 6.54 C 83.2000 % 3.9 C
2335 23-05-2004 07:00:00 6.68 C 89.0000 % 5 C
2336 23-05-2004 08:00:00 7.66 C 81.6000 % 4.72 C
2337 23-05-2004 09:00:00 9.18 C 64.6000 % 2.87 C
2338 23-05-2004 10:00:00 10 C 52.8000 % 0.82 C
2339 23-05-2004 11:00:00 11.56 C 43.6000 % -0.38 C
2340 23-05-2004 12:00:00 14.02 C 32.4000 % -2.23 C
2341 23-05-2004 13:00:00 14.18 C 31.4000 % -2.51 C
2342 23-05-2004 14:00:00 14.74 C 30.0000 % -2.64 C
2343 23-05-2004 15:00:00 16.9 C 25.4000 % -3.02 C
2344 23-05-2004 16:00:00 16.9 C 24.0000 % -3.77 C
2345 23-05-2004 17:00:00 17.28 C 24.2000 % -3.34 C
2346 23-05-2004 18:00:00 17.38 C 23.2000 % -3.82 C
2347 23-05-2004 19:00:00 17.16 C 24.2000 % -3.44 C
2348 23-05-2004 20:00:00 16.04 C 26.6000 % -3.13 C
2349 23-05-2004 21:00:00 12.64 C 39.2000 % -0.86 C
2350 23-05-2004 22:00:00 10.26 C 48.6000 % -0.08 C
Sensor: Nr:Datum:Temp:Feuchte:Taupunkt:
Aussen-T/F 2351 23-05-2004 23:00:00 8.92 C 54.8000 % 0.33 C
2352 24-05-2004 00:00:00 7.54 C 62.2000 % 0.79 C
2353 24-05-2004 01:00:00 6.22 C 68.8000 % 0.93 C
2354 24-05-2004 02:00:00 5.24 C 73.4000 % 0.88 C
2355 24-05-2004 03:00:00 4.28 C 78.0000 % 0.79 C
2356 24-05-2004 04:00:00 3.62 C 82.4000 % 0.91 C
2357 24-05-2004 05:00:00 2.92 C 85.0000 % 0.65 C
2358 24-05-2004 06:00:00 2.9 C 86.2000 % 0.83 C
2359 24-05-2004 07:00:00 3.56 C 83.2000 % 0.98 C
2360 24-05-2004 08:00:00 5.52 C 76.0000 % 1.63 C
2361 24-05-2004 09:00:00 8.38 C 65.8000 % 2.37 C
2362 24-05-2004 10:00:00 11.34 C 51.0000 % 1.58 C
2363 24-05-2004 11:00:00 13.7 C 41.4000 % 0.84 C
2364 24-05-2004 12:00:00 16.42 C 33.8000 % 0.45 C
2365 24-05-2004 13:00:00 18.66 C 28.6000 % 0.1 C
2366 24-05-2004 14:00:00 18.38 C 30.6000 % 0.79 C
2367 24-05-2004 15:00:00 18.78 C 30.4000 % 1.05 C
2368 24-05-2004 16:00:00 19.48 C 29.2000 % 1.09 C
2369 24-05-2004 17:00:00 20.14 C 26.8000 % 0.47 C
2370 24-05-2004 18:00:00 18.96 C 30.8000 % 1.38 C
2371 24-05-2004 19:00:00 19.68 C 30.2000 % 1.73 C
2372 24-05-2004 20:00:00 18.08 C 35.6000 % 2.64 C
2373 24-05-2004 21:00:00 14.44 C 47.2000 % 3.34 C
2374 24-05-2004 22:00:00 12.9 C 53.0000 % 3.56 C
2375 24-05-2004 23:00:00 11.58 C 59.8000 % 4.04 C
Sensor: Nr:Datum:Temp:Feuchte:Taupunkt:
Aussen-T/F 2376 25-05-2004 00:00:00 10.5 C 64.0000 % 3.99 C
2377 25-05-2004 01:00:00 10.64 C 63.4000 % 3.99 C
2378 25-05-2004 02:00:00 10.2 C 66.6000 % 4.27 C
2379 25-05-2004 03:00:00 9.38 C 71.2000 % 4.44 C
2380 25-05-2004 04:00:00 8.2 C 77.4000 % 4.49 C
2381 25-05-2004 05:00:00 7.3 C 81.8000 % 4.4 C
2382 25-05-2004 06:00:00 7.04 C 83.4000 % 4.42 C
2383 25-05-2004 07:00:00 7.86 C 79.4000 % 4.52 C
2384 25-05-2004 08:00:00 9.64 C 71.8000 % 4.81 C
2385 25-05-2004 09:00:00 11.9 C 62.6000 % 5 C
2386 25-05-2004 10:00:00 13.04 C 56.4000 % 4.58 C
2387 25-05-2004 11:00:00 15.38 C 47.8000 % 4.38 C
2388 25-05-2004 12:00:00 17.72 C 39.0000 % 3.6 C
2389 25-05-2004 13:00:00 20.62 C 29.4000 % 2.17 C
2390 25-05-2004 14:00:00 21.14 C 27.8000 % 1.83 C
2391 25-05-2004 15:00:00 22.72 C 24.0000 % 1.13 C
2392 25-05-2004 16:00:00 23.32 C 25.8000 % 2.65 C
2393 25-05-2004 17:00:00 22.28 C 28.0000 % 2.91 C
2394 25-05-2004 18:00:00 21.18 C 31.8000 % 3.76 C
2395 25-05-2004 19:00:00 20.18 C 34.2000 % 3.92 C
2396 25-05-2004 20:00:00 18.48 C 39.0000 % 4.28 C
2397 25-05-2004 21:00:00 16.12 C 47.2000 % 4.88 C
2398 25-05-2004 22:00:00 14.66 C 51.2000 % 4.7 C
2399 25-05-2004 23:00:00 13.92 C 56.2000 % 5.35 C
2400 26-05-2004 00:00:00 13.06 C 60.2000 % 5.53 C
Sensor: Nr:Datum:Temp:Feuchte:Taupunkt:
Aussen-T/F 2401 26-05-2004 01:00:00 12.66 C 63.8000 % 5.99 C
2402 26-05-2004 02:00:00 12.32 C 66.0000 % 6.16 C
2403 26-05-2004 03:00:00 11.72 C 69.2000 % 6.27 C
2404 26-05-2004 04:00:00 11.14 C 71.8000 % 6.25 C
2405 26-05-2004 05:00:00 11 C 73.2000 % 6.39 C
2406 26-05-2004 06:00:00 11.18 C 72.2000 % 6.37 C
2407 26-05-2004 07:00:00 11.54 C 69.0000 % 6.06 C
2408 26-05-2004 08:00:00 11.78 C 64.0000 % 5.2 C
2409 26-05-2004 09:00:00 12.84 C 54.8000 % 3.98 C
2410 26-05-2004 10:00:00 14.18 C 48.8000 % 3.58 C
2411 26-05-2004 11:00:00 15.64 C 42.6000 % 2.98 C
2412 26-05-2004 12:00:00 17.66 C 32.6000 % 1.04 C
2413 26-05-2004 13:00:00 19.3 C 27.8000 % 0.26 C
2414 26-05-2004 14:00:00 18.82 C 28.4000 % 0.14 C
2415 26-05-2004 15:00:00 19.48 C 27.8000 % 0.41 C
2416 26-05-2004 16:00:00 19.94 C 28.8000 % 1.3 C
2417 26-05-2004 17:00:00 20.34 C 26.2000 % 0.33 C
2418 26-05-2004 18:00:00 20.3 C 26.4000 % 0.4 C
2419 26-05-2004 19:00:00 19.14 C 27.4000 % -0.08 C
2420 26-05-2004 20:00:00 17.46 C 30.4000 % -0.1 C
2421 26-05-2004 21:00:00 14.78 C 38.8000 % 0.91 C
2422 26-05-2004 22:00:00 12.12 C 46.6000 % 1.04 C
2423 26-05-2004 23:00:00 10.94 C 52.8000 % 1.69 C
2424 27-05-2004 00:00:00 9.7 C 57.4000 % 1.7 C
2425 27-05-2004 01:00:00 8.48 C 62.2000 % 1.67 C
Sensor: Nr:Datum:Temp:Feuchte:Taupunkt:
Aussen-T/F 2426 27-05-2004 02:00:00 7.22 C 68.4000 % 1.8 C
2427 27-05-2004 03:00:00 6.58 C 71.4000 % 1.79 C
2428 27-05-2004 04:00:00 5.56 C 76.4000 % 1.75 C
2429 27-05-2004 05:00:00 4.84 C 80.8000 % 1.83 C
2430 27-05-2004 06:00:00 4.92 C 81.8000 % 2.08 C
2431 27-05-2004 07:00:00 5.76 C 79.2000 % 2.44 C
2432 27-05-2004 08:00:00 7.88 C 69.8000 % 2.72 C
2433 27-05-2004 09:00:00 11.42 C 58.0000 % 3.46 C
2434 27-05-2004 10:00:00 14.64 C 45.8000 % 3.1 C
2435 27-05-2004 11:00:00 16.8 C 35.6000 % 1.51 C
2436 27-05-2004 12:00:00 17.26 C 32.2000 % 0.52 C
2437 27-05-2004 13:00:00 19.58 C 26.2000 % -0.32 C
2438 27-05-2004 14:00:00 18.98 C 28.0000 % 0.08 C
2439 27-05-2004 15:00:00 19.52 C 27.4000 % 0.25 C
2440 27-05-2004 16:00:00 20.58 C 26.4000 % 0.64 C
2441 27-05-2004 17:00:00 21.16 C 24.2000 % -0.07 C
2442 27-05-2004 18:00:00 19.08 C 25.6000 % -1.06 C
2443 27-05-2004 19:00:00 16.94 C 32.4000 % 0.33 C
2444 27-05-2004 20:00:00 16.24 C 34.8000 % 0.7 C
2445 27-05-2004 21:00:00 13.28 C 45.6000 % 1.8 C
2446 27-05-2004 22:00:00 10.94 C 52.8000 % 1.69 C
2447 27-05-2004 23:00:00 10.1 C 57.4000 % 2.08 C
2448 28-05-2004 00:00:00 9.16 C 63.6000 % 2.63 C
2449 28-05-2004 01:00:00 8.18 C 69.2000 % 2.88 C
2450 28-05-2004 02:00:00 7.48 C 72.2000 % 2.81 C
Sensor: Nr:Datum:Temp:Feuchte:Taupunkt:
Aussen-T/F 2451 28-05-2004 03:00:00 6.18 C 79.2000 % 2.85 C
2452 28-05-2004 04:00:00 5.74 C 81.6000 % 2.84 C
2453 28-05-2004 05:00:00 5.04 C 85.0000 % 2.73 C
2454 28-05-2004 06:00:00 5.1 C 85.8000 % 2.92 C
2455 28-05-2004 07:00:00 5.88 C 84.4000 % 3.46 C
2456 28-05-2004 08:00:00 7.38 C 79.4000 % 4.06 C
2457 28-05-2004 09:00:00 10.64 C 67.8000 % 4.94 C
2458 28-05-2004 10:00:00 14.14 C 54.2000 % 5.03 C
2459 28-05-2004 11:00:00 16.34 C 43.8000 % 4.01 C
2460 28-05-2004 12:00:00 18.72 C 36.0000 % 3.36 C
2461 28-05-2004 13:00:00 19.7 C 30.4000 % 1.84 C
2462 28-05-2004 14:00:00 20.28 C 28.0000 % 1.2 C
2463 28-05-2004 15:00:00 21.9 C 24.0000 % 0.44 C
2464 28-05-2004 16:00:00 22.5 C 21.0000 % -0.89 C
2465 28-05-2004 17:00:00 21.82 C 26.0000 % 1.48 C
2466 28-05-2004 18:00:00 22.62 C 23.6000 % 0.81 C
2467 28-05-2004 19:00:00 22.06 C 27.4000 % 2.42 C
2468 28-05-2004 20:00:00 21.4 C 30.2000 % 3.22 C
2469 28-05-2004 21:00:00 16.3 C 41.6000 % 3.24 C
2470 28-05-2004 22:00:00 14.12 C 49.4000 % 3.69 C
2471 28-05-2004 23:00:00 12.68 C 55.2000 % 3.94 C
2472 29-05-2004 00:00:00 11.2 C 61.6000 % 4.11 C
2473 29-05-2004 01:00:00 9.92 C 66.8000 % 4.05 C
2474 29-05-2004 02:00:00 8.9 C 71.4000 % 4.02 C
2475 29-05-2004 03:00:00 7.9 C 76.4000 % 4.01 C
Sensor: Nr:Datum:Temp:Feuchte:Taupunkt:
Aussen-T/F 2476 29-05-2004 04:00:00 7.28 C 79.0000 % 3.89 C
2477 29-05-2004 05:00:00 6.62 C 81.6000 % 3.7 C
2478 29-05-2004 06:00:00 6.58 C 82.8000 % 3.87 C
2479 29-05-2004 07:00:00 7.08 C 82.4000 % 4.29 C
2480 29-05-2004 08:00:00 8.81667 C 77.3333 % 5.08 C
2481 29-05-2004 09:00:00 12.98 C 65.8000 % 6.74 C
2482 29-05-2004 10:00:00 17.36 C 46.0000 % 5.64 C
2483 29-05-2004 11:00:00 20.5 C 32.8000 % 3.61 C
2484 29-05-2004 12:00:00 22.32 C 23.6000 % 0.56 C
2485 29-05-2004 13:00:00 24.92 C 20.0000 % 0.44 C
2486 29-05-2004 14:00:00 24.9 C 20.2000 % 0.56 C
2487 29-05-2004 15:00:00 26.74 C 20.0000 % 1.93 C
2488 29-05-2004 16:00:00 27.88 C 20.0000 % 2.87 C
2489 29-05-2004 17:00:00 28.34 C 20.0000 % 3.24 C
2490 29-05-2004 18:00:00 27.88 C 20.0000 % 2.87 C
2491 29-05-2004 19:00:00 26.76 C 21.0000 % 2.63 C
2492 29-05-2004 20:00:00 23.78 C 28.6000 % 4.5 C
2493 29-05-2004 21:00:00 18.72 C 37.6000 % 3.98 C
2494 29-05-2004 22:00:00 17.26 C 42.4000 % 4.38 C
2495 29-05-2004 23:00:00 16.06 C 46.0000 % 4.45 C
2496 30-05-2004 00:00:00 15.06 C 48.4000 % 4.27 C
2497 30-05-2004 01:00:00 13.94 C 53.6000 % 4.69 C
2498 30-05-2004 02:00:00 12.775 C 64.2500 % 6.2 C
2499 30-05-2004 03:00:00 11.74 C 69.4000 % 6.33 C
2500 30-05-2004 04:00:00 10.76 C 71.8000 % 5.88 C
Sensor: Nr:Datum:Temp:Feuchte:Taupunkt:
Aussen-T/F 2501 30-05-2004 05:00:00 10.1 C 72.6000 % 5.41 C
2502 30-05-2004 06:00:00 10 C 73.6000 % 5.51 C
2503 30-05-2004 07:00:00 10.08 C 74.6000 % 5.78 C
2504 30-05-2004 08:00:00 11.02 C 72.2000 % 6.21 C
2505 30-05-2004 09:00:00 14.75455 C 63.0909 % 7.81 C
2506 30-05-2004 10:00:00 19.24 C 40.2000 % 5.39 C
2507 30-05-2004 11:00:00 22.54 C 24.0000 % 0.98 C
2508 30-05-2004 12:00:00 24.56 C 20.4000 % 0.41 C
2509 30-05-2004 13:00:00 25.56 C 20.0000 % 0.96 C
2510 30-05-2004 14:00:00 26.38 C 20.0000 % 1.64 C
2511 30-05-2004 15:00:00 26.5 C 20.0000 % 1.74 C
2512 30-05-2004 16:00:00 27.68 C 20.0000 % 2.7 C
2513 30-05-2004 17:00:00 28.18 C 20.2000 % 3.25 C
2514 30-05-2004 18:00:00 26.36 C 26.2000 % 5.44 C
2515 30-05-2004 19:00:00 23.7 C 28.0000 % 4.13 C
2516 30-05-2004 20:00:00 22.38 C 33.8000 % 5.68 C
2517 30-05-2004 21:00:00 20.2 C 40.6000 % 6.4 C
2518 30-05-2004 22:00:00 19.62 C 43.2000 % 6.78 C
2519 30-05-2004 23:00:00 18.44 C 56.2000 % 9.56 C
2520 31-05-2004 00:00:00 17.08 C 69.4000 % 11.44 C
2521 31-05-2004 01:00:00 15.24 C 84.4000 % 12.63 C
2522 31-05-2004 02:00:00 14.18 C 89.8000 % 12.53 C
2523 31-05-2004 03:00:00 13.76 C 92.8000 % 12.62 C
2524 31-05-2004 04:00:00 13.8 C 93.8000 % 12.82 C
2525 31-05-2004 05:00:00 13.76 C 94.0000 % 12.81 C
Sensor: Nr:Datum:Temp:Feuchte:Taupunkt:
Aussen-T/F 2526 31-05-2004 06:00:00 12.56 C 93.2000 % 11.49 C
2527 31-05-2004 07:00:00 12.18 C 94.0000 % 11.24 C
2528 31-05-2004 08:00:00 13.38 C 92.0000 % 12.11 C
2529 31-05-2004 09:00:00 15.32 C 79.2000 % 11.74 C
2530 31-05-2004 10:00:00 16.54 C 74.2000 % 11.93 C
2531 31-05-2004 11:00:00 16.9 C 72.0000 % 11.82 C
2532 31-05-2004 12:00:00 17.52 C 74.4000 % 12.92 C
2533 31-05-2004 13:00:00 15.58 C 79.2000 % 11.99 C
2534 31-05-2004 14:00:00 16.3 C 77.0000 % 12.26 C
2535 31-05-2004 15:00:00 17.5 C 73.0000 % 12.61 C
2536 31-05-2004 16:00:00 19.06 C 61.2000 % 11.42 C
2537 31-05-2004 17:00:00 22.16 C 37.0000 % 6.79 C
2538 31-05-2004 18:00:00 23.4 C 38.6000 % 8.51 C
2539 31-05-2004 19:00:00 18.46 C 56.8000 % 9.74 C
2540 31-05-2004 20:00:00 15.04 C 78.4000 % 11.31 C
2541 31-05-2004 21:00:00 11.68 C 89.6000 % 10.03 C
2542 31-05-2004 22:00:00 11.34 C 92.0000 % 10.09 C
2543 31-05-2004 23:00:00 11.22 C 93.0000 % 10.13 C
2544 01-06-2004 00:00:00 11.12 C 93.0000 % 10.03 C
2545 01-06-2004 01:00:00 10.86 C 93.0000 % 9.77 C
2546 01-06-2004 02:00:00 10.96 C 92.6000 % 9.81 C
2547 01-06-2004 03:00:00 10.8 C 92.0000 % 9.55 C
2548 01-06-2004 04:00:00 10.64 C 92.0000 % 9.4 C
2549 01-06-2004 05:00:00 10.08 C 92.6000 % 8.94 C
2550 01-06-2004 06:00:00 9.94 C 93.4000 % 8.93 C
Sensor: Nr:Datum:Temp:Feuchte:Taupunkt:
Aussen-T/F 2551 01-06-2004 07:00:00 11.2 C 91.4000 % 9.85 C
2552 01-06-2004 08:00:00 12.18 C 84.8000 % 9.7 C
2553 01-06-2004 09:00:00 13.48 C 82.8000 % 10.62 C
2554 01-06-2004 10:00:00 15.78 C 75.2000 % 11.4 C
2555 01-06-2004 11:00:00 19 C 59.0000 % 10.81 C
2556 01-06-2004 12:00:00 21.42 C 45.0000 % 9 C
2557 01-06-2004 13:00:00 22.86 C 36.8000 % 7.33 C
2558 01-06-2004 14:00:00 24.8 C 30.6000 % 6.35 C
2559 01-06-2004 15:00:00 24.65 C 31.0000 % 6.41 C
2560 01-06-2004 16:00:00 23.6 C 31.0000 % 5.5 C
2561 01-06-2004 17:00:00 23.56 C 32.0000 % 5.92 C
2562 01-06-2004 18:00:00 21.56 C 48.8000 % 10.34 C
2563 01-06-2004 19:00:00 21.1 C 52.0000 % 10.87 C
2564 01-06-2004 20:00:00 19.92 C 54.4000 % 10.45 C
2565 01-06-2004 21:00:00 16.52 C 62.4000 % 9.32 C
2566 01-06-2004 22:00:00 15.2 C 69.6000 % 9.68 C
2567 01-06-2004 23:00:00 14.06 C 73.0000 % 9.3 C
2568 02-06-2004 00:00:00 13 C 77.2000 % 9.11 C
2569 02-06-2004 01:00:00 12.26 C 79.4000 % 8.8 C
2570 02-06-2004 02:00:00 11.925 C 81.7500 % 8.91 C
2571 02-06-2004 03:00:00 11.1 C 84.0000 % 8.5 C
2572 02-06-2004 04:00:00 10.54 C 86.0000 % 8.3 C
2573 02-06-2004 05:00:00 10 C 87.2000 % 7.97 C
2574 02-06-2004 06:00:00 9.94 C 89.6000 % 8.31 C
2575 02-06-2004 07:00:00 10.76 C 86.6000 % 8.62 C
Sensor: Nr:Datum:Temp:Feuchte:Taupunkt:
Aussen-T/F 2576 02-06-2004 08:00:00 12.04 C 83.0000 % 9.24 C
2577 02-06-2004 09:00:00 14.72 C 73.6000 % 10.06 C
2578 02-06-2004 10:00:00 18.08 C 61.8000 % 10.64 C
2579 02-06-2004 11:00:00 20.92 C 50.6000 % 10.29 C
2580 02-06-2004 12:00:00 21.74 C 41.6000 % 8.13 C
2581 02-06-2004 13:00:00 22.42 C 41.6000 % 8.74 C
2582 02-06-2004 14:00:00 18.56 C 67.0000 % 12.32 C
2583 02-06-2004 15:00:00 16.38 C 88.2000 % 14.42 C
2584 02-06-2004 16:00:00 18.7 C 74.0000 % 13.97 C
2585 02-06-2004 17:00:00 16.02 C 85.4000 % 13.57 C
2586 02-06-2004 18:00:00 16.62 C 81.6000 % 13.46 C
2587 02-06-2004 19:00:00 15.96 C 79.2000 % 12.36 C
2588 02-06-2004 20:00:00 14.64 C 84.4000 % 12.04 C
2589 02-06-2004 21:00:00 13.54 C 91.0000 % 12.1 C
2590 02-06-2004 22:00:00 13.26 C 93.0000 % 12.15 C
2591 02-06-2004 23:00:00 13 C 91.6000 % 11.67 C
2592 03-06-2004 00:00:00 12.74 C 92.6000 % 11.57 C
2593 03-06-2004 01:00:00 12.82 C 93.8000 % 11.85 C
2594 03-06-2004 02:00:00 12.86 C 92.6000 % 11.69 C
2595 03-06-2004 03:00:00 12.88 C 92.6000 % 11.71 C
2596 03-06-2004 04:00:00 12.96 C 92.2000 % 11.72 C
2597 03-06-2004 05:00:00 13.12 C 91.4000 % 11.75 C
2598 03-06-2004 06:00:00 13.14 C 90.2000 % 11.57 C
2599 03-06-2004 07:00:00 13.3 C 90.0000 % 11.7 C
2600 03-06-2004 08:00:00 13.7 C 86.8000 % 11.54 C
Sensor: Nr:Datum:Temp:Feuchte:Taupunkt:
Aussen-T/F 2601 03-06-2004 09:00:00 14.56 C 80.4000 % 11.23 C
2602 03-06-2004 10:00:00 15.36 C 75.4000 % 11.04 C
2603 03-06-2004 11:00:00 16 C 71.0000 % 10.75 C
2604 03-06-2004 12:00:00 16.48 C 67.8000 % 10.52 C
2605 03-06-2004 13:00:00 18.52 C 59.4000 % 10.46 C
2606 03-06-2004 14:00:00 18.94 C 58.4000 % 10.6 C
2607 03-06-2004 15:00:00 20.48 C 52.6000 % 10.47 C
2608 03-06-2004 16:00:00 21.68 C 49.2000 % 10.57 C
2609 03-06-2004 17:00:00 22.08 C 49.6000 % 11.06 C
2610 03-06-2004 18:00:00 21.48 C 49.2000 % 10.39 C
2611 03-06-2004 19:00:00 20.6 C 52.4000 % 10.52 C
2612 03-06-2004 20:00:00 20.6 C 54.4000 % 11.08 C
2613 03-06-2004 21:00:00 17.88 C 66.2000 % 11.49 C
2614 03-06-2004 22:00:00 15.62 C 75.4000 % 11.29 C
2615 03-06-2004 23:00:00 14.88 C 80.0000 % 11.46 C
2616 04-06-2004 00:00:00 14.28 C 83.4000 % 11.51 C
2617 04-06-2004 01:00:00 13.36 C 86.8000 % 11.21 C
2618 04-06-2004 02:00:00 12.88 C 88.4000 % 11.01 C
2619 04-06-2004 03:00:00 12.3 C 88.6000 % 10.47 C
2620 04-06-2004 04:00:00 11.68 C 90.4000 % 10.16 C
2621 04-06-2004 05:00:00 11.4 C 92.0000 % 10.15 C
2622 04-06-2004 06:00:00 11.68 C 90.8000 % 10.23 C
2623 04-06-2004 07:00:00 12.3 C 87.6000 % 10.3 C
2624 04-06-2004 08:00:00 13.16 C 84.2000 % 10.55 C
2625 04-06-2004 09:00:00 13.24 C 87.4000 % 11.19 C
Sensor: Nr:Datum:Temp:Feuchte:Taupunkt:
Aussen-T/F 2626 04-06-2004 10:00:00 13.48 C 89.8000 % 11.84 C
2627 04-06-2004 11:00:00 14.44 C 87.8000 % 12.44 C
2628 04-06-2004 12:00:00 14.68 C 87.6000 % 12.65 C
2629 04-06-2004 13:00:00 14.94 C 78.4000 % 11.22 C
2630 04-06-2004 14:00:00 14.22 C 81.2000 % 11.05 C
2631 04-06-2004 15:00:00 14.12 C 85.6000 % 11.74 C
2632 04-06-2004 16:00:00 14.34 C 86.4000 % 12.1 C
2633 04-06-2004 17:00:00 15.4 C 79.4000 % 11.86 C
2634 04-06-2004 18:00:00 15.86 C 79.0000 % 12.23 C
2635 04-06-2004 19:00:00 16.56 C 76.6000 % 12.44 C
2636 04-06-2004 20:00:00 15.66 C 77.6000 % 11.76 C
2637 04-06-2004 21:00:00 14.16 C 84.8000 % 11.64 C
2638 04-06-2004 22:00:00 13.98 C 86.0000 % 11.68 C
2639 04-06-2004 23:00:00 13.7 C 85.6000 % 11.33 C
2640 05-06-2004 00:00:00 13.76 C 83.8000 % 11.07 C
2641 05-06-2004 01:00:00 13.54 C 84.8000 % 11.03 C
2642 05-06-2004 02:00:00 13.38 C 87.2000 % 11.3 C
2643 05-06-2004 03:00:00 13.06 C 90.4000 % 11.53 C
2644 05-06-2004 04:00:00 13.04 C 90.2000 % 11.47 C
2645 05-06-2004 05:00:00 13.02 C 90.4000 % 11.49 C
2646 05-06-2004 06:00:00 13.12 C 89.2000 % 11.38 C
2647 05-06-2004 07:00:00 13.12 C 82.0000 % 10.12 C
2648 05-06-2004 08:00:00 13.52 C 76.6000 % 9.49 C
2649 05-06-2004 09:00:00 14.04 C 72.4000 % 9.16 C
2650 05-06-2004 10:00:00 14.76 C 64.8000 % 8.21 C
Sensor: Nr:Datum:Temp:Feuchte:Taupunkt:
Aussen-T/F 2651 05-06-2004 11:00:00 14.68 C 65.4000 % 8.27 C
2652 05-06-2004 12:00:00 15.5 C 60.8000 % 7.97 C
2653 05-06-2004 13:00:00 16.8 C 55.4000 % 7.82 C
2654 05-06-2004 14:00:00 15.68 C 59.8000 % 7.9 C
2655 05-06-2004 15:00:00 16.4 C 58.2000 % 8.17 C
2656 05-06-2004 16:00:00 15.42 C 66.0000 % 9.11 C
2657 05-06-2004 17:00:00 15.58 C 63.6000 % 8.71 C
2658 05-06-2004 18:00:00 15.68 C 63.4000 % 8.76 C
2659 05-06-2004 19:00:00 15.44 C 67.0000 % 9.35 C
2660 05-06-2004 20:00:00 14.96 C 70.4000 % 9.63 C
2661 05-06-2004 21:00:00 14.08 C 76.0000 % 9.92 C
2662 05-06-2004 22:00:00 12.8 C 80.8000 % 9.59 C
2663 05-06-2004 23:00:00 12.68 C 81.8000 % 9.65 C
2664 06-06-2004 00:00:00 12.14 C 84.0000 % 9.52 C
2665 06-06-2004 01:00:00 11.1 C 86.4000 % 8.92 C
2666 06-06-2004 02:00:00 10.24 C 89.4000 % 8.58 C
2667 06-06-2004 03:00:00 9.66 C 91.6000 % 8.36 C
2668 06-06-2004 04:00:00 9.06 C 92.2000 % 7.86 C
2669 06-06-2004 05:00:00 8.98 C 94.2000 % 8.1 C
2670 06-06-2004 06:00:00 9.58 C 94.6000 % 8.76 C
2671 06-06-2004 07:00:00 10.44 C 91.2000 % 9.07 C
2672 06-06-2004 08:00:00 11.6 C 86.4000 % 9.41 C
2673 06-06-2004 09:00:00 12.96 C 79.6000 % 9.52 C
2674 06-06-2004 10:00:00 15.42 C 67.0000 % 9.33 C
2675 06-06-2004 11:00:00 17.48 C 62.2000 % 10.17 C
Sensor: Nr:Datum:Temp:Feuchte:Taupunkt:
Aussen-T/F 2676 06-06-2004 12:00:00 20 C 51.2000 % 9.62 C
2677 06-06-2004 13:00:00 21.42 C 39.4000 % 7.05 C
2678 06-06-2004 14:00:00 22.46 C 38.2000 % 7.53 C
2679 06-06-2004 15:00:00 24.1 C 35.4000 % 7.86 C
2680 06-06-2004 16:00:00 26.12 C 32.4000 % 8.33 C
2681 06-06-2004 17:00:00 25.12 C 31.8000 % 7.18 C
2682 06-06-2004 18:00:00 24.68 C 33.0000 % 7.34 C
2683 06-06-2004 19:00:00 24.8 C 32.6000 % 7.27 C
2684 06-06-2004 20:00:00 23.8 C 43.4000 % 10.62 C
2685 06-06-2004 21:00:00 19.56 C 55.4000 % 10.39 C
2686 06-06-2004 22:00:00 17.6 C 59.4000 % 9.6 C
2687 06-06-2004 23:00:00 16 C 66.2000 % 9.7 C
2688 07-06-2004 00:00:00 14.82 C 72.2000 % 9.87 C
2689 07-06-2004 01:00:00 13.84 C 76.4000 % 9.76 C
2690 07-06-2004 02:00:00 12.96 C 80.2000 % 9.63 C
2691 07-06-2004 03:00:00 12.28 C 82.2000 % 9.34 C
2692 07-06-2004 04:00:00 11.74 C 84.0000 % 9.13 C
2693 07-06-2004 05:00:00 11.22 C 84.2000 % 8.65 C
2694 07-06-2004 06:00:00 11.04 C 86.2000 % 8.83 C
2695 07-06-2004 07:00:00 11.54 C 85.6000 % 9.21 C
2696 07-06-2004 08:00:00 12.92 C 79.8000 % 9.52 C
2697 07-06-2004 09:00:00 15.74 C 72.2000 % 10.75 C
2698 07-06-2004 10:00:00 19.86 C 59.0000 % 11.62 C
2699 07-06-2004 11:00:00 23.54 C 43.8000 % 10.52 C
2700 07-06-2004 12:00:00 26.02 C 31.6000 % 7.87 C
Sensor: Nr:Datum:Temp:Feuchte:Taupunkt:
Aussen-T/F 2701 07-06-2004 13:00:00 27.92 C 26.6000 % 6.98 C
2702 07-06-2004 14:00:00 27.8 C 28.6000 % 7.94 C
2703 07-06-2004 15:00:00 28.88 C 26.8000 % 7.91 C
2704 07-06-2004 16:00:00 29.92 C 25.4000 % 8 C
2705 07-06-2004 17:00:00 30.32 C 23.2000 % 7.01 C
2706 07-06-2004 18:00:00 30.58 C 23.0000 % 7.1 C
2707 07-06-2004 19:00:00 30.24 C 28.6000 % 10.03 C
2708 07-06-2004 20:00:00 28.1 C 36.0000 % 11.63 C
2709 07-06-2004 21:00:00 23.72 C 46.6000 % 11.61 C
2710 07-06-2004 22:00:00 21.74 C 53.6000 % 11.92 C
2711 07-06-2004 23:00:00 19.9 C 61.0000 % 12.16 C
2712 08-06-2004 00:00:00 18.66 C 65.8000 % 12.14 C
2713 08-06-2004 01:00:00 17.68 C 70.0000 % 12.14 C
2714 08-06-2004 02:00:00 16.58 C 74.0000 % 11.93 C
2715 08-06-2004 03:00:00 15.76 C 77.4000 % 11.82 C
2716 08-06-2004 04:00:00 14.9 C 80.6000 % 11.6 C
2717 08-06-2004 05:00:00 14.58 C 81.0000 % 11.36 C
2718 08-06-2004 06:00:00 14.12 C 83.2000 % 11.31 C
2719 08-06-2004 07:00:00 15.22 C 80.0000 % 11.79 C
2720 08-06-2004 08:00:00 16.72 C 74.0000 % 12.07 C
2721 08-06-2004 09:00:00 19.7 C 67.0000 % 13.4 C
2722 08-06-2004 10:00:00 23.4 C 54.8000 % 13.79 C
2723 08-06-2004 11:00:00 26.18 C 43.4000 % 12.76 C
2724 08-06-2004 12:00:00 28.66 C 33.4000 % 10.99 C
2725 08-06-2004 13:00:00 30.5 C 27.4000 % 9.61 C
Sensor: Nr:Datum:Temp:Feuchte:Taupunkt:
Aussen-T/F 2726 08-06-2004 14:00:00 30.66 C 25.2000 % 8.51 C
2727 08-06-2004 15:00:00 31.18 C 24.0000 % 8.22 C
2728 08-06-2004 16:00:00 31.74 C 23.4000 % 8.32 C
2729 08-06-2004 17:00:00 32.12 C 24.2000 % 9.13 C
2730 08-06-2004 18:00:00 32.3 C 25.2000 % 9.89 C
2731 08-06-2004 19:00:00 32.04 C 27.6000 % 11.03 C
2732 08-06-2004 20:00:00 30.22 C 35.2000 % 13.15 C
2733 08-06-2004 21:00:00 26.8 C 45.8000 % 14.15 C
2734 08-06-2004 22:00:00 24.72 C 52.4000 % 14.32 C
2735 08-06-2004 23:00:00 23.34 C 58.2000 % 14.67 C
2736 09-06-2004 00:00:00 21.88 C 63.2000 % 14.57 C
2737 09-06-2004 01:00:00 20.78 C 66.6000 % 14.34 C
2738 09-06-2004 02:00:00 19.88 C 70.0000 % 14.25 C
2739 09-06-2004 03:00:00 19.18 C 72.0000 % 14.01 C
2740 09-06-2004 04:00:00 18.34 C 75.4000 % 13.92 C
2741 09-06-2004 05:00:00 17.6 C 78.4000 % 13.8 C
2742 09-06-2004 06:00:00 17.76 C 77.6000 % 13.8 C
2743 09-06-2004 07:00:00 18.88 C 74.2000 % 14.19 C
2744 09-06-2004 08:00:00 20.68 C 69.2000 % 14.84 C
2745 09-06-2004 09:00:00 23.34 C 61.2000 % 15.45 C
2746 09-06-2004 10:00:00 26.14 C 53.2000 % 15.87 C
2747 09-06-2004 11:00:00 29.26 C 45.0000 % 16.1 C
2748 09-06-2004 12:00:00 30.58 C 40.4000 % 15.6 C
2749 09-06-2004 13:00:00 31.4 C 33.4000 % 13.38 C
2750 09-06-2004 14:00:00 31.44 C 32.6000 % 13.04 C
Sensor: Nr:Datum:Temp:Feuchte:Taupunkt:
Aussen-T/F 2751 09-06-2004 15:00:00 30.92 C 36.0000 % 14.11 C
2752 09-06-2004 16:00:00 28.44 C 48.6000 % 16.56 C
2753 09-06-2004 17:00:00 31.32 C 35.2000 % 14.11 C
2754 09-06-2004 18:00:00 30.14 C 44.0000 % 16.54 C
2755 09-06-2004 19:00:00 28.32 C 49.8000 % 16.84 C
2756 09-06-2004 20:00:00 26.5 C 58.4000 % 17.67 C
2757 09-06-2004 21:00:00 24.52 C 63.6000 % 17.16 C
2758 09-06-2004 22:00:00 23.72 C 68.4000 % 17.55 C
2759 09-06-2004 23:00:00 22.62 C 73.0000 % 17.53 C
2760 10-06-2004 00:00:00 21.56 C 77.2000 % 17.4 C
2761 10-06-2004 01:00:00 20.84 C 77.0000 % 16.66 C
2762 10-06-2004 02:00:00 19.96 C 78.4000 % 16.09 C
2763 10-06-2004 03:00:00 19.5 C 81.0000 % 16.15 C
2764 10-06-2004 04:00:00 18.98 C 82.2000 % 15.88 C
2765 10-06-2004 05:00:00 18.58 C 84.0000 % 15.82 C
2766 10-06-2004 06:00:00 18.8 C 83.6000 % 15.96 C
2767 10-06-2004 07:00:00 19.78 C 79.2000 % 16.07 C
2768 10-06-2004 08:00:00 21.22 C 73.4000 % 16.27 C
2769 10-06-2004 09:00:00 23.42 C 66.2000 % 16.75 C
2770 10-06-2004 10:00:00 25.06 C 59.0000 % 16.49 C
2771 10-06-2004 11:00:00 27.02 C 52.2000 % 16.38 C
2772 10-06-2004 12:00:00 29.4 C 44.6000 % 16.09 C
2773 10-06-2004 13:00:00 25.66 C 62.2000 % 17.89 C
2774 10-06-2004 14:00:00 20.18 C 88.8000 % 18.27 C
2775 10-06-2004 15:00:00 19.92 C 89.6000 % 18.16 C
Sensor: Nr:Datum:Temp:Feuchte:Taupunkt:
Aussen-T/F 2776 10-06-2004 16:00:00 20.06 C 88.6000 % 18.12 C
2777 10-06-2004 17:00:00 19.68 C 91.8000 % 18.31 C
2778 10-06-2004 18:00:00 21.92 C 84.0000 % 19.09 C
2779 10-06-2004 19:00:00 21.56 C 80.4000 % 18.04 C
2780 10-06-2004 20:00:00 19.7 C 85.6000 % 17.22 C
2781 10-06-2004 21:00:00 19.24 C 89.4000 % 17.45 C
2782 10-06-2004 22:00:00 18.62 C 92.0000 % 17.29 C
2783 10-06-2004 23:00:00 18.48 C 92.8000 % 17.29 C
2784 11-06-2004 00:00:00 18.44 C 93.0000 % 17.29 C
2785 11-06-2004 01:00:00 18.56 C 92.8000 % 17.37 C
2786 11-06-2004 02:00:00 18.34 C 92.0000 % 17.02 C
2787 11-06-2004 03:00:00 17.52 C 92.0000 % 16.21 C
2788 11-06-2004 04:00:00 17.58 C 93.8000 % 16.57 C
2789 11-06-2004 05:00:00 17.74 C 92.4000 % 16.49 C
2790 11-06-2004 06:00:00 17.68 C 90.0000 % 16.02 C
2791 11-06-2004 07:00:00 17.26 C 83.0000 % 14.35 C
2792 11-06-2004 08:00:00 18.06 C 74.2000 % 13.4 C
2793 11-06-2004 09:00:00 18.92 C 65.8000 % 12.39 C
2794 11-06-2004 10:00:00 19.64 C 58.8000 % 11.36 C
2795 11-06-2004 11:00:00 21.22 C 54.4000 % 11.66 C
2796 11-06-2004 12:00:00 23.28 C 45.6000 % 10.89 C
2797 11-06-2004 13:00:00 24.84 C 40.0000 % 10.33 C
2798 11-06-2004 14:00:00 24.36 C 43.6000 % 11.19 C
2799 11-06-2004 15:00:00 20.64 C 77.8000 % 16.63 C
2800 11-06-2004 16:00:00 20.08 C 79.4000 % 16.4 C
Sensor: Nr:Datum:Temp:Feuchte:Taupunkt:
Aussen-T/F 2801 11-06-2004 17:00:00 17.16 C 90.6000 % 15.61 C
2802 11-06-2004 18:00:00 18.66 C 87.8000 % 16.6 C
2803 11-06-2004 19:00:00 17.92 C 88.0000 % 15.9 C
2804 11-06-2004 20:00:00 16.92 C 92.4000 % 15.68 C
2805 11-06-2004 21:00:00 16.66 C 92.8000 % 15.49 C
2806 11-06-2004 22:00:00 16.08 C 92.4000 % 14.85 C
2807 11-06-2004 23:00:00 15.38 C 93.4000 % 14.32 C
2808 12-06-2004 00:00:00 15.46 C 94.0000 % 14.5 C
2809 12-06-2004 01:00:00 15.12 C 94.0000 % 14.16 C
2810 12-06-2004 02:00:00 14.78 C 93.6000 % 13.76 C
2811 12-06-2004 03:00:00 13.96 C 93.0000 % 12.85 C
2812 12-06-2004 04:00:00 13.54 C 92.4000 % 12.33 C
2813 12-06-2004 05:00:00 13.24 C 91.0000 % 11.8 C
2814 12-06-2004 06:00:00 13.56 C 89.0000 % 11.78 C
2815 12-06-2004 07:00:00 13.92 C 84.0000 % 11.26 C
2816 12-06-2004 08:00:00 14.16 C 82.4000 % 11.21 C
2817 12-06-2004 09:00:00 15.58 C 74.6000 % 11.09 C
2818 12-06-2004 10:00:00 16.86 C 63.8000 % 9.97 C
2819 12-06-2004 11:00:00 18.12 C 56.6000 % 9.37 C
2820 12-06-2004 12:00:00 20.22 C 42.6000 % 7.11 C
2821 12-06-2004 13:00:00 16.88 C 57.2000 % 8.37 C
2822 12-06-2004 14:00:00 15.32 C 63.2000 % 8.37 C
2823 12-06-2004 15:00:00 19.16 C 51.2000 % 8.85 C
2824 12-06-2004 16:00:00 17.68 C 56.6000 % 8.96 C
2825 12-06-2004 17:00:00 17.56 C 63.4000 % 10.54 C
Sensor: Nr:Datum:Temp:Feuchte:Taupunkt:
Aussen-T/F 2826 12-06-2004 18:00:00 17.62 C 55.4000 % 8.59 C
2827 12-06-2004 19:00:00 16.48 C 64.0000 % 9.65 C
2828 12-06-2004 20:00:00 15.34 C 69.4000 % 9.78 C
2829 12-06-2004 21:00:00 14.54 C 70.8000 % 9.31 C
2830 12-06-2004 22:00:00 13.18 C 74.2000 % 8.69 C
2831 12-06-2004 23:00:00 13.18 C 75.8000 % 9.01 C
2832 13-06-2004 00:00:00 12.92 C 78.2000 % 9.22 C
2833 13-06-2004 01:00:00 12.58 C 82.8000 % 9.74 C
2834 13-06-2004 02:00:00 12.48 C 87.0000 % 10.38 C
2835 13-06-2004 03:00:00 12.48 C 89.8000 % 10.85 C
2836 13-06-2004 04:00:00 12.6 C 92.0000 % 11.34 C
2837 13-06-2004 05:00:00 12.52 C 90.6000 % 11.03 C
2838 13-06-2004 06:00:00 12.92 C 89.8000 % 11.29 C
2839 13-06-2004 07:00:00 13.4 C 86.6000 % 11.21 C
2840 13-06-2004 08:00:00 13.04 C 88.2000 % 11.13 C
2841 13-06-2004 09:00:00 13.98 C 82.8000 % 11.11 C
2842 13-06-2004 10:00:00 14.72 C 76.4000 % 10.62 C
2843 13-06-2004 11:00:00 16.2 C 67.2000 % 10.12 C
2844 13-06-2004 12:00:00 15.78 C 66.8000 % 9.63 C
2845 13-06-2004 13:00:00 16.86 C 61.2000 % 9.35 C
2846 13-06-2004 14:00:00 17.28 C 56.4000 % 8.53 C
2847 13-06-2004 15:00:00 18.78 C 50.8000 % 8.38 C
2848 13-06-2004 16:00:00 19.26 C 49.2000 % 8.35 C
2849 13-06-2004 17:00:00 19.58 C 46.8000 % 7.91 C
2850 13-06-2004 18:00:00 19.74 C 46.2000 % 7.87 C
Sensor: Nr:Datum:Temp:Feuchte:Taupunkt:
Aussen-T/F 2851 13-06-2004 19:00:00 19.32 C 46.8000 % 7.67 C
2852 13-06-2004 20:00:00 18.08 C 51.2000 % 7.85 C
2853 13-06-2004 21:00:00 15.88 C 61.6000 % 8.52 C
2854 13-06-2004 22:00:00 14.26 C 70.4000 % 8.95 C
2855 13-06-2004 23:00:00 13.35 C 74.5000 % 8.92 C
2856 14-06-2004 00:00:00 12.12 C 79.2000 % 8.63 C
2857 14-06-2004 01:00:00 11.28 C 83.0000 % 8.5 C
2858 14-06-2004 02:00:00 10.66 C 86.0000 % 8.42 C
2859 14-06-2004 03:00:00 9.88 C 88.6000 % 8.09 C
2860 14-06-2004 04:00:00 9.36 C 91.0000 % 7.97 C
2861 14-06-2004 05:00:00 9.4 C 89.4000 % 7.75 C
2862 14-06-2004 06:00:00 9.88 C 88.0000 % 7.99 C
2863 14-06-2004 07:00:00 10.92 C 83.2000 % 8.19 C
2864 14-06-2004 08:00:00 11.44 C 81.0000 % 8.3 C
2865 14-06-2004 09:00:00 12.62 C 77.6000 % 8.81 C
2866 14-06-2004 10:00:00 16.22 C 64.4000 % 9.5 C
2867 14-06-2004 11:00:00 19.32 C 52.8000 % 9.45 C
2868 14-06-2004 12:00:00 22.36 C 41.6000 % 8.69 C
2869 14-06-2004 13:00:00 24.68 C 33.0000 % 7.34 C
2870 14-06-2004 14:00:00 24.78 C 30.6000 % 6.33 C
2871 14-06-2004 15:00:00 26.1 C 25.8000 % 5 C
2872 14-06-2004 16:00:00 26.4 C 21.8000 % 2.86 C
2873 14-06-2004 17:00:00 26.76 C 26.0000 % 5.67 C
2874 14-06-2004 18:00:00 24.68 C 33.8000 % 7.69 C
2875 14-06-2004 19:00:00 24.08 C 39.4000 % 9.42 C
Sensor: Nr:Datum:Temp:Feuchte:Taupunkt:
Aussen-T/F 2876 14-06-2004 20:00:00 22.48 C 50.6000 % 11.73 C
2877 14-06-2004 21:00:00 19.92 C 57.2000 % 11.21 C
2878 14-06-2004 22:00:00 17.8 C 62.0000 % 10.43 C
2879 14-06-2004 23:00:00 17.28 C 66.8000 % 11.06 C
2880 15-06-2004 00:00:00 16.3 C 71.8000 % 11.21 C
2881 15-06-2004 01:00:00 15.48 C 76.2000 % 11.31 C
2882 15-06-2004 02:00:00 14.58 C 81.6000 % 11.47 C
2883 15-06-2004 03:00:00 13.86 C 84.0000 % 11.2 C
2884 15-06-2004 04:00:00 13.38 C 85.4000 % 10.98 C
2885 15-06-2004 05:00:00 13.12 C 86.0000 % 10.83 C
2886 15-06-2004 06:00:00 13.44 C 84.2000 % 10.83 C
2887 15-06-2004 07:00:00 14.06 C 82.4000 % 11.11 C
2888 15-06-2004 08:00:00 15.44 C 78.2000 % 11.66 C
2889 15-06-2004 09:00:00 18.02 C 71.6000 % 12.81 C
2890 15-06-2004 10:00:00 21 C 61.8000 % 13.4 C
2891 15-06-2004 11:00:00 23.58 C 53.0000 % 13.45 C
2892 15-06-2004 12:00:00 27.18 C 41.4000 % 12.94 C
2893 15-06-2004 13:00:00 27.8 C 39.6000 % 12.81 C
2894 15-06-2004 14:00:00 27 C 42.8000 % 13.28 C
2895 15-06-2004 15:00:00 27.88 C 34.4000 % 10.75 C
2896 15-06-2004 16:00:00 28.68 C 33.6000 % 11.1 C
2897 15-06-2004 17:00:00 27.42 C 37.2000 % 11.53 C
2898 15-06-2004 18:00:00 28.04 C 36.4000 % 11.74 C
2899 15-06-2004 19:00:00 25.12 C 46.8000 % 12.95 C
2900 15-06-2004 20:00:00 22.86 C 54.8000 % 13.29 C
Sensor: Nr:Datum:Temp:Feuchte:Taupunkt:
Aussen-T/F 2901 15-06-2004 21:00:00 20.88 C 63.2000 % 13.63 C
2902 15-06-2004 22:00:00 19.72 C 61.8000 % 12.19 C
2903 15-06-2004 23:00:00 18.9 C 63.2000 % 11.76 C
2904 16-06-2004 00:00:00 17.98 C 62.8000 % 10.79 C
2905 16-06-2004 01:00:00 16.82 C 63.4000 % 9.84 C
2906 16-06-2004 02:00:00 15.5 C 66.8000 % 9.36 C
2907 16-06-2004 03:00:00 14.98 C 70.2000 % 9.6 C
2908 16-06-2004 04:00:00 14.2 C 71.0000 % 9.02 C
2909 16-06-2004 05:00:00 13.52 C 69.6000 % 8.08 C
2910 16-06-2004 06:00:00 13.06 C 67.6000 % 7.21 C
2911 16-06-2004 07:00:00 13.3 C 63.8000 % 6.6 C
2912 16-06-2004 08:00:00 14.58 C 52.0000 % 4.85 C
2913 16-06-2004 09:00:00 15.52 C 46.0000 % 3.96 C
2914 16-06-2004 10:00:00 15.44 C 50.0000 % 5.08 C
2915 16-06-2004 11:00:00 15.8 C 53.6000 % 6.41 C
2916 16-06-2004 12:00:00 17.36 C 46.4000 % 5.76 C
2917 16-06-2004 13:00:00 18.68 C 38.8000 % 4.39 C
2918 16-06-2004 14:00:00 19.46 C 37.0000 % 4.4 C
2919 16-06-2004 15:00:00 21.76 C 33.0000 % 4.79 C
2920 16-06-2004 16:00:00 21.8 C 32.6000 % 4.65 C
2921 16-06-2004 17:00:00 21.66 C 31.6000 % 4.09 C
2922 16-06-2004 18:00:00 21.64 C 31.4000 % 3.98 C
2923 16-06-2004 19:00:00 21.64 C 34.2000 % 5.2 C
2924 16-06-2004 20:00:00 20.64 C 37.6000 % 5.68 C
2925 16-06-2004 21:00:00 17.62 C 50.0000 % 7.08 C
Sensor: Nr:Datum:Temp:Feuchte:Taupunkt:
Aussen-T/F 2926 16-06-2004 22:00:00 15.7 C 57.0000 % 7.21 C
2927 16-06-2004 23:00:00 14.26 C 64.2000 % 7.6 C
2928 17-06-2004 00:00:00 13 C 70.2000 % 7.71 C
2929 17-06-2004 01:00:00 11.94 C 74.8000 % 7.62 C
2930 17-06-2004 02:00:00 11.44 C 77.4000 % 7.63 C
2931 17-06-2004 03:00:00 12.02 C 75.0000 % 7.73 C
2932 17-06-2004 04:00:00 12.22 C 72.4000 % 7.41 C
2933 17-06-2004 05:00:00 12.34 C 71.8000 % 7.4 C
2934 17-06-2004 06:00:00 12.72 C 70.8000 % 7.56 C
2935 17-06-2004 07:00:00 13.4 C 68.4000 % 7.71 C
2936 17-06-2004 08:00:00 15.22 C 61.0000 % 7.76 C
2937 17-06-2004 09:00:00 16.68 C 55.4000 % 7.71 C
2938 17-06-2004 10:00:00 18.64 C 52.8000 % 8.82 C
2939 17-06-2004 11:00:00 20.74 C 49.0000 % 9.65 C
2940 17-06-2004 12:00:00 23.34 C 42.4000 % 9.85 C
2941 17-06-2004 13:00:00 24.92 C 38.8000 % 9.94 C
2942 17-06-2004 14:00:00 25.24 C 38.2000 % 9.99 C
2943 17-06-2004 15:00:00 25.4 C 37.2000 % 9.74 C
2944 17-06-2004 16:00:00 23.52 C 46.8000 % 11.5 C
2945 17-06-2004 17:00:00 23.42 C 46.4000 % 11.28 C
2946 17-06-2004 18:00:00 23.82 C 39.4000 % 9.19 C
2947 17-06-2004 19:00:00 23.42 C 33.4000 % 6.42 C
2948 17-06-2004 20:00:00 21.42 C 39.0000 % 6.9 C
2949 17-06-2004 21:00:00 19.16 C 50.6000 % 8.67 C
2950 17-06-2004 22:00:00 18.06 C 57.8000 % 9.63 C
Sensor: Nr:Datum:Temp:Feuchte:Taupunkt:
Aussen-T/F 2951 17-06-2004 23:00:00 17.18 C 64.0000 % 10.32 C
2952 18-06-2004 00:00:00 15.04 C 81.4000 % 11.88 C
2953 18-06-2004 01:00:00 15.28 C 70.8000 % 10.02 C
2954 18-06-2004 02:00:00 15.2 C 73.2000 % 10.44 C
2955 18-06-2004 03:00:00 15.18 C 71.2000 % 10 C
2956 18-06-2004 04:00:00 15.06 C 69.8000 % 9.59 C
2957 18-06-2004 05:00:00 14.68 C 71.0000 % 9.48 C
2958 18-06-2004 06:00:00 14.3 C 72.6000 % 9.45 C
2959 18-06-2004 07:00:00 13.12 C 84.6000 % 10.59 C
2960 18-06-2004 08:00:00 13.94 C 82.2000 % 10.96 C
2961 18-06-2004 09:00:00 13.98 C 82.2000 % 11 C
2962 18-06-2004 10:00:00 15.04 C 83.2000 % 12.21 C
2963 18-06-2004 11:00:00 17.04 C 70.4000 % 11.62 C
2964 18-06-2004 12:00:00 17.22 C 62.2000 % 9.93 C
2965 18-06-2004 13:00:00 19.34 C 53.6000 % 9.69 C
2966 18-06-2004 14:00:00 17.18 C 70.4000 % 11.75 C
2967 18-06-2004 15:00:00 17.1 C 70.4000 % 11.68 C
2968 18-06-2004 16:00:00 16.2 C 73.4000 % 11.44 C
2969 18-06-2004 17:00:00 16.42 C 68.8000 % 10.68 C
2970 18-06-2004 18:00:00 16.24 C 69.8000 % 10.72 C
2971 18-06-2004 19:00:00 15.68 C 70.4000 % 10.32 C
2972 18-06-2004 20:00:00 15.42 C 71.6000 % 10.32 C
2973 18-06-2004 21:00:00 15.08 C 70.6000 % 9.78 C
2974 18-06-2004 22:00:00 14.84 C 71.0000 % 9.64 C
2975 18-06-2004 23:00:00 14.38 C 75.6000 % 10.13 C
Sensor: Nr:Datum:Temp:Feuchte:Taupunkt:
Aussen-T/F 2976 19-06-2004 00:00:00 14.42 C 76.6000 % 10.36 C
2977 19-06-2004 01:00:00 14.28 C 74.0000 % 9.71 C
2978 19-06-2004 02:00:00 13.82 C 77.4000 % 9.94 C
2979 19-06-2004 03:00:00 13.76 C 76.8000 % 9.76 C
2980 19-06-2004 04:00:00 13.42 C 77.6000 % 9.59 C
2981 19-06-2004 05:00:00 13.14 C 74.8000 % 8.77 C
2982 19-06-2004 06:00:00 13.06 C 69.0000 % 7.51 C
2983 19-06-2004 07:00:00 13.18 C 67.6000 % 7.33 C
2984 19-06-2004 08:00:00 13.62 C 64.0000 % 6.95 C
2985 19-06-2004 09:00:00 14.12 C 59.4000 % 6.33 C
2986 19-06-2004 10:00:00 12.36 C 79.8000 % 8.97 C
2987 19-06-2004 11:00:00 15.22 C 69.4000 % 9.66 C
2988 19-06-2004 12:00:00 15.72 C 60.4000 % 8.08 C
2989 19-06-2004 13:00:00 12.08 C 84.6000 % 9.57 C
2990 19-06-2004 14:00:00 12.9 C 80.4000 % 9.61 C
2991 19-06-2004 15:00:00 13.84 C 73.0000 % 9.09 C
2992 19-06-2004 16:00:00 15.6 C 62.2000 % 8.4 C
2993 19-06-2004 17:00:00 18.08 C 50.0000 % 7.51 C
2994 19-06-2004 18:00:00 19.46 C 42.0000 % 6.22 C
2995 19-06-2004 19:00:00 19.48 C 37.0000 % 4.42 C
2996 19-06-2004 20:00:00 16.84 C 45.8000 % 5.1 C
2997 19-06-2004 21:00:00 14.34 C 60.2000 % 6.74 C
2998 19-06-2004 22:00:00 11.78 C 70.6000 % 6.62 C
2999 19-06-2004 23:00:00 10.88 C 75.0000 % 6.63 C
3000 20-06-2004 00:00:00 9.82 C 79.6000 % 6.47 C
Sensor: Nr:Datum:Temp:Feuchte:Taupunkt:
Aussen-T/F 3001 20-06-2004 01:00:00 9.44 C 82.4000 % 6.6 C
3002 20-06-2004 02:00:00 8.88 C 84.2000 % 6.36 C
3003 20-06-2004 03:00:00 7.9 C 86.8000 % 5.84 C
3004 20-06-2004 04:00:00 7.3 C 88.6000 % 5.55 C
3005 20-06-2004 05:00:00 7.02 C 89.6000 % 5.43 C
3006 20-06-2004 06:00:00 7.26 C 91.2000 % 5.92 C
3007 20-06-2004 07:00:00 8.22 C 87.8000 % 6.32 C
3008 20-06-2004 08:00:00 9.3 C 84.6000 % 6.84 C
3009 20-06-2004 09:00:00 11.2 C 79.2000 % 7.74 C
3010 20-06-2004 10:00:00 14.54 C 62.6000 % 7.49 C
3011 20-06-2004 11:00:00 17.02 C 46.8000 % 5.58 C
3012 20-06-2004 12:00:00 18.74 C 36.0000 % 3.38 C
3013 20-06-2004 13:00:00 20 C 24.6000 % -0.82 C
3014 20-06-2004 14:00:00 20.74 C 22.6000 % -1.36 C
3015 20-06-2004 15:00:00 21.58 C 28.6000 % 2.61 C
3016 20-06-2004 16:00:00 22.4 C 24.6000 % 1.2 C
3017 20-06-2004 17:00:00 22.94 C 25.4000 % 2.11 C
3018 20-06-2004 18:00:00 21.96 C 30.6000 % 3.89 C
3019 20-06-2004 19:00:00 21.2 C 35.2000 % 5.23 C
3020 20-06-2004 20:00:00 18.58 C 43.2000 % 5.84 C
3021 20-06-2004 21:00:00 16.2 C 51.4000 % 6.18 C
3022 20-06-2004 22:00:00 14.3 C 59.4000 % 6.5 C
3023 20-06-2004 23:00:00 13.04 C 70.8000 % 7.87 C
3024 21-06-2004 00:00:00 11.72 C 81.0000 % 8.57 C
3025 21-06-2004 01:00:00 11.14 C 80.8000 % 7.97 C
Sensor: Nr:Datum:Temp:Feuchte:Taupunkt:
Aussen-T/F 3026 21-06-2004 02:00:00 10.72 C 82.8000 % 7.92 C
3027 21-06-2004 03:00:00 10.32 C 83.6000 % 7.67 C
3028 21-06-2004 04:00:00 10.08 C 84.0000 % 7.5 C
3029 21-06-2004 05:00:00 9.8 C 85.2000 % 7.44 C
3030 21-06-2004 06:00:00 9.92 C 85.6000 % 7.62 C
3031 21-06-2004 07:00:00 11.52 C 79.4000 % 8.08 C
3032 21-06-2004 08:00:00 12.78 C 73.2000 % 8.11 C
3033 21-06-2004 09:00:00 14.3 C 61.2000 % 6.94 C
3034 21-06-2004 10:00:00 14.98 C 62.8000 % 7.96 C
3035 21-06-2004 11:00:00 17.14 C 48.4000 % 6.17 C
3036 21-06-2004 12:00:00 17.78 C 45.6000 % 5.89 C
3037 21-06-2004 13:00:00 16.9 C 52.4000 % 7.1 C
3038 21-06-2004 14:00:00 17.42 C 55.4000 % 8.4 C
3039 21-06-2004 15:00:00 19.86 C 41.6000 % 6.44 C
3040 21-06-2004 16:00:00 18.84 C 42.4000 % 5.8 C
3041 21-06-2004 17:00:00 19.16 C 43.6000 % 6.49 C
3042 21-06-2004 18:00:00 19.84 C 41.0000 % 6.22 C
3043 21-06-2004 19:00:00 20.68 C 39.6000 % 6.46 C
3044 21-06-2004 20:00:00 19.26 C 46.2000 % 7.43 C
3045 21-06-2004 21:00:00 16.16 C 57.6000 % 7.8 C
3046 21-06-2004 22:00:00 13.96 C 65.8000 % 7.67 C
3047 21-06-2004 23:00:00 13.4 C 70.4000 % 8.13 C
3048 22-06-2004 00:00:00 13.12 C 72.6000 % 8.31 C
3049 22-06-2004 01:00:00 12.78 C 74.8000 % 8.43 C
3050 22-06-2004 02:00:00 12.38 C 77.2000 % 8.5 C
Sensor: Nr:Datum:Temp:Feuchte:Taupunkt:
Aussen-T/F 3051 22-06-2004 03:00:00 12.22 C 79.0000 % 8.69 C
3052 22-06-2004 04:00:00 11.92 C 85.0000 % 9.48 C
3053 22-06-2004 05:00:00 12.06 C 85.2000 % 9.65 C
3054 22-06-2004 06:00:00 12.12 C 86.6000 % 9.95 C
3055 22-06-2004 07:00:00 12.44 C 87.0000 % 10.34 C
3056 22-06-2004 08:00:00 13.42 C 85.4000 % 11.02 C
3057 22-06-2004 09:00:00 13.84 C 86.8000 % 11.68 C
3058 22-06-2004 10:00:00 14.08 C 85.4000 % 11.67 C
3059 22-06-2004 11:00:00 13.86 C 87.4000 % 11.8 C
3060 22-06-2004 12:00:00 14.46 C 87.6000 % 12.43 C
3061 22-06-2004 13:00:00 15.14 C 85.0000 % 12.64 C
3062 22-06-2004 14:00:00 16.8 C 78.2000 % 12.98 C
3063 22-06-2004 15:00:00 19.14 C 68.6000 % 13.23 C
3064 22-06-2004 16:00:00 19.78 C 65.2000 % 13.06 C
3065 22-06-2004 17:00:00 22.06 C 56.4000 % 12.99 C
3066 22-06-2004 18:00:00 22.8 C 53.8000 % 12.95 C
3067 22-06-2004 19:00:00 20.46 C 66.2000 % 13.94 C
3068 22-06-2004 20:00:00 18.94 C 71.8000 % 13.74 C
3069 22-06-2004 21:00:00 17.82 C 75.4000 % 13.41 C
3070 22-06-2004 22:00:00 16.72 C 80.2000 % 13.29 C
3071 22-06-2004 23:00:00 17.14 C 77.4000 % 13.16 C
3072 23-06-2004 00:00:00 16.94 C 78.0000 % 13.08 C
3073 23-06-2004 01:00:00 16.44 C 79.6000 % 12.91 C
3074 23-06-2004 02:00:00 16.36 C 80.2000 % 12.94 C
3075 23-06-2004 03:00:00 16.98 C 75.6000 % 12.64 C
Sensor: Nr:Datum:Temp:Feuchte:Taupunkt:
Aussen-T/F 3076 23-06-2004 04:00:00 16.44 C 79.8000 % 12.94 C
3077 23-06-2004 05:00:00 15.8 C 86.6000 % 13.57 C
3078 23-06-2004 06:00:00 15.44 C 92.6000 % 14.25 C
3079 23-06-2004 07:00:00 16.36 C 91.8000 % 15.02 C
3080 23-06-2004 08:00:00 16.82 C 88.6000 % 14.93 C
3081 23-06-2004 09:00:00 18.04 C 82.2000 % 14.96 C
3082 23-06-2004 10:00:00 19.78 C 67.4000 % 13.57 C
3083 23-06-2004 11:00:00 21.62 C 56.0000 % 12.47 C
3084 23-06-2004 12:00:00 22.28 C 45.4000 % 9.91 C
3085 23-06-2004 13:00:00 23.46 C 40.6000 % 9.31 C
3086 23-06-2004 14:00:00 23.28 C 40.2000 % 9.01 C
3087 23-06-2004 15:00:00 23.68 C 36.6000 % 7.98 C
3088 23-06-2004 16:00:00 23.38 C 37.4000 % 8.03 C
3089 23-06-2004 17:00:00 20.2 C 59.0000 % 11.94 C
3090 23-06-2004 18:00:00 18.74 C 71.8000 % 13.55 C
3091 23-06-2004 19:00:00 20.24 C 60.2000 % 12.28 C
3092 23-06-2004 20:00:00 20.82 C 53.8000 % 11.12 C
3093 23-06-2004 21:00:00 19.42 C 54.0000 % 9.88 C
3094 23-06-2004 22:00:00 18.96 C 47.2000 % 7.47 C
3095 23-06-2004 23:00:00 18.62 C 43.0000 % 5.81 C
3096 24-06-2004 00:00:00 17.44 C 48.6000 % 6.5 C
3097 24-06-2004 01:00:00 16.6 C 52.4000 % 6.83 C
3098 24-06-2004 02:00:00 15.96 C 50.4000 % 5.67 C
3099 24-06-2004 03:00:00 15.12 C 49.0000 % 4.5 C
3100 24-06-2004 04:00:00 14.7 C 51.0000 % 4.68 C
Sensor: Nr:Datum:Temp:Feuchte:Taupunkt:
Aussen-T/F 3101 24-06-2004 05:00:00 14.28 C 53.4000 % 4.95 C
3102 24-06-2004 06:00:00 14.34 C 54.8000 % 5.38 C
3103 24-06-2004 07:00:00 14.48 C 55.4000 % 5.66 C
3104 24-06-2004 08:00:00 15.16 C 53.8000 % 5.87 C
3105 24-06-2004 09:00:00 15.52 C 53.8000 % 6.21 C
3106 24-06-2004 10:00:00 16.14 C 50.4000 % 5.84 C
3107 24-06-2004 11:00:00 16.68 C 49.2000 % 5.99 C
3108 24-06-2004 12:00:00 17.4 C 45.4000 % 5.48 C
3109 24-06-2004 13:00:00 17.74 C 45.0000 % 5.67 C
3110 24-06-2004 14:00:00 18.26 C 41.6000 % 5.01 C
3111 24-06-2004 15:00:00 18.96 C 38.6000 % 4.56 C
3112 24-06-2004 16:00:00 18.84 C 42.2000 % 5.73 C
3113 24-06-2004 17:00:00 19.24 C 44.6000 % 6.9 C
3114 24-06-2004 18:00:00 18.76 C 45.0000 % 6.59 C
3115 24-06-2004 19:00:00 17.76 C 48.8000 % 6.86 C
3116 24-06-2004 20:00:00 17.14 C 53.0000 % 7.49 C
3117 24-06-2004 21:00:00 15.4 C 57.4000 % 7.04 C
3118 24-06-2004 22:00:00 14.26 C 68.8000 % 8.61 C
3119 24-06-2004 23:00:00 12.88 C 80.4000 % 9.59 C
3120 25-06-2004 00:00:00 12.52 C 84.0000 % 9.89 C
3121 25-06-2004 01:00:00 11.34 C 86.2000 % 9.12 C
3122 25-06-2004 02:00:00 10.74 C 87.2000 % 8.7 C
3123 25-06-2004 03:00:00 10.44 C 85.0000 % 8.03 C
3124 25-06-2004 04:00:00 10.92 C 78.0000 % 7.24 C
3125 25-06-2004 05:00:00 10.42 C 78.0000 % 6.75 C
Sensor: Nr:Datum:Temp:Feuchte:Taupunkt:
Aussen-T/F 3126 25-06-2004 06:00:00 10.66 C 76.2000 % 6.65 C
3127 25-06-2004 07:00:00 11.6 C 71.8000 % 6.69 C
3128 25-06-2004 08:00:00 12.8 C 66.0000 % 6.61 C
3129 25-06-2004 09:00:00 14.12 C 62.4000 % 7.05 C
3130 25-06-2004 10:00:00 15.88 C 55.6000 % 7.02 C
3131 25-06-2004 11:00:00 17.08 C 48.4000 % 6.12 C
3132 25-06-2004 12:00:00 17.42 C 43.4000 % 4.86 C
3133 25-06-2004 13:00:00 18.38 C 42.2000 % 5.32 C
3134 25-06-2004 14:00:00 18.68 C 43.4000 % 5.99 C
3135 25-06-2004 15:00:00 19 C 45.0000 % 6.81 C
3136 25-06-2004 16:00:00 17.8 C 44.0000 % 5.4 C
3137 25-06-2004 17:00:00 18.08 C 45.4000 % 6.1 C
3138 25-06-2004 18:00:00 17.2 C 49.6000 % 6.58 C
3139 25-06-2004 19:00:00 17.34 C 49.2000 % 6.59 C
3140 25-06-2004 20:00:00 17.54 C 51.4000 % 7.41 C
3141 25-06-2004 21:00:00 14.94 C 60.6000 % 7.4 C
3142 25-06-2004 22:00:00 13.2 C 68.4000 % 7.52 C
3143 25-06-2004 23:00:00 12.1 C 75.8000 % 7.96 C
3144 26-06-2004 00:00:00 11.3 C 79.4000 % 7.87 C
3145 26-06-2004 01:00:00 10.48 C 82.8000 % 7.68 C
3146 26-06-2004 02:00:00 9.725 C 87.2500 % 7.71 C
3147 26-06-2004 03:00:00 9.24 C 87.8000 % 7.33 C
3148 26-06-2004 04:00:00 8.68 C 89.6000 % 7.07 C
3149 26-06-2004 05:00:00 8.16 C 89.6000 % 6.56 C
3150 26-06-2004 06:00:00 8.06 C 90.8000 % 6.65 C
Sensor: Nr:Datum:Temp:Feuchte:Taupunkt:
Aussen-T/F 3151 26-06-2004 07:00:00 8.42 C 90.6000 % 6.97 C
3152 26-06-2004 08:00:00 9.46 C 87.8000 % 7.54 C
3153 26-06-2004 09:00:00 12.38 C 79.8000 % 8.99 C
3154 26-06-2004 10:00:00 16.28 C 66.6000 % 10.06 C
3155 26-06-2004 11:00:00 18.22 C 57.8000 % 9.77 C
3156 26-06-2004 12:00:00 21.62 C 43.0000 % 8.51 C
3157 26-06-2004 13:00:00 22.84 C 38.0000 % 7.79 C
3158 26-06-2004 14:00:00 24.12 C 31.0000 % 5.95 C
3159 26-06-2004 15:00:00 25.08 C 29.6000 % 6.11 C
3160 26-06-2004 16:00:00 24.26 C 29.8000 % 5.5 C
3161 26-06-2004 17:00:00 24.32 C 33.4000 % 7.2 C
3162 26-06-2004 18:00:00 23.28 C 42.6000 % 9.87 C
3163 26-06-2004 19:00:00 21.52 C 47.4000 % 9.87 C
3164 26-06-2004 20:00:00 20.14 C 50.2000 % 9.46 C
3165 26-06-2004 21:00:00 19.14 C 53.2000 % 9.4 C
3166 26-06-2004 22:00:00 18.16 C 58.2000 % 9.82 C
3167 26-06-2004 23:00:00 17.22 C 62.0000 % 9.88 C
3168 27-06-2004 00:00:00 17.08 C 61.2000 % 9.56 C
3169 27-06-2004 01:00:00 16.46 C 67.8000 % 10.5 C
3170 27-06-2004 02:00:00 16.04 C 72.8000 % 11.16 C
3171 27-06-2004 03:00:00 14.96 C 85.6000 % 12.57 C
3172 27-06-2004 04:00:00 15.08 C 86.0000 % 12.76 C
3173 27-06-2004 05:00:00 14.98 C 86.2000 % 12.69 C
3174 27-06-2004 06:00:00 15.42 C 85.4000 % 12.98 C
3175 27-06-2004 07:00:00 16.32 C 82.0000 % 13.24 C
Sensor: Nr:Datum:Temp:Feuchte:Taupunkt:
Aussen-T/F 3176 27-06-2004 08:00:00 17.14 C 78.4000 % 13.35 C
3177 27-06-2004 09:00:00 16.775 C 80.5000 % 13.4 C
3178 27-06-2004 10:00:00 16.425 C 87.2500 % 14.3 C
3179 27-06-2004 11:00:00 20.04 C 76.4000 % 15.76 C
3180 27-06-2004 12:00:00 21.76 C 65.2000 % 14.94 C
3181 27-06-2004 13:00:00 24.64 C 48.2000 % 12.97 C
3182 27-06-2004 14:00:00 25.9 C 45.0000 % 13.06 C
3183 27-06-2004 15:00:00 28.2 C 39.2000 % 13.01 C
3184 27-06-2004 16:00:00 30.92 C 33.6000 % 13.05 C
3185 27-06-2004 17:00:00 29.7 C 36.0000 % 13.04 C
3186 27-06-2004 18:00:00 28 C 39.0000 % 12.76 C
3187 27-06-2004 19:00:00 25.48 C 45.6000 % 12.88 C
3188 27-06-2004 20:00:00 24.12 C 51.8000 % 13.59 C
3189 27-06-2004 21:00:00 23.44 C 55.0000 % 13.89 C
3190 27-06-2004 22:00:00 21.96 C 58.6000 % 13.48 C
3191 27-06-2004 23:00:00 19.86 C 60.4000 % 11.97 C
3192 28-06-2004 00:00:00 18.58 C 60.8000 % 10.87 C
3193 28-06-2004 01:00:00 18.42 C 57.0000 % 9.75 C
3194 28-06-2004 02:00:00 18.22 C 55.4000 % 9.14 C
3195 28-06-2004 03:00:00 17.3 C 55.4000 % 8.29 C
3196 28-06-2004 04:00:00 15.74 C 60.0000 % 8 C
3197 28-06-2004 05:00:00 14.82 C 63.0000 % 7.85 C
3198 28-06-2004 06:00:00 14.7 C 63.0000 % 7.74 C
3199 28-06-2004 07:00:00 15.02 C 61.8000 % 7.76 C
3200 28-06-2004 08:00:00 15.88 C 61.8000 % 8.57 C
Sensor: Nr:Datum:Temp:Feuchte:Taupunkt:
Aussen-T/F 3201 28-06-2004 09:00:00 17.58 C 54.0000 % 8.17 C
3202 28-06-2004 10:00:00 18.96 C 51.6000 % 8.78 C
3203 28-06-2004 11:00:00 19.82 C 45.0000 % 7.55 C
3204 28-06-2004 12:00:00 22.14 C 38.8000 % 7.47 C
3205 28-06-2004 13:00:00 22.54 C 37.6000 % 7.37 C
3206 28-06-2004 14:00:00 22.68 C 37.0000 % 7.25 C
3207 28-06-2004 15:00:00 23.82 C 34.0000 % 7.03 C
3208 28-06-2004 16:00:00 25.56 C 30.0000 % 6.72 C
3209 28-06-2004 17:00:00 25.44 C 28.2000 % 5.72 C
3210 28-06-2004 18:00:00 24.36 C 29.2000 % 5.29 C
3211 28-06-2004 19:00:00 24.4 C 29.6000 % 5.52 C
3212 28-06-2004 20:00:00 22.28 C 35.2000 % 6.18 C
3213 28-06-2004 21:00:00 19.92 C 40.6000 % 6.15 C
3214 28-06-2004 22:00:00 18.78 C 43.2000 % 6.02 C
3215 28-06-2004 23:00:00 16.96 C 50.4000 % 6.59 C
3216 29-06-2004 00:00:00 15.82 C 59.2000 % 7.88 C
3217 29-06-2004 01:00:00 14.64 C 66.2000 % 8.41 C
3218 29-06-2004 02:00:00 13.42 C 71.8000 % 8.44 C
3219 29-06-2004 03:00:00 12.58 C 75.4000 % 8.35 C
3220 29-06-2004 04:00:00 11.66 C 79.6000 % 8.26 C
3221 29-06-2004 05:00:00 10.98 C 81.8000 % 7.99 C
3222 29-06-2004 06:00:00 10.98 C 82.6000 % 8.14 C
3223 29-06-2004 07:00:00 11.78 C 79.6000 % 8.37 C
3224 29-06-2004 08:00:00 13.28 C 74.2000 % 8.79 C
3225 29-06-2004 09:00:00 15.54 C 63.0000 % 8.53 C
Sensor: Nr:Datum:Temp:Feuchte:Taupunkt:
Aussen-T/F 3226 29-06-2004 10:00:00 19.16 C 48.8000 % 8.14 C
3227 29-06-2004 11:00:00 21.14 C 40.2000 % 7.09 C
3228 29-06-2004 12:00:00 22.86 C 32.8000 % 5.67 C
3229 29-06-2004 13:00:00 24.96 C 25.4000 % 3.81 C
3230 29-06-2004 14:00:00 23.86 C 27.8000 % 4.16 C
3231 29-06-2004 15:00:00 24.32 C 27.6000 % 4.45 C
3232 29-06-2004 16:00:00 24.58 C 28.2000 % 4.98 C
3233 29-06-2004 17:00:00 24.74 C 29.0000 % 5.52 C
3234 29-06-2004 18:00:00 25.12 C 30.2000 % 6.43 C
3235 29-06-2004 19:00:00 24.84 C 31.2000 % 6.66 C
3236 29-06-2004 20:00:00 23.02 C 40.0000 % 8.7 C
3237 29-06-2004 21:00:00 20.06 C 49.2000 % 9.09 C
3238 29-06-2004 22:00:00 18.2 C 54.4000 % 8.86 C
3239 29-06-2004 23:00:00 17.62 C 57.4000 % 9.11 C
3240 30-06-2004 00:00:00 16.12 C 64.0000 % 9.31 C
3241 30-06-2004 01:00:00 14.8 C 69.6000 % 9.3 C
3242 30-06-2004 02:00:00 14.54 C 71.2000 % 9.39 C
3243 30-06-2004 03:00:00 14.28 C 72.4000 % 9.39 C
3244 30-06-2004 04:00:00 14.1 C 73.4000 % 9.42 C
3245 30-06-2004 05:00:00 13.82 C 75.2000 % 9.51 C
3246 30-06-2004 06:00:00 13.78 C 76.0000 % 9.63 C
3247 30-06-2004 07:00:00 14.56 C 72.4000 % 9.66 C
3248 30-06-2004 08:00:00 16.88 C 62.4000 % 9.66 C
3249 30-06-2004 09:00:00 18.22 C 59.8000 % 10.28 C
3250 30-06-2004 10:00:00 20.24 C 52.8000 % 10.3 C
Sensor: Nr:Datum:Temp:Feuchte:Taupunkt:
Aussen-T/F 3251 30-06-2004 11:00:00 22.5 C 43.8000 % 9.58 C
3252 30-06-2004 12:00:00 23.86 C 36.6000 % 8.14 C
3253 30-06-2004 13:00:00 24.42 C 36.6000 % 8.63 C
3254 30-06-2004 14:00:00 26.68 C 29.2000 % 7.29 C
3255 30-06-2004 15:00:00 27.38 C 27.8000 % 7.17 C
3256 30-06-2004 16:00:00 29.32 C 26.0000 % 7.84 C
3257 30-06-2004 17:00:00 29.64 C 25.8000 % 7.99 C
3258 30-06-2004 18:00:00 28.88 C 28.6000 % 8.87 C
3259 30-06-2004 19:00:00 28.64 C 26.8000 % 7.7 C
3260 30-06-2004 20:00:00 25.34 C 34.4000 % 8.53 C
3261 30-06-2004 21:00:00 23.44 C 39.8000 % 9 C
3262 30-06-2004 22:00:00 21.74 C 44.0000 % 8.96 C
3263 30-06-2004 23:00:00 20.52 C 47.4000 % 8.95 C
3264 01-07-2004 00:00:00 19.6 C 51.0000 % 9.2 C
3265 01-07-2004 01:00:00 18.74 C 54.6000 % 9.41 C
3266 01-07-2004 02:00:00 17.75 C 58.0000 % 9.39 C
3267 01-07-2004 03:00:00 16.74 C 64.2000 % 9.95 C
3268 01-07-2004 04:00:00 16.32 C 66.2000 % 10.01 C
3269 01-07-2004 05:00:00 16.66 C 64.4000 % 9.92 C
3270 01-07-2004 06:00:00 16.56 C 65.8000 % 10.14 C
3271 01-07-2004 07:00:00 17.04 C 64.4000 % 10.28 C
3272 01-07-2004 08:00:00 17.28 C 63.2000 % 10.22 C
3273 01-07-2004 09:00:00 17.28 C 58.4000 % 9.05 C
3274 01-07-2004 10:00:00 18.16 C 57.0000 % 9.51 C
3275 01-07-2004 11:00:00 18.82 C 55.4000 % 9.7 C
Sensor: Nr:Datum:Temp:Feuchte:Taupunkt:
Aussen-T/F 3276 01-07-2004 12:00:00 19.6 C 44.2000 % 7.09 C
3277 01-07-2004 13:00:00 19.52 C 41.4000 % 6.07 C
3278 01-07-2004 14:00:00 19.98 C 39.4000 % 5.77 C
3279 01-07-2004 15:00:00 20.34 C 37.4000 % 5.34 C
3280 01-07-2004 16:00:00 20.24 C 36.6000 % 4.94 C
3281 01-07-2004 17:00:00 19.92 C 38.8000 % 5.49 C
3282 01-07-2004 18:00:00 19.42 C 39.4000 % 5.27 C
3283 01-07-2004 19:00:00 19.58 C 41.6000 % 6.19 C
3284 01-07-2004 20:00:00 18.78 C 45.2000 % 6.67 C
3285 01-07-2004 21:00:00 17.34 C 50.8000 % 7.06 C
3286 01-07-2004 22:00:00 16.28 C 55.2000 % 7.29 C
3287 01-07-2004 23:00:00 14.78 C 68.6000 % 9.07 C
3288 02-07-2004 00:00:00 13.18 C 83.0000 % 10.36 C
3289 02-07-2004 01:00:00 13.16 C 80.8000 % 9.94 C
3290 02-07-2004 02:00:00 12.38 C 82.8000 % 9.54 C
3291 02-07-2004 03:00:00 12.18 C 82.6000 % 9.31 C
3292 02-07-2004 04:00:00 12.22 C 82.4000 % 9.31 C
3293 02-07-2004 05:00:00 12.18 C 83.0000 % 9.38 C
3294 02-07-2004 06:00:00 12.36 C 82.6000 % 9.49 C
3295 02-07-2004 07:00:00 13.14 C 79.8000 % 9.73 C
3296 02-07-2004 08:00:00 14.42 C 74.6000 % 9.97 C
3297 02-07-2004 09:00:00 15.2 C 71.4000 % 10.07 C
3298 02-07-2004 10:00:00 14.2 C 80.2000 % 10.84 C
3299 02-07-2004 11:00:00 16.26 C 68.2000 % 10.39 C
3300 02-07-2004 12:00:00 17.7 C 59.0000 % 9.59 C
Sensor: Nr:Datum:Temp:Feuchte:Taupunkt:
Aussen-T/F 3301 02-07-2004 13:00:00 17.94 C 55.4000 % 8.88 C
3302 02-07-2004 14:00:00 17.98 C 56.2000 % 9.13 C
3303 02-07-2004 15:00:00 19.78 C 49.2000 % 8.83 C
3304 02-07-2004 16:00:00 18.24 C 59.6000 % 10.25 C
3305 02-07-2004 17:00:00 19.12 C 52.2000 % 9.1 C
3306 02-07-2004 18:00:00 19.48 C 51.0000 % 9.08 C
3307 02-07-2004 19:00:00 19.52 C 50.8000 % 9.06 C
3308 02-07-2004 20:00:00 19.76 C 48.6000 % 8.63 C
3309 02-07-2004 21:00:00 17.82 C 54.4000 % 8.5 C
3310 02-07-2004 22:00:00 15.48 C 69.6000 % 9.95 C
3311 02-07-2004 23:00:00 15.84 C 63.0000 % 8.82 C
3312 03-07-2004 00:00:00 15.04 C 66.6000 % 8.88 C
3313 03-07-2004 01:00:00 14.56 C 70.4000 % 9.24 C
3314 03-07-2004 02:00:00 13.78 C 73.2000 % 9.07 C
3315 03-07-2004 03:00:00 12.68 C 80.4000 % 9.4 C
3316 03-07-2004 04:00:00 12.56 C 80.2000 % 9.24 C
3317 03-07-2004 05:00:00 12.88 C 78.8000 % 9.29 C
3318 03-07-2004 06:00:00 13.14 C 81.0000 % 9.96 C
3319 03-07-2004 07:00:00 12.94 C 81.6000 % 9.87 C
3320 03-07-2004 08:00:00 13.02 C 82.0000 % 10.02 C
3321 03-07-2004 09:00:00 14 C 77.0000 % 10.04 C
3322 03-07-2004 10:00:00 15.88 C 64.6000 % 9.22 C
3323 03-07-2004 11:00:00 17.7 C 55.4000 % 8.66 C
3324 03-07-2004 12:00:00 18.78 C 51.6000 % 8.61 C
3325 03-07-2004 13:00:00 19.5 C 48.0000 % 8.21 C
Sensor: Nr:Datum:Temp:Feuchte:Taupunkt:
Aussen-T/F 3326 03-07-2004 14:00:00 20.96 C 42.2000 % 7.64 C
3327 03-07-2004 15:00:00 19.8 C 45.6000 % 7.73 C
3328 03-07-2004 16:00:00 20.7 C 41.8000 % 7.27 C
3329 03-07-2004 17:00:00 20.58 C 38.6000 % 6.01 C
3330 03-07-2004 18:00:00 18.12 C 51.4000 % 7.95 C
3331 03-07-2004 19:00:00 15.46 C 76.6000 % 11.37 C
3332 03-07-2004 20:00:00 15.66 C 73.0000 % 10.84 C
3333 03-07-2004 21:00:00 15.48 C 69.2000 % 9.87 C
3334 03-07-2004 22:00:00 14.62 C 69.4000 % 9.09 C
3335 03-07-2004 23:00:00 14.08 C 74.4000 % 9.6 C
3336 04-07-2004 00:00:00 13.38 C 75.8000 % 9.2 C
3337 04-07-2004 01:00:00 13.08 C 75.6000 % 8.87 C
3338 04-07-2004 02:00:00 12.68 C 77.6000 % 8.87 C
3339 04-07-2004 03:00:00 12.6 C 77.8000 % 8.83 C
3340 04-07-2004 04:00:00 12.44 C 77.8000 % 8.68 C
3341 04-07-2004 05:00:00 12.12 C 81.0000 % 8.96 C
3342 04-07-2004 06:00:00 12.56 C 78.8000 % 8.98 C
3343 04-07-2004 07:00:00 13.08 C 77.6000 % 9.26 C
3344 04-07-2004 08:00:00 14.56 C 73.0000 % 9.78 C
3345 04-07-2004 09:00:00 16.76 C 57.2000 % 8.26 C
3346 04-07-2004 10:00:00 18.24 C 47.6000 % 6.93 C
3347 04-07-2004 11:00:00 19.5 C 43.4000 % 6.74 C
3348 04-07-2004 12:00:00 20.02 C 43.4000 % 7.2 C
3349 04-07-2004 13:00:00 19.8 C 42.6000 % 6.74 C
3350 04-07-2004 14:00:00 20.1 C 45.4000 % 7.94 C
Sensor: Nr:Datum:Temp:Feuchte:Taupunkt:
Aussen-T/F 3351 04-07-2004 15:00:00 16.98 C 68.2000 % 11.08 C
3352 04-07-2004 16:00:00 15.9 C 84.0000 % 13.2 C
3353 04-07-2004 17:00:00 15.1 C 85.4000 % 12.67 C
3354 04-07-2004 18:00:00 15.24 C 88.0000 % 13.27 C
3355 04-07-2004 19:00:00 15.14 C 86.4000 % 12.89 C
3356 04-07-2004 20:00:00 14.96 C 86.0000 % 12.64 C
3357 04-07-2004 21:00:00 14.6 C 86.8000 % 12.43 C
3358 04-07-2004 22:00:00 14.14 C 87.0000 % 12.01 C
3359 04-07-2004 23:00:00 13.74 C 88.0000 % 11.79 C
3360 05-07-2004 00:00:00 13.5 C 88.2000 % 11.59 C
3361 05-07-2004 01:00:00 13.66 C 89.0000 % 11.88 C
3362 05-07-2004 02:00:00 13.44 C 90.6000 % 11.93 C
3363 05-07-2004 03:00:00 13.34 C 92.2000 % 12.1 C
3364 05-07-2004 04:00:00 12.8 C 93.4000 % 11.76 C
3365 05-07-2004 05:00:00 12.22 C 94.0000 % 11.28 C
3366 05-07-2004 06:00:00 13.06 C 94.2000 % 12.15 C
3367 05-07-2004 07:00:00 13.88 C 91.0000 % 12.44 C
3368 05-07-2004 08:00:00 15.4 C 84.4000 % 12.78 C
3369 05-07-2004 09:00:00 17.42 C 74.2000 % 12.78 C
3370 05-07-2004 10:00:00 19.22 C 64.4000 % 12.34 C
3371 05-07-2004 11:00:00 20.3 C 55.0000 % 10.97 C
3372 05-07-2004 12:00:00 21.64 C 48.2000 % 10.23 C
3373 05-07-2004 13:00:00 20.82 C 54.8000 % 11.4 C
3374 05-07-2004 14:00:00 22.42 C 46.4000 % 10.37 C
3375 05-07-2004 15:00:00 24.42 C 38.6000 % 9.42 C
Sensor: Nr:Datum:Temp:Feuchte:Taupunkt:
Aussen-T/F 3376 05-07-2004 16:00:00 24.6 C 35.8000 % 8.47 C
3377 05-07-2004 17:00:00 25.58 C 31.4000 % 7.4 C
3378 05-07-2004 18:00:00 24.84 C 32.6000 % 7.3 C
3379 05-07-2004 19:00:00 23.56 C 35.4000 % 7.39 C
3380 05-07-2004 20:00:00 22.04 C 40.8000 % 8.12 C
3381 05-07-2004 21:00:00 20.42 C 47.0000 % 8.74 C
3382 05-07-2004 22:00:00 18.74 C 54.0000 % 9.25 C
3383 05-07-2004 23:00:00 16.7 C 61.8000 % 9.34 C
3384 06-07-2004 00:00:00 15.66 C 65.2000 % 9.15 C
3385 06-07-2004 01:00:00 15.08 C 69.4000 % 9.53 C
3386 06-07-2004 02:00:00 14.3 C 73.8000 % 9.69 C
3387 06-07-2004 03:00:00 13.82 C 76.8000 % 9.82 C
3388 06-07-2004 04:00:00 13.08 C 80.6000 % 9.82 C
3389 06-07-2004 05:00:00 12.22 C 83.8000 % 9.56 C
3390 06-07-2004 06:00:00 12.04 C 86.0000 % 9.77 C
3391 06-07-2004 07:00:00 12.44 C 84.6000 % 9.92 C
3392 06-07-2004 08:00:00 13.9 C 77.8000 % 10.09 C
3393 06-07-2004 09:00:00 16.28 C 68.0000 % 10.37 C
3394 06-07-2004 10:00:00 17.86 C 55.8000 % 8.92 C
3395 06-07-2004 11:00:00 20.1 C 43.8000 % 7.41 C
3396 06-07-2004 12:00:00 23.12 C 33.8000 % 6.33 C
3397 06-07-2004 13:00:00 24.5 C 28.2000 % 4.91 C
3398 06-07-2004 14:00:00 24.72 C 27.4000 % 4.69 C
3399 06-07-2004 15:00:00 26.92 C 22.6000 % 3.8 C
3400 06-07-2004 16:00:00 28.14 C 20.4000 % 3.36 C
Sensor: Nr:Datum:Temp:Feuchte:Taupunkt:
Aussen-T/F 3401 06-07-2004 17:00:00 28.96 C 20.0000 % 3.75 C
3402 06-07-2004 18:00:00 29.28 C 20.0000 % 4.02 C
3403 06-07-2004 19:00:00 26.26 C 23.8000 % 3.98 C
3404 06-07-2004 20:00:00 24.1 C 33.2000 % 6.92 C
3405 06-07-2004 21:00:00 20.92 C 43.2000 % 7.95 C
3406 06-07-2004 22:00:00 18.92 C 48.0000 % 7.68 C
3407 06-07-2004 23:00:00 17.98 C 52.2000 % 8.04 C
3408 07-07-2004 00:00:00 16.92 C 57.4000 % 8.46 C
3409 07-07-2004 01:00:00 15.96 C 61.2000 % 8.5 C
3410 07-07-2004 02:00:00 15.46 C 63.0000 % 8.46 C
3411 07-07-2004 03:00:00 15.4 C 59.2000 % 7.49 C
3412 07-07-2004 04:00:00 15.16 C 59.8000 % 7.41 C
3413 07-07-2004 05:00:00 15.22 C 56.8000 % 6.72 C
3414 07-07-2004 06:00:00 15.4 C 57.4000 % 7.04 C
3415 07-07-2004 07:00:00 15.8 C 58.6000 % 7.71 C
3416 07-07-2004 08:00:00 17.14 C 54.6000 % 7.93 C
3417 07-07-2004 09:00:00 19.16 C 51.4000 % 8.91 C
3418 07-07-2004 10:00:00 21.44 C 46.8000 % 9.6 C
3419 07-07-2004 11:00:00 23.82 C 41.8000 % 10.07 C
3420 07-07-2004 12:00:00 26.9 C 34.8000 % 10.07 C
3421 07-07-2004 13:00:00 29.06 C 28.2000 % 8.81 C
3422 07-07-2004 14:00:00 27.3 C 29.8000 % 8.12 C
3423 07-07-2004 15:00:00 20.48 C 48.0000 % 9.1 C
3424 07-07-2004 16:00:00 18.96 C 82.6000 % 15.93 C
3425 07-07-2004 17:00:00 18.5 C 86.0000 % 16.11 C
Sensor: Nr:Datum:Temp:Feuchte:Taupunkt:
Aussen-T/F 3426 07-07-2004 18:00:00 18.46 C 85.4000 % 15.97 C
3427 07-07-2004 19:00:00 18.3 C 86.2000 % 15.95 C
3428 07-07-2004 20:00:00 17.98 C 90.2000 % 16.35 C
3429 07-07-2004 21:00:00 17.32 C 90.8000 % 15.8 C
3430 07-07-2004 22:00:00 16.9 C 91.8000 % 15.56 C
3431 07-07-2004 23:00:00 16.6 C 92.4000 % 15.36 C
3432 08-07-2004 00:00:00 16.8 C 92.0000 % 15.49 C
3433 08-07-2004 01:00:00 16.54 C 92.2000 % 15.27 C
3434 08-07-2004 02:00:00 16.36 C 92.6000 % 15.16 C
3435 08-07-2004 03:00:00 15.88 C 93.6000 % 14.85 C
3436 08-07-2004 04:00:00 15.96 C 94.0000 % 15 C
3437 08-07-2004 05:00:00 16 C 94.2000 % 15.07 C
3438 08-07-2004 06:00:00 15.98 C 94.4000 % 15.08 C
3439 08-07-2004 07:00:00 16.78 C 94.4000 % 15.88 C
3440 08-07-2004 08:00:00 17.2 C 92.4000 % 15.96 C
3441 08-07-2004 09:00:00 17.14 C 87.0000 % 14.96 C
3442 08-07-2004 10:00:00 16.92 C 91.0000 % 15.44 C
3443 08-07-2004 11:00:00 17.52 C 88.4000 % 15.58 C
3444 08-07-2004 12:00:00 18.26 C 82.0000 % 15.14 C
3445 08-07-2004 13:00:00 18.92 C 74.8000 % 14.35 C
3446 08-07-2004 14:00:00 18.88 C 72.2000 % 13.77 C
3447 08-07-2004 15:00:00 18.58 C 67.4000 % 12.43 C
3448 08-07-2004 16:00:00 21.8 C 53.6000 % 11.97 C
3449 08-07-2004 17:00:00 25.6 C 37.0000 % 9.84 C
3450 08-07-2004 18:00:00 26 C 32.4000 % 8.22 C
Sensor: Nr:Datum:Temp:Feuchte:Taupunkt:
Aussen-T/F 3451 08-07-2004 19:00:00 24.82 C 36.2000 % 8.82 C
3452 08-07-2004 20:00:00 24.08 C 36.2000 % 8.17 C
3453 08-07-2004 21:00:00 20.4 C 50.8000 % 9.87 C
3454 08-07-2004 22:00:00 17.06 C 62.4000 % 9.83 C
3455 08-07-2004 23:00:00 16.96 C 65.4000 % 10.43 C
3456 09-07-2004 00:00:00 15.94 C 79.8000 % 12.46 C
3457 09-07-2004 01:00:00 15.06 C 91.2000 % 13.64 C
3458 09-07-2004 02:00:00 14.66 C 90.6000 % 13.14 C
3459 09-07-2004 03:00:00 14.54 C 91.0000 % 13.09 C
3460 09-07-2004 04:00:00 14.02 C 90.0000 % 12.41 C
3461 09-07-2004 05:00:00 13.9 C 90.0000 % 12.29 C
3462 09-07-2004 06:00:00 14.04 C 87.4000 % 11.98 C
3463 09-07-2004 07:00:00 14.86 C 80.4000 % 11.52 C
3464 09-07-2004 08:00:00 15.82 C 73.2000 % 11.03 C
3465 09-07-2004 09:00:00 15.96 C 73.8000 % 11.29 C
3466 09-07-2004 10:00:00 16.2 C 74.0000 % 11.56 C
3467 09-07-2004 11:00:00 16.42 C 71.6000 % 11.28 C
3468 09-07-2004 12:00:00 16.44 C 69.0000 % 10.74 C
3469 09-07-2004 13:00:00 17.06 C 64.4000 % 10.3 C
3470 09-07-2004 14:00:00 16.2 C 66.8000 % 10.03 C
3471 09-07-2004 15:00:00 16.4 C 67.0000 % 10.26 C
3472 09-07-2004 16:00:00 16.98 C 63.4000 % 9.99 C
3473 09-07-2004 17:00:00 16.04 C 71.4000 % 10.87 C
3474 09-07-2004 18:00:00 13.98 C 87.8000 % 11.99 C
3475 09-07-2004 19:00:00 13.96 C 86.0000 % 11.66 C
Sensor: Nr:Datum:Temp:Feuchte:Taupunkt:
Aussen-T/F 3476 09-07-2004 20:00:00 14 C 82.2000 % 11.02 C
3477 09-07-2004 21:00:00 13.54 C 84.6000 % 11 C
3478 09-07-2004 22:00:00 13.5 C 85.0000 % 11.03 C
3479 09-07-2004 23:00:00 13.44 C 82.0000 % 10.43 C
3480 10-07-2004 00:00:00 13.1 C 82.0000 % 10.1 C
3481 10-07-2004 01:00:00 12.52 C 85.2000 % 10.1 C
3482 10-07-2004 02:00:00 12.6 C 84.8000 % 10.11 C
3483 10-07-2004 03:00:00 12.38 C 87.4000 % 10.35 C
3484 10-07-2004 04:00:00 12.28 C 87.0000 % 10.18 C
3485 10-07-2004 05:00:00 12.5 C 83.0000 % 9.69 C
3486 10-07-2004 06:00:00 12.62 C 80.8000 % 9.41 C
3487 10-07-2004 07:00:00 12.98 C 78.8000 % 9.39 C
3488 10-07-2004 08:00:00 14 C 72.6000 % 9.16 C
3489 10-07-2004 09:00:00 15.18 C 65.2000 % 8.7 C
3490 10-07-2004 10:00:00 15.36 C 61.6000 % 8.03 C
3491 10-07-2004 11:00:00 16.94 C 53.8000 % 7.52 C
3492 10-07-2004 12:00:00 18.88 C 46.6000 % 7.21 C
3493 10-07-2004 13:00:00 18.18 C 47.8000 % 6.94 C
3494 10-07-2004 14:00:00 16.72 C 64.2000 % 9.93 C
3495 10-07-2004 15:00:00 16.64 C 60.8000 % 9.04 C
3496 10-07-2004 16:00:00 16.7 C 68.6000 % 10.9 C
3497 10-07-2004 17:00:00 18.64 C 55.8000 % 9.64 C
3498 10-07-2004 18:00:00 17.18 C 59.4000 % 9.21 C
3499 10-07-2004 19:00:00 16.62 C 55.6000 % 7.71 C
3500 10-07-2004 20:00:00 15.6 C 61.0000 % 8.11 C
Sensor: Nr:Datum:Temp:Feuchte:Taupunkt:
Aussen-T/F 3501 10-07-2004 21:00:00 14.74 C 68.8000 % 9.07 C
3502 10-07-2004 22:00:00 13.58 C 73.6000 % 8.96 C
3503 10-07-2004 23:00:00 12.92 C 72.0000 % 8 C
3504 11-07-2004 00:00:00 12.46 C 75.0000 % 8.16 C
3505 11-07-2004 01:00:00 11.92 C 79.4000 % 8.47 C
3506 11-07-2004 02:00:00 11.58 C 80.4000 % 8.33 C
3507 11-07-2004 03:00:00 11.72 C 79.4000 % 8.28 C
3508 11-07-2004 04:00:00 11.98 C 78.8000 % 8.42 C
3509 11-07-2004 05:00:00 11.82 C 81.4000 % 8.74 C
3510 11-07-2004 06:00:00 11.98 C 80.2000 % 8.68 C
3511 11-07-2004 07:00:00 12.12 C 77.2000 % 8.25 C
3512 11-07-2004 08:00:00 13.6 C 70.0000 % 8.24 C
3513 11-07-2004 09:00:00 14.28 C 64.4000 % 7.66 C
3514 11-07-2004 10:00:00 16.52 C 56.2000 % 7.77 C
3515 11-07-2004 11:00:00 17.2 C 50.4000 % 6.81 C
3516 11-07-2004 12:00:00 18.4 C 46.2000 % 6.65 C
3517 11-07-2004 13:00:00 18.08 C 47.2000 % 6.67 C
3518 11-07-2004 14:00:00 16.46 C 63.4000 % 9.5 C
3519 11-07-2004 15:00:00 16.26 C 71.0000 % 11 C
3520 11-07-2004 16:00:00 18.22 C 55.0000 % 9.04 C
3521 11-07-2004 17:00:00 18.38 C 48.6000 % 7.37 C
3522 11-07-2004 18:00:00 17.98 C 49.2000 % 7.18 C
3523 11-07-2004 19:00:00 17.86 C 47.2000 % 6.46 C
3524 11-07-2004 20:00:00 17 C 50.4000 % 6.63 C
3525 11-07-2004 21:00:00 15.62 C 58.4000 % 7.49 C
Sensor: Nr:Datum:Temp:Feuchte:Taupunkt:
Aussen-T/F 3526 11-07-2004 22:00:00 14.42 C 68.4000 % 8.68 C
3527 11-07-2004 23:00:00 13.04 C 84.4000 % 10.47 C
3528 12-07-2004 00:00:00 12.74 C 87.6000 % 10.74 C
3529 12-07-2004 01:00:00 12.38 C 88.6000 % 10.55 C
3530 12-07-2004 02:00:00 12.58 C 87.2000 % 10.51 C
3531 12-07-2004 03:00:00 12.56 C 86.0000 % 10.28 C
3532 12-07-2004 04:00:00 12.12 C 86.6000 % 9.95 C
3533 12-07-2004 05:00:00 12.24 C 86.8000 % 10.11 C
3534 12-07-2004 06:00:00 12.38 C 85.0000 % 9.93 C
3535 12-07-2004 07:00:00 13.1 C 81.0000 % 9.92 C
3536 12-07-2004 08:00:00 13.48 C 76.2000 % 9.38 C
3537 12-07-2004 09:00:00 13.94 C 75.4000 % 9.66 C
3538 12-07-2004 10:00:00 14.46 C 74.8000 % 10.05 C
3539 12-07-2004 11:00:00 14.94 C 76.0000 % 10.75 C
3540 12-07-2004 12:00:00 15.86 C 66.4000 % 9.61 C
3541 12-07-2004 13:00:00 17.16 C 58.4000 % 8.94 C
3542 12-07-2004 14:00:00 17.68 C 56.2000 % 8.85 C
3543 12-07-2004 15:00:00 17.56 C 59.8000 % 9.66 C
3544 12-07-2004 16:00:00 15.08 C 81.0000 % 11.85 C
3545 12-07-2004 17:00:00 14.94 C 84.0000 % 12.26 C
3546 12-07-2004 18:00:00 14.38 C 84.0000 % 11.71 C
3547 12-07-2004 19:00:00 14.76 C 78.6000 % 11.08 C
3548 12-07-2004 20:00:00 14.6 C 75.2000 % 10.26 C
3549 12-07-2004 21:00:00 14.04 C 72.6000 % 9.2 C
3550 12-07-2004 22:00:00 13.78 C 72.6000 % 8.95 C
Sensor: Nr:Datum:Temp:Feuchte:Taupunkt:
Aussen-T/F 3551 12-07-2004 23:00:00 13.32 C 75.6000 % 9.1 C
3552 13-07-2004 00:00:00 13.22 C 74.6000 % 8.81 C
3553 13-07-2004 01:00:00 13.16 C 73.8000 % 8.59 C
3554 13-07-2004 02:00:00 12.975 C 74.7500 % 8.6 C
3555 13-07-2004 03:00:00 12.92 C 75.8000 % 8.76 C
3556 13-07-2004 04:00:00 12.76 C 77.2000 % 8.87 C
3557 13-07-2004 05:00:00 12.44 C 79.8000 % 9.05 C
3558 13-07-2004 06:00:00 12.58 C 80.4000 % 9.3 C
3559 13-07-2004 07:00:00 13.22 C 76.6000 % 9.2 C
3560 13-07-2004 08:00:00 14.04 C 68.2000 % 8.28 C
3561 13-07-2004 09:00:00 15.32 C 59.8000 % 7.56 C
3562 13-07-2004 10:00:00 15.76 C 54.6000 % 6.64 C
3563 13-07-2004 11:00:00 16.06 C 56.8000 % 7.5 C
3564 13-07-2004 12:00:00 15.38 C 60.4000 % 7.76 C
3565 13-07-2004 13:00:00 16.76 C 54.0000 % 7.41 C
3566 13-07-2004 14:00:00 17.5 C 54.4000 % 8.21 C
3567 13-07-2004 15:00:00 17.22 C 54.6000 % 8 C
3568 13-07-2004 16:00:00 14.48 C 75.0000 % 10.11 C
3569 13-07-2004 17:00:00 14.94 C 75.8000 % 10.71 C
3570 13-07-2004 18:00:00 17.04 C 64.4000 % 10.28 C
3571 13-07-2004 19:00:00 15.26 C 68.0000 % 9.4 C
3572 13-07-2004 20:00:00 15.2 C 69.2000 % 9.6 C
3573 13-07-2004 21:00:00 14.26 C 72.0000 % 9.29 C
3574 13-07-2004 22:00:00 13.94 C 71.0000 % 8.77 C
3575 13-07-2004 23:00:00 13.12 C 72.6000 % 8.31 C
Sensor: Nr:Datum:Temp:Feuchte:Taupunkt:
Aussen-T/F 3576 14-07-2004 00:00:00 13.1 C 74.6000 % 8.7 C
3577 14-07-2004 01:00:00 12.68 C 77.8000 % 8.91 C
3578 14-07-2004 02:00:00 12.3 C 81.6000 % 9.25 C
3579 14-07-2004 03:00:00 12.2 C 83.0000 % 9.4 C
3580 14-07-2004 04:00:00 11.96 C 80.6000 % 8.73 C
3581 14-07-2004 05:00:00 11.44 C 80.6000 % 8.23 C
3582 14-07-2004 06:00:00 11.28 C 81.2000 % 8.18 C
3583 14-07-2004 07:00:00 11.9 C 81.6000 % 8.86 C
3584 14-07-2004 08:00:00 13.16 C 75.8000 % 8.99 C
3585 14-07-2004 09:00:00 14.78 C 69.6000 % 9.28 C
3586 14-07-2004 10:00:00 17.02 C 60.2000 % 9.25 C
3587 14-07-2004 11:00:00 18.86 C 53.8000 % 9.3 C
3588 14-07-2004 12:00:00 18.96 C 53.2000 % 9.23 C
3589 14-07-2004 13:00:00 19.66 C 47.8000 % 8.29 C
3590 14-07-2004 14:00:00 21.54 C 42.6000 % 8.3 C
3591 14-07-2004 15:00:00 22.24 C 38.8000 % 7.56 C
3592 14-07-2004 16:00:00 22.48 C 38.4000 % 7.62 C
3593 14-07-2004 17:00:00 22.38 C 40.0000 % 8.13 C
3594 14-07-2004 18:00:00 21.54 C 42.6000 % 8.3 C
3595 14-07-2004 19:00:00 17.48 C 68.2000 % 11.56 C
3596 14-07-2004 20:00:00 15.64 C 87.8000 % 13.62 C
3597 14-07-2004 21:00:00 15.62 C 88.6000 % 13.74 C
3598 14-07-2004 22:00:00 15.46 C 89.6000 % 13.76 C
3599 14-07-2004 23:00:00 16.1 C 85.8000 % 13.72 C
3600 15-07-2004 00:00:00 16.62 C 83.0000 % 13.72 C
Sensor: Nr:Datum:Temp:Feuchte:Taupunkt:
Aussen-T/F 3601 15-07-2004 01:00:00 16.64 C 84.2000 % 13.96 C
3602 15-07-2004 02:00:00 16.54 C 84.6000 % 13.94 C
3603 15-07-2004 03:00:00 16.4 C 86.4000 % 14.12 C
3604 15-07-2004 04:00:00 16.66 C 84.8000 % 14.09 C
3605 15-07-2004 05:00:00 16.62 C 85.2000 % 14.12 C
3606 15-07-2004 06:00:00 16.9 C 83.8000 % 14.14 C
3607 15-07-2004 07:00:00 17.46 C 80.4000 % 14.05 C
3608 15-07-2004 08:00:00 18 C 78.6000 % 14.23 C
3609 15-07-2004 09:00:00 18.72 C 75.2000 % 14.24 C
3610 15-07-2004 10:00:00 20.8 C 66.8000 % 14.4 C
3611 15-07-2004 11:00:00 22.04 C 60.8000 % 14.12 C
3612 15-07-2004 12:00:00 21.96 C 60.0000 % 13.84 C
3613 15-07-2004 13:00:00 20.88 C 64.8000 % 14.01 C
3614 15-07-2004 14:00:00 20.56 C 69.2000 % 14.72 C
3615 15-07-2004 15:00:00 22.62 C 61.2000 % 14.77 C
3616 15-07-2004 16:00:00 22.32 C 64.8000 % 15.37 C
3617 15-07-2004 17:00:00 19.44 C 87.0000 % 17.22 C
3618 15-07-2004 18:00:00 20.88 C 84.6000 % 18.19 C
3619 15-07-2004 19:00:00 20.68 C 81.4000 % 17.38 C
3620 15-07-2004 20:00:00 19.18 C 88.2000 % 17.18 C
3621 15-07-2004 21:00:00 18.92 C 88.4000 % 16.96 C
3622 15-07-2004 22:00:00 18.36 C 86.2000 % 16.01 C
3623 15-07-2004 23:00:00 17.56 C 88.2000 % 15.59 C
3624 16-07-2004 00:00:00 17.04 C 90.0000 % 15.39 C
3625 16-07-2004 01:00:00 17.1 C 91.6000 % 15.72 C
Sensor: Nr:Datum:Temp:Feuchte:Taupunkt:
Aussen-T/F 3626 16-07-2004 02:00:00 17.1 C 91.8000 % 15.76 C
3627 16-07-2004 03:00:00 17.12 C 91.4000 % 15.71 C
3628 16-07-2004 04:00:00 17.1 C 89.8000 % 15.41 C
3629 16-07-2004 05:00:00 17.2 C 87.4000 % 15.09 C
3630 16-07-2004 06:00:00 17.36 C 85.4000 % 14.89 C
3631 16-07-2004 07:00:00 17.54 C 84.8000 % 14.95 C
3632 16-07-2004 08:00:00 18.3 C 82.6000 % 15.29 C
3633 16-07-2004 09:00:00 20.4 C 69.4000 % 14.61 C
3634 16-07-2004 10:00:00 21.44 C 61.4000 % 13.71 C
3635 16-07-2004 11:00:00 23.16 C 54.2000 % 13.4 C
3636 16-07-2004 12:00:00 24.02 C 52.4000 % 13.68 C
3637 16-07-2004 13:00:00 25.82 C 42.4000 % 12.08 C
3638 16-07-2004 14:00:00 26.74 C 38.6000 % 11.48 C
3639 16-07-2004 15:00:00 28.18 C 36.2000 % 11.78 C
3640 16-07-2004 16:00:00 29.68 C 32.0000 % 11.23 C
3641 16-07-2004 17:00:00 30.22 C 31.4000 % 11.41 C
3642 16-07-2004 18:00:00 30.96 C 29.2000 % 10.96 C
3643 16-07-2004 19:00:00 30.38 C 29.4000 % 10.56 C
3644 16-07-2004 20:00:00 29.4 C 38.0000 % 13.6 C
3645 16-07-2004 21:00:00 25.34 C 49.6000 % 14.05 C
3646 16-07-2004 22:00:00 23 C 57.8000 % 14.24 C
3647 16-07-2004 23:00:00 21.34 C 63.6000 % 14.16 C
3648 17-07-2004 00:00:00 19.9 C 69.6000 % 14.18 C
3649 17-07-2004 01:00:00 18.98 C 73.0000 % 14.03 C
3650 17-07-2004 02:00:00 18.18 C 76.8000 % 14.04 C
Sensor: Nr:Datum:Temp:Feuchte:Taupunkt:
Aussen-T/F 3651 17-07-2004 03:00:00 17.3 C 79.4000 % 13.7 C
3652 17-07-2004 04:00:00 16.54 C 81.2000 % 13.31 C
3653 17-07-2004 05:00:00 15.86 C 83.0000 % 12.98 C
3654 17-07-2004 06:00:00 15.64 C 83.8000 % 12.91 C
3655 17-07-2004 07:00:00 15.94 C 83.8000 % 13.2 C
3656 17-07-2004 08:00:00 17.08 C 82.2000 % 14.02 C
3657 17-07-2004 09:00:00 19.86 C 73.6000 % 15.01 C
3658 17-07-2004 10:00:00 24.2 C 60.4000 % 16.05 C
3659 17-07-2004 11:00:00 26.58 C 49.2000 % 15.05 C
3660 17-07-2004 12:00:00 27.92 C 45.8000 % 15.16 C
3661 17-07-2004 13:00:00 20.88 C 80.0000 % 17.3 C
3662 17-07-2004 14:00:00 21.44 C 82.4000 % 18.32 C
3663 17-07-2004 15:00:00 26.48 C 62.6000 % 18.76 C
3664 17-07-2004 16:00:00 30.42 C 46.2000 % 17.56 C
3665 17-07-2004 17:00:00 31.94 C 36.2000 % 15.09 C
3666 17-07-2004 18:00:00 30.88 C 43.0000 % 16.84 C
3667 17-07-2004 19:00:00 26.8 C 58.6000 % 18.01 C
3668 17-07-2004 20:00:00 21.58 C 73.0000 % 16.53 C
3669 17-07-2004 21:00:00 18.96 C 90.6000 % 17.39 C
3670 17-07-2004 22:00:00 18.88 C 91.0000 % 17.38 C
3671 17-07-2004 23:00:00 18.08 C 90.8000 % 16.55 C
3672 18-07-2004 00:00:00 17.76 C 92.0000 % 16.44 C
3673 18-07-2004 01:00:00 17.92 C 91.0000 % 16.43 C
3674 18-07-2004 02:00:00 17.86 C 88.6000 % 15.95 C
3675 18-07-2004 03:00:00 17.76 C 88.2000 % 15.78 C
Sensor: Nr:Datum:Temp:Feuchte:Taupunkt:
Aussen-T/F 3676 18-07-2004 04:00:00 17.1 C 89.2000 % 15.31 C
3677 18-07-2004 05:00:00 16.36 C 91.0000 % 14.89 C
3678 18-07-2004 06:00:00 16.38 C 91.2000 % 14.94 C
3679 18-07-2004 07:00:00 16.9 C 91.2000 % 15.46 C
3680 18-07-2004 08:00:00 18.04 C 86.6000 % 15.77 C
3681 18-07-2004 09:00:00 20.34 C 76.0000 % 15.97 C
3682 18-07-2004 10:00:00 22.56 C 71.8000 % 17.21 C
3683 18-07-2004 11:00:00 23.9 C 66.6000 % 17.3 C
3684 18-07-2004 12:00:00 26.5 C 55.4000 % 16.84 C
3685 18-07-2004 13:00:00 24.48333 C 64.5000 % 17.35 C
3686 18-07-2004 14:00:00 18.34 C 89.6000 % 16.6 C
3687 18-07-2004 15:00:00 20.42 C 83.2000 % 17.47 C
3688 18-07-2004 16:00:00 21.18 C 80.2000 % 17.63 C
3689 18-07-2004 17:00:00 21.96 C 76.2000 % 17.58 C
3690 18-07-2004 18:00:00 22.24 C 69.6000 % 16.42 C
3691 18-07-2004 19:00:00 22.24 C 67.4000 % 15.91 C
3692 18-07-2004 20:00:00 21.8 C 70.8000 % 16.26 C
3693 18-07-2004 21:00:00 19.8 C 78.0000 % 15.85 C
3694 18-07-2004 22:00:00 18.8 C 84.4000 % 16.11 C
3695 18-07-2004 23:00:00 18.18 C 89.2000 % 16.37 C
3696 19-07-2004 00:00:00 17.6 C 92.8000 % 16.42 C
3697 19-07-2004 01:00:00 17.52 C 92.6000 % 16.31 C
3698 19-07-2004 02:00:00 17.66 C 92.6000 % 16.45 C
3699 19-07-2004 03:00:00 17.56 C 93.4000 % 16.48 C
3700 19-07-2004 04:00:00 17.1 C 94.2000 % 16.16 C
Sensor: Nr:Datum:Temp:Feuchte:Taupunkt:
Aussen-T/F 3701 19-07-2004 05:00:00 16.68 C 95.0000 % 15.88 C
3702 19-07-2004 06:00:00 17.02 C 95.0000 % 16.21 C
3703 19-07-2004 07:00:00 17.38 C 95.0000 % 16.57 C
3704 19-07-2004 08:00:00 17.86 C 94.4000 % 16.95 C
3705 19-07-2004 09:00:00 18.56 C 87.0000 % 16.35 C
3706 19-07-2004 10:00:00 20.42 C 69.4000 % 14.63 C
3707 19-07-2004 11:00:00 22.44 C 57.2000 % 13.56 C
3708 19-07-2004 12:00:00 25.44 C 42.4000 % 11.74 C
3709 19-07-2004 13:00:00 26.9 C 33.6000 % 9.54 C
3710 19-07-2004 14:00:00 27.9 C 33.6000 % 10.42 C
3711 19-07-2004 15:00:00 28.36 C 32.6000 % 10.36 C
3712 19-07-2004 16:00:00 28.96 C 30.0000 % 9.64 C
3713 19-07-2004 17:00:00 29.08 C 29.2000 % 9.34 C
3714 19-07-2004 18:00:00 28.78 C 32.6000 % 10.73 C
3715 19-07-2004 19:00:00 26.82 C 41.0000 % 12.47 C
3716 19-07-2004 20:00:00 23.26 C 52.4000 % 12.98 C
3717 19-07-2004 21:00:00 20.2 C 60.4000 % 12.29 C
3718 19-07-2004 22:00:00 19.42 C 63.2000 % 12.25 C
3719 19-07-2004 23:00:00 19 C 65.2000 % 12.32 C
3720 20-07-2004 00:00:00 18.06 C 69.0000 % 12.29 C
3721 20-07-2004 01:00:00 17.76 C 70.8000 % 12.39 C
3722 20-07-2004 02:00:00 16.98 C 74.8000 % 12.48 C
3723 20-07-2004 03:00:00 16.6 C 76.8000 % 12.51 C
3724 20-07-2004 04:00:00 16.68 C 77.8000 % 12.79 C
3725 20-07-2004 05:00:00 16.86 C 78.2000 % 13.04 C
Sensor: Nr:Datum:Temp:Feuchte:Taupunkt:
Aussen-T/F 3726 20-07-2004 06:00:00 16.62 C 83.2000 % 13.76 C
3727 20-07-2004 07:00:00 16.74 C 85.2000 % 14.24 C
3728 20-07-2004 08:00:00 16.92 C 88.4000 % 14.99 C
3729 20-07-2004 09:00:00 17.44 C 86.4000 % 15.15 C
3730 20-07-2004 10:00:00 19.56 C 77.6000 % 15.54 C
3731 20-07-2004 11:00:00 21.4 C 71.2000 % 15.97 C
3732 20-07-2004 12:00:00 19.54 C 82.2000 % 16.42 C
3733 20-07-2004 13:00:00 18.8 C 90.6000 % 17.23 C
3734 20-07-2004 14:00:00 20.24 C 87.8000 % 18.15 C
3735 20-07-2004 15:00:00 22.08 C 72.0000 % 16.8 C
3736 20-07-2004 16:00:00 24.36 C 61.8000 % 16.56 C
3737 20-07-2004 17:00:00 25.74 C 51.4000 % 14.96 C
3738 20-07-2004 18:00:00 26.18 C 50.0000 % 14.94 C
3739 20-07-2004 19:00:00 24.38 C 58.8000 % 15.8 C
3740 20-07-2004 20:00:00 22.58 C 69.8000 % 16.79 C
3741 20-07-2004 21:00:00 21.34 C 75.6000 % 16.85 C
3742 20-07-2004 22:00:00 20.3 C 81.2000 % 16.97 C
3743 20-07-2004 23:00:00 19.36 C 83.2000 % 16.44 C
3744 21-07-2004 00:00:00 18.54 C 85.0000 % 15.97 C
3745 21-07-2004 01:00:00 17.88 C 87.0000 % 15.69 C
3746 21-07-2004 02:00:00 17.18 C 88.6000 % 15.28 C
3747 21-07-2004 03:00:00 16.92 C 91.0000 % 15.44 C
3748 21-07-2004 04:00:00 17.04 C 90.0000 % 15.39 C
3749 21-07-2004 05:00:00 17.04 C 89.6000 % 15.32 C
3750 21-07-2004 06:00:00 16.78 C 91.2000 % 15.34 C
Sensor: Nr:Datum:Temp:Feuchte:Taupunkt:
Aussen-T/F 3751 21-07-2004 07:00:00 17.42 C 87.2000 % 15.27 C
3752 21-07-2004 08:00:00 17.88 C 84.4000 % 15.21 C
3753 21-07-2004 09:00:00 19.36 C 79.4000 % 15.7 C
3754 21-07-2004 10:00:00 22.9 C 68.6000 % 16.82 C
3755 21-07-2004 11:00:00 25.46 C 56.4000 % 16.15 C
3756 21-07-2004 12:00:00 27.54 C 42.0000 % 13.48 C
3757 21-07-2004 13:00:00 29.14 C 36.6000 % 12.8 C
3758 21-07-2004 14:00:00 29.64 C 34.8000 % 12.47 C
3759 21-07-2004 15:00:00 30.28 C 36.8000 % 13.88 C
3760 21-07-2004 16:00:00 29.24 C 41.2000 % 14.71 C
3761 21-07-2004 17:00:00 28.92 C 41.0000 % 14.34 C
3762 21-07-2004 18:00:00 26.16 C 49.8000 % 14.86 C
3763 21-07-2004 19:00:00 24.8 C 57.4000 % 15.81 C
3764 21-07-2004 20:00:00 23.5 C 63.6000 % 16.2 C
3765 21-07-2004 21:00:00 21.98 C 68.6000 % 15.94 C
3766 21-07-2004 22:00:00 21.22 C 71.6000 % 15.88 C
3767 21-07-2004 23:00:00 20.8 C 74.8000 % 16.16 C
3768 22-07-2004 00:00:00 20.12 C 77.2000 % 16 C
3769 22-07-2004 01:00:00 19.86 C 80.4000 % 16.39 C
3770 22-07-2004 02:00:00 19.35 C 84.5000 % 16.67 C
3771 22-07-2004 03:00:00 18.9 C 88.4000 % 16.94 C
3772 22-07-2004 04:00:00 18.48 C 91.8000 % 17.12 C
3773 22-07-2004 05:00:00 18.34 C 93.0000 % 17.19 C
3774 22-07-2004 06:00:00 18 C 93.4000 % 16.92 C
3775 22-07-2004 07:00:00 18.08 C 93.6000 % 17.03 C
Sensor: Nr:Datum:Temp:Feuchte:Taupunkt:
Aussen-T/F 3776 22-07-2004 08:00:00 18.68 C 92.6000 % 17.46 C
3777 22-07-2004 09:00:00 20.08 C 85.4000 % 17.55 C
3778 22-07-2004 10:00:00 23.12 C 73.6000 % 18.14 C
3779 22-07-2004 11:00:00 25.64 C 61.4000 % 17.66 C
3780 22-07-2004 12:00:00 28.36 C 49.2000 % 16.68 C
3781 22-07-2004 13:00:00 30.46 C 34.4000 % 13.01 C
3782 22-07-2004 14:00:00 30.78 C 30.0000 % 11.21 C
3783 22-07-2004 15:00:00 31.64 C 28.2000 % 11.01 C
3784 22-07-2004 16:00:00 32.14 C 26.8000 % 10.67 C
3785 22-07-2004 17:00:00 32.66 C 26.4000 % 10.89 C
3786 22-07-2004 18:00:00 32.44 C 32.6000 % 13.91 C
3787 22-07-2004 19:00:00 31.48 C 37.0000 % 15.03 C
3788 22-07-2004 20:00:00 28.54 C 45.4000 % 15.59 C
3789 22-07-2004 21:00:00 25.68 C 55.0000 % 15.96 C
3790 22-07-2004 22:00:00 23.74 C 61.0000 % 15.77 C
3791 22-07-2004 23:00:00 22.9 C 63.0000 % 15.48 C
3792 23-07-2004 00:00:00 22.1 C 66.6000 % 15.59 C
3793 23-07-2004 01:00:00 21.18 C 70.8000 % 15.67 C
3794 23-07-2004 02:00:00 20.34 C 75.2000 % 15.8 C
3795 23-07-2004 03:00:00 19.88 C 78.4000 % 16.01 C
3796 23-07-2004 04:00:00 20.28 C 75.4000 % 15.79 C